<?xml version="1.0" encoding="UTF-8" standalone="no" ?>
<gpx xmlns="http://www.topografix.com/GPX/1/1" xmlns:xsi="http://www.w3.org/2001/XMLSchema-instance" xsi:schemaLocation="http://www.topografix.com/GPX/1/1 http://www.topografix.com/GPX/1/1/gpx.xsd" version="1.1" creator="VisuGPX - https://www.visugpx.com">
  <metadata>
    <name>2020-05-29 18:48:01</name>
  </metadata>
  <trk>
    <name><![CDATA[2020-05-29 18:48:01]]></name>
    <trkseg>
      <trkpt lat="43.01605" lon="0.5886">
        <ele>587.5</ele>
        <time>2020-05-29T11:37:43Z</time>
      </trkpt>
      <trkpt lat="43.01605" lon="0.58861">
        <ele>587.5</ele>
        <time>2020-05-29T11:37:44Z</time>
      </trkpt>
      <trkpt lat="43.01586" lon="0.5888">
        <ele>587.5</ele>
        <time>2020-05-29T11:38:05Z</time>
      </trkpt>
      <trkpt lat="43.01582" lon="0.58882">
        <ele>587.5</ele>
        <time>2020-05-29T11:38:34Z</time>
      </trkpt>
      <trkpt lat="43.01576" lon="0.58874">
        <ele>587.5</ele>
        <time>2020-05-29T11:39:02Z</time>
      </trkpt>
      <trkpt lat="43.01585" lon="0.58882">
        <ele>587.5</ele>
        <time>2020-05-29T11:39:31Z</time>
      </trkpt>
      <trkpt lat="43.01582" lon="0.58866">
        <ele>587.5</ele>
        <time>2020-05-29T11:39:40Z</time>
      </trkpt>
      <trkpt lat="43.01583" lon="0.58861">
        <ele>587.5</ele>
        <time>2020-05-29T11:39:42Z</time>
      </trkpt>
      <trkpt lat="43.0158" lon="0.58839">
        <ele>587.5</ele>
        <time>2020-05-29T11:39:56Z</time>
      </trkpt>
      <trkpt lat="43.01579" lon="0.58837">
        <ele>587.5</ele>
        <time>2020-05-29T11:39:57Z</time>
      </trkpt>
      <trkpt lat="43.01578" lon="0.58834">
        <ele>587.5</ele>
        <time>2020-05-29T11:39:59Z</time>
      </trkpt>
      <trkpt lat="43.01578" lon="0.58828">
        <ele>587.5</ele>
        <time>2020-05-29T11:40:04Z</time>
      </trkpt>
      <trkpt lat="43.01586" lon="0.58819">
        <ele>587.98</ele>
        <time>2020-05-29T11:40:17Z</time>
      </trkpt>
      <trkpt lat="43.01593" lon="0.58826">
        <ele>587.98</ele>
        <time>2020-05-29T11:40:28Z</time>
      </trkpt>
      <trkpt lat="43.01609" lon="0.58821">
        <ele>587.5</ele>
        <time>2020-05-29T11:40:41Z</time>
      </trkpt>
      <trkpt lat="43.01615" lon="0.5882">
        <ele>587.02</ele>
        <time>2020-05-29T11:40:49Z</time>
      </trkpt>
      <trkpt lat="43.01618" lon="0.5882">
        <ele>587.02</ele>
        <time>2020-05-29T11:40:51Z</time>
      </trkpt>
      <trkpt lat="43.01631" lon="0.58821">
        <ele>587.02</ele>
        <time>2020-05-29T11:41:01Z</time>
      </trkpt>
      <trkpt lat="43.01631" lon="0.58817">
        <ele>587.02</ele>
        <time>2020-05-29T11:41:03Z</time>
      </trkpt>
      <trkpt lat="43.01634" lon="0.58799">
        <ele>586.54</ele>
        <time>2020-05-29T11:41:14Z</time>
      </trkpt>
      <trkpt lat="43.01627" lon="0.58784">
        <ele>587.02</ele>
        <time>2020-05-29T11:41:25Z</time>
      </trkpt>
      <trkpt lat="43.01624" lon="0.58778">
        <ele>587.02</ele>
        <time>2020-05-29T11:41:29Z</time>
      </trkpt>
      <trkpt lat="43.01618" lon="0.58773">
        <ele>587.02</ele>
        <time>2020-05-29T11:41:36Z</time>
      </trkpt>
      <trkpt lat="43.01614" lon="0.58764">
        <ele>587.02</ele>
        <time>2020-05-29T11:41:47Z</time>
      </trkpt>
      <trkpt lat="43.01616" lon="0.58757">
        <ele>586.54</ele>
        <time>2020-05-29T11:42:03Z</time>
      </trkpt>
      <trkpt lat="43.01627" lon="0.58769">
        <ele>585.1</ele>
        <time>2020-05-29T11:42:18Z</time>
      </trkpt>
      <trkpt lat="43.01632" lon="0.58773">
        <ele>585.1</ele>
        <time>2020-05-29T11:42:25Z</time>
      </trkpt>
      <trkpt lat="43.01648" lon="0.58779">
        <ele>584.62</ele>
        <time>2020-05-29T11:42:43Z</time>
      </trkpt>
      <trkpt lat="43.0165" lon="0.58775">
        <ele>584.14</ele>
        <time>2020-05-29T11:42:47Z</time>
      </trkpt>
      <trkpt lat="43.01645" lon="0.58769">
        <ele>584.62</ele>
        <time>2020-05-29T11:42:59Z</time>
      </trkpt>
      <trkpt lat="43.01641" lon="0.58765">
        <ele>584.62</ele>
        <time>2020-05-29T11:43:05Z</time>
      </trkpt>
      <trkpt lat="43.01633" lon="0.5876">
        <ele>584.14</ele>
        <time>2020-05-29T11:43:11Z</time>
      </trkpt>
      <trkpt lat="43.01628" lon="0.58757">
        <ele>584.14</ele>
        <time>2020-05-29T11:43:16Z</time>
      </trkpt>
      <trkpt lat="43.01622" lon="0.58748">
        <ele>584.62</ele>
        <time>2020-05-29T11:43:28Z</time>
      </trkpt>
      <trkpt lat="43.01622" lon="0.58748">
        <ele>585.1</ele>
        <time>2020-05-29T11:43:29Z</time>
      </trkpt>
      <trkpt lat="43.01628" lon="0.58747">
        <ele>585.58</ele>
        <time>2020-05-29T11:43:45Z</time>
      </trkpt>
      <trkpt lat="43.01637" lon="0.58752">
        <ele>587.02</ele>
        <time>2020-05-29T11:44:00Z</time>
      </trkpt>
      <trkpt lat="43.01642" lon="0.58757">
        <ele>589.91</ele>
        <time>2020-05-29T11:44:13Z</time>
      </trkpt>
      <trkpt lat="43.01652" lon="0.58766">
        <ele>589.43</ele>
        <time>2020-05-29T11:44:26Z</time>
      </trkpt>
      <trkpt lat="43.01656" lon="0.58771">
        <ele>587.98</ele>
        <time>2020-05-29T11:44:35Z</time>
      </trkpt>
      <trkpt lat="43.01663" lon="0.58771">
        <ele>584.62</ele>
        <time>2020-05-29T11:44:46Z</time>
      </trkpt>
      <trkpt lat="43.01664" lon="0.58769">
        <ele>584.14</ele>
        <time>2020-05-29T11:44:49Z</time>
      </trkpt>
      <trkpt lat="43.01665" lon="0.58766">
        <ele>584.14</ele>
        <time>2020-05-29T11:44:51Z</time>
      </trkpt>
      <trkpt lat="43.01671" lon="0.58759">
        <ele>586.06</ele>
        <time>2020-05-29T11:45:03Z</time>
      </trkpt>
      <trkpt lat="43.0168" lon="0.58749">
        <ele>587.02</ele>
        <time>2020-05-29T11:45:13Z</time>
      </trkpt>
      <trkpt lat="43.01687" lon="0.58739">
        <ele>588.95</ele>
        <time>2020-05-29T11:45:25Z</time>
      </trkpt>
      <trkpt lat="43.01696" lon="0.58732">
        <ele>589.43</ele>
        <time>2020-05-29T11:45:42Z</time>
      </trkpt>
      <trkpt lat="43.01707" lon="0.5872">
        <ele>589.43</ele>
        <time>2020-05-29T11:45:54Z</time>
      </trkpt>
      <trkpt lat="43.0171" lon="0.58709">
        <ele>590.87</ele>
        <time>2020-05-29T11:46:08Z</time>
      </trkpt>
      <trkpt lat="43.0171" lon="0.58696">
        <ele>592.79</ele>
        <time>2020-05-29T11:46:20Z</time>
      </trkpt>
      <trkpt lat="43.01714" lon="0.58681">
        <ele>593.75</ele>
        <time>2020-05-29T11:46:32Z</time>
      </trkpt>
      <trkpt lat="43.01719" lon="0.58668">
        <ele>594.71</ele>
        <time>2020-05-29T11:46:46Z</time>
      </trkpt>
      <trkpt lat="43.01719" lon="0.58651">
        <ele>596.64</ele>
        <time>2020-05-29T11:47:01Z</time>
      </trkpt>
      <trkpt lat="43.0172" lon="0.58628">
        <ele>598.56</ele>
        <time>2020-05-29T11:47:19Z</time>
      </trkpt>
      <trkpt lat="43.01726" lon="0.5861">
        <ele>599.04</ele>
        <time>2020-05-29T11:47:35Z</time>
      </trkpt>
      <trkpt lat="43.01726" lon="0.58599">
        <ele>600</ele>
        <time>2020-05-29T11:47:47Z</time>
      </trkpt>
      <trkpt lat="43.01717" lon="0.58582">
        <ele>602.4</ele>
        <time>2020-05-29T11:48:06Z</time>
      </trkpt>
      <trkpt lat="43.01717" lon="0.58573">
        <ele>602.88</ele>
        <time>2020-05-29T11:48:17Z</time>
      </trkpt>
      <trkpt lat="43.01712" lon="0.58558">
        <ele>604.33</ele>
        <time>2020-05-29T11:48:33Z</time>
      </trkpt>
      <trkpt lat="43.0171" lon="0.58541">
        <ele>606.25</ele>
        <time>2020-05-29T11:48:52Z</time>
      </trkpt>
      <trkpt lat="43.01709" lon="0.58527">
        <ele>607.69</ele>
        <time>2020-05-29T11:49:06Z</time>
      </trkpt>
      <trkpt lat="43.01706" lon="0.58513">
        <ele>609.13</ele>
        <time>2020-05-29T11:49:19Z</time>
      </trkpt>
      <trkpt lat="43.017" lon="0.58492">
        <ele>609.13</ele>
        <time>2020-05-29T11:49:34Z</time>
      </trkpt>
      <trkpt lat="43.01693" lon="0.58479">
        <ele>611.06</ele>
        <time>2020-05-29T11:49:43Z</time>
      </trkpt>
      <trkpt lat="43.01687" lon="0.58474">
        <ele>612.98</ele>
        <time>2020-05-29T11:49:57Z</time>
      </trkpt>
      <trkpt lat="43.01682" lon="0.5849">
        <ele>615.86</ele>
        <time>2020-05-29T11:50:14Z</time>
      </trkpt>
      <trkpt lat="43.01674" lon="0.58511">
        <ele>617.78</ele>
        <time>2020-05-29T11:50:31Z</time>
      </trkpt>
      <trkpt lat="43.01671" lon="0.58523">
        <ele>618.26</ele>
        <time>2020-05-29T11:50:43Z</time>
      </trkpt>
      <trkpt lat="43.01664" lon="0.58529">
        <ele>620.67</ele>
        <time>2020-05-29T11:50:59Z</time>
      </trkpt>
      <trkpt lat="43.01663" lon="0.58529">
        <ele>620.67</ele>
        <time>2020-05-29T11:51:01Z</time>
      </trkpt>
      <trkpt lat="43.01653" lon="0.5854">
        <ele>622.59</ele>
        <time>2020-05-29T11:51:13Z</time>
      </trkpt>
      <trkpt lat="43.01647" lon="0.58538">
        <ele>624.51</ele>
        <time>2020-05-29T11:51:26Z</time>
      </trkpt>
      <trkpt lat="43.0165" lon="0.58538">
        <ele>623.55</ele>
        <time>2020-05-29T11:51:49Z</time>
      </trkpt>
      <trkpt lat="43.01649" lon="0.58541">
        <ele>622.59</ele>
        <time>2020-05-29T11:52:09Z</time>
      </trkpt>
      <trkpt lat="43.01652" lon="0.58539">
        <ele>621.15</ele>
        <time>2020-05-29T11:52:32Z</time>
      </trkpt>
      <trkpt lat="43.01643" lon="0.58523">
        <ele>622.11</ele>
        <time>2020-05-29T11:52:52Z</time>
      </trkpt>
      <trkpt lat="43.01638" lon="0.585">
        <ele>624.03</ele>
        <time>2020-05-29T11:53:09Z</time>
      </trkpt>
      <trkpt lat="43.01633" lon="0.58482">
        <ele>624.99</ele>
        <time>2020-05-29T11:53:23Z</time>
      </trkpt>
      <trkpt lat="43.01629" lon="0.58471">
        <ele>626.92</ele>
        <time>2020-05-29T11:53:37Z</time>
      </trkpt>
      <trkpt lat="43.01627" lon="0.58465">
        <ele>627.88</ele>
        <time>2020-05-29T11:53:44Z</time>
      </trkpt>
      <trkpt lat="43.01625" lon="0.58457">
        <ele>629.32</ele>
        <time>2020-05-29T11:53:56Z</time>
      </trkpt>
      <trkpt lat="43.01618" lon="0.58439">
        <ele>630.28</ele>
        <time>2020-05-29T11:54:12Z</time>
      </trkpt>
      <trkpt lat="43.01612" lon="0.58422">
        <ele>632.68</ele>
        <time>2020-05-29T11:54:26Z</time>
      </trkpt>
      <trkpt lat="43.01607" lon="0.58403">
        <ele>634.61</ele>
        <time>2020-05-29T11:54:43Z</time>
      </trkpt>
      <trkpt lat="43.01604" lon="0.58395">
        <ele>636.05</ele>
        <time>2020-05-29T11:54:57Z</time>
      </trkpt>
      <trkpt lat="43.01595" lon="0.58376">
        <ele>637.97</ele>
        <time>2020-05-29T11:55:13Z</time>
      </trkpt>
      <trkpt lat="43.01589" lon="0.58361">
        <ele>640.86</ele>
        <time>2020-05-29T11:55:29Z</time>
      </trkpt>
      <trkpt lat="43.0159" lon="0.58347">
        <ele>641.82</ele>
        <time>2020-05-29T11:55:42Z</time>
      </trkpt>
      <trkpt lat="43.01586" lon="0.58336">
        <ele>643.26</ele>
        <time>2020-05-29T11:55:57Z</time>
      </trkpt>
      <trkpt lat="43.01587" lon="0.58339">
        <ele>642.78</ele>
        <time>2020-05-29T11:56:16Z</time>
      </trkpt>
      <trkpt lat="43.01582" lon="0.58328">
        <ele>643.26</ele>
        <time>2020-05-29T11:56:29Z</time>
      </trkpt>
      <trkpt lat="43.01573" lon="0.58321">
        <ele>643.74</ele>
        <time>2020-05-29T11:56:40Z</time>
      </trkpt>
      <trkpt lat="43.01561" lon="0.58319">
        <ele>644.22</ele>
        <time>2020-05-29T11:56:53Z</time>
      </trkpt>
      <trkpt lat="43.01545" lon="0.58318">
        <ele>644.7</ele>
        <time>2020-05-29T11:57:07Z</time>
      </trkpt>
      <trkpt lat="43.0153" lon="0.58315">
        <ele>644.7</ele>
        <time>2020-05-29T11:57:23Z</time>
      </trkpt>
      <trkpt lat="43.01516" lon="0.58316">
        <ele>644.7</ele>
        <time>2020-05-29T11:57:37Z</time>
      </trkpt>
      <trkpt lat="43.01508" lon="0.58313">
        <ele>642.78</ele>
        <time>2020-05-29T11:57:50Z</time>
      </trkpt>
      <trkpt lat="43.015" lon="0.58309">
        <ele>640.38</ele>
        <time>2020-05-29T11:58:02Z</time>
      </trkpt>
      <trkpt lat="43.01493" lon="0.58303">
        <ele>636.53</ele>
        <time>2020-05-29T11:58:14Z</time>
      </trkpt>
      <trkpt lat="43.01486" lon="0.58296">
        <ele>633.65</ele>
        <time>2020-05-29T11:58:26Z</time>
      </trkpt>
      <trkpt lat="43.01476" lon="0.58287">
        <ele>630.76</ele>
        <time>2020-05-29T11:58:38Z</time>
      </trkpt>
      <trkpt lat="43.01465" lon="0.58285">
        <ele>630.76</ele>
        <time>2020-05-29T11:58:51Z</time>
      </trkpt>
      <trkpt lat="43.01457" lon="0.5828">
        <ele>630.76</ele>
        <time>2020-05-29T11:59:02Z</time>
      </trkpt>
      <trkpt lat="43.01451" lon="0.58271">
        <ele>631.24</ele>
        <time>2020-05-29T11:59:14Z</time>
      </trkpt>
      <trkpt lat="43.01448" lon="0.58272">
        <ele>630.28</ele>
        <time>2020-05-29T11:59:33Z</time>
      </trkpt>
      <trkpt lat="43.01448" lon="0.58276">
        <ele>629.8</ele>
        <time>2020-05-29T11:59:58Z</time>
      </trkpt>
      <trkpt lat="43.0145" lon="0.58277">
        <ele>628.84</ele>
        <time>2020-05-29T12:00:23Z</time>
      </trkpt>
      <trkpt lat="43.01448" lon="0.58276">
        <ele>627.88</ele>
        <time>2020-05-29T12:00:47Z</time>
      </trkpt>
      <trkpt lat="43.01449" lon="0.58272">
        <ele>627.4</ele>
        <time>2020-05-29T12:01:08Z</time>
      </trkpt>
      <trkpt lat="43.01451" lon="0.58271">
        <ele>626.92</ele>
        <time>2020-05-29T12:01:21Z</time>
      </trkpt>
      <trkpt lat="43.01448" lon="0.58269">
        <ele>626.44</ele>
        <time>2020-05-29T12:01:44Z</time>
      </trkpt>
      <trkpt lat="43.01449" lon="0.58257">
        <ele>625.47</ele>
        <time>2020-05-29T12:02:07Z</time>
      </trkpt>
      <trkpt lat="43.01447" lon="0.58253">
        <ele>624.03</ele>
        <time>2020-05-29T12:02:12Z</time>
      </trkpt>
      <trkpt lat="43.01448" lon="0.58241">
        <ele>623.07</ele>
        <time>2020-05-29T12:02:25Z</time>
      </trkpt>
      <trkpt lat="43.01444" lon="0.5823">
        <ele>624.99</ele>
        <time>2020-05-29T12:02:35Z</time>
      </trkpt>
      <trkpt lat="43.01438" lon="0.58223">
        <ele>625.96</ele>
        <time>2020-05-29T12:02:48Z</time>
      </trkpt>
      <trkpt lat="43.01439" lon="0.5822">
        <ele>625.47</ele>
        <time>2020-05-29T12:03:04Z</time>
      </trkpt>
      <trkpt lat="43.0144" lon="0.58221">
        <ele>624.99</ele>
        <time>2020-05-29T12:03:20Z</time>
      </trkpt>
      <trkpt lat="43.01438" lon="0.58218">
        <ele>624.51</ele>
        <time>2020-05-29T12:03:38Z</time>
      </trkpt>
      <trkpt lat="43.01434" lon="0.58205">
        <ele>624.03</ele>
        <time>2020-05-29T12:03:51Z</time>
      </trkpt>
      <trkpt lat="43.01425" lon="0.58192">
        <ele>624.51</ele>
        <time>2020-05-29T12:04:04Z</time>
      </trkpt>
      <trkpt lat="43.01421" lon="0.5818">
        <ele>624.51</ele>
        <time>2020-05-29T12:04:15Z</time>
      </trkpt>
      <trkpt lat="43.01417" lon="0.58169">
        <ele>624.03</ele>
        <time>2020-05-29T12:04:27Z</time>
      </trkpt>
      <trkpt lat="43.01415" lon="0.58158">
        <ele>621.15</ele>
        <time>2020-05-29T12:04:39Z</time>
      </trkpt>
      <trkpt lat="43.01406" lon="0.5815">
        <ele>620.19</ele>
        <time>2020-05-29T12:04:52Z</time>
      </trkpt>
      <trkpt lat="43.01398" lon="0.58143">
        <ele>619.23</ele>
        <time>2020-05-29T12:05:03Z</time>
      </trkpt>
      <trkpt lat="43.01395" lon="0.58143">
        <ele>618.26</ele>
        <time>2020-05-29T12:05:14Z</time>
      </trkpt>
      <trkpt lat="43.01393" lon="0.58147">
        <ele>617.3</ele>
        <time>2020-05-29T12:05:36Z</time>
      </trkpt>
      <trkpt lat="43.01394" lon="0.58151">
        <ele>617.3</ele>
        <time>2020-05-29T12:05:49Z</time>
      </trkpt>
      <trkpt lat="43.01394" lon="0.58147">
        <ele>616.34</ele>
        <time>2020-05-29T12:06:13Z</time>
      </trkpt>
      <trkpt lat="43.01394" lon="0.58147">
        <ele>615.86</ele>
        <time>2020-05-29T12:06:35Z</time>
      </trkpt>
      <trkpt lat="43.01394" lon="0.58129">
        <ele>613.94</ele>
        <time>2020-05-29T12:06:51Z</time>
      </trkpt>
      <trkpt lat="43.0139" lon="0.58115">
        <ele>613.94</ele>
        <time>2020-05-29T12:07:02Z</time>
      </trkpt>
      <trkpt lat="43.01383" lon="0.58099">
        <ele>613.46</ele>
        <time>2020-05-29T12:07:18Z</time>
      </trkpt>
      <trkpt lat="43.01389" lon="0.58096">
        <ele>614.42</ele>
        <time>2020-05-29T12:07:32Z</time>
      </trkpt>
      <trkpt lat="43.01397" lon="0.58083">
        <ele>616.34</ele>
        <time>2020-05-29T12:07:48Z</time>
      </trkpt>
      <trkpt lat="43.01386" lon="0.58074">
        <ele>616.82</ele>
        <time>2020-05-29T12:07:59Z</time>
      </trkpt>
      <trkpt lat="43.01384" lon="0.58064">
        <ele>618.26</ele>
        <time>2020-05-29T12:08:13Z</time>
      </trkpt>
      <trkpt lat="43.01379" lon="0.5805">
        <ele>620.19</ele>
        <time>2020-05-29T12:08:27Z</time>
      </trkpt>
      <trkpt lat="43.01375" lon="0.58037">
        <ele>623.55</ele>
        <time>2020-05-29T12:08:42Z</time>
      </trkpt>
      <trkpt lat="43.01368" lon="0.58023">
        <ele>625.47</ele>
        <time>2020-05-29T12:08:55Z</time>
      </trkpt>
      <trkpt lat="43.01362" lon="0.5801">
        <ele>627.88</ele>
        <time>2020-05-29T12:09:10Z</time>
      </trkpt>
      <trkpt lat="43.01358" lon="0.57997">
        <ele>628.84</ele>
        <time>2020-05-29T12:09:23Z</time>
      </trkpt>
      <trkpt lat="43.01353" lon="0.57991">
        <ele>629.8</ele>
        <time>2020-05-29T12:09:36Z</time>
      </trkpt>
      <trkpt lat="43.01348" lon="0.57982">
        <ele>629.8</ele>
        <time>2020-05-29T12:09:47Z</time>
      </trkpt>
      <trkpt lat="43.01344" lon="0.57972">
        <ele>630.76</ele>
        <time>2020-05-29T12:10:00Z</time>
      </trkpt>
      <trkpt lat="43.01343" lon="0.57965">
        <ele>631.24</ele>
        <time>2020-05-29T12:10:03Z</time>
      </trkpt>
      <trkpt lat="43.01343" lon="0.57958">
        <ele>631.72</ele>
        <time>2020-05-29T12:10:08Z</time>
      </trkpt>
      <trkpt lat="43.01341" lon="0.57952">
        <ele>631.72</ele>
        <time>2020-05-29T12:10:13Z</time>
      </trkpt>
      <trkpt lat="43.01337" lon="0.57941">
        <ele>631.72</ele>
        <time>2020-05-29T12:10:25Z</time>
      </trkpt>
      <trkpt lat="43.01329" lon="0.57926">
        <ele>631.72</ele>
        <time>2020-05-29T12:10:39Z</time>
      </trkpt>
      <trkpt lat="43.01327" lon="0.57908">
        <ele>633.65</ele>
        <time>2020-05-29T12:10:54Z</time>
      </trkpt>
      <trkpt lat="43.01328" lon="0.57895">
        <ele>636.05</ele>
        <time>2020-05-29T12:11:06Z</time>
      </trkpt>
      <trkpt lat="43.01331" lon="0.57885">
        <ele>638.45</ele>
        <time>2020-05-29T12:11:18Z</time>
      </trkpt>
      <trkpt lat="43.01333" lon="0.57874">
        <ele>640.86</ele>
        <time>2020-05-29T12:11:29Z</time>
      </trkpt>
      <trkpt lat="43.01333" lon="0.57871">
        <ele>640.86</ele>
        <time>2020-05-29T12:11:31Z</time>
      </trkpt>
      <trkpt lat="43.01333" lon="0.57864">
        <ele>641.34</ele>
        <time>2020-05-29T12:11:36Z</time>
      </trkpt>
      <trkpt lat="43.01331" lon="0.57858">
        <ele>641.34</ele>
        <time>2020-05-29T12:11:44Z</time>
      </trkpt>
      <trkpt lat="43.0133" lon="0.57854">
        <ele>641.82</ele>
        <time>2020-05-29T12:11:47Z</time>
      </trkpt>
      <trkpt lat="43.01328" lon="0.57844">
        <ele>641.82</ele>
        <time>2020-05-29T12:11:55Z</time>
      </trkpt>
      <trkpt lat="43.01323" lon="0.57834">
        <ele>642.3</ele>
        <time>2020-05-29T12:12:09Z</time>
      </trkpt>
      <trkpt lat="43.01323" lon="0.57831">
        <ele>642.3</ele>
        <time>2020-05-29T12:12:11Z</time>
      </trkpt>
      <trkpt lat="43.01322" lon="0.57823">
        <ele>642.3</ele>
        <time>2020-05-29T12:12:17Z</time>
      </trkpt>
      <trkpt lat="43.01322" lon="0.57814">
        <ele>643.26</ele>
        <time>2020-05-29T12:12:24Z</time>
      </trkpt>
      <trkpt lat="43.01321" lon="0.57804">
        <ele>643.26</ele>
        <time>2020-05-29T12:12:30Z</time>
      </trkpt>
      <trkpt lat="43.01321" lon="0.57794">
        <ele>643.26</ele>
        <time>2020-05-29T12:12:37Z</time>
      </trkpt>
      <trkpt lat="43.01319" lon="0.57788">
        <ele>643.26</ele>
        <time>2020-05-29T12:12:41Z</time>
      </trkpt>
      <trkpt lat="43.01319" lon="0.57785">
        <ele>643.26</ele>
        <time>2020-05-29T12:12:44Z</time>
      </trkpt>
      <trkpt lat="43.01318" lon="0.57778">
        <ele>643.74</ele>
        <time>2020-05-29T12:12:49Z</time>
      </trkpt>
      <trkpt lat="43.01318" lon="0.57766">
        <ele>645.66</ele>
        <time>2020-05-29T12:13:00Z</time>
      </trkpt>
      <trkpt lat="43.01318" lon="0.57752">
        <ele>646.14</ele>
        <time>2020-05-29T12:13:10Z</time>
      </trkpt>
      <trkpt lat="43.01316" lon="0.57739">
        <ele>647.59</ele>
        <time>2020-05-29T12:13:21Z</time>
      </trkpt>
      <trkpt lat="43.01313" lon="0.57727">
        <ele>649.51</ele>
        <time>2020-05-29T12:13:33Z</time>
      </trkpt>
      <trkpt lat="43.01312" lon="0.57723">
        <ele>649.03</ele>
        <time>2020-05-29T12:13:46Z</time>
      </trkpt>
      <trkpt lat="43.01311" lon="0.57721">
        <ele>648.55</ele>
        <time>2020-05-29T12:14:10Z</time>
      </trkpt>
      <trkpt lat="43.01311" lon="0.57721">
        <ele>648.07</ele>
        <time>2020-05-29T12:14:32Z</time>
      </trkpt>
      <trkpt lat="43.0131" lon="0.57719">
        <ele>647.59</ele>
        <time>2020-05-29T12:14:51Z</time>
      </trkpt>
      <trkpt lat="43.01308" lon="0.57717">
        <ele>646.62</ele>
        <time>2020-05-29T12:15:00Z</time>
      </trkpt>
      <trkpt lat="43.01306" lon="0.5771">
        <ele>645.18</ele>
        <time>2020-05-29T12:15:06Z</time>
      </trkpt>
      <trkpt lat="43.01298" lon="0.57696">
        <ele>642.3</ele>
        <time>2020-05-29T12:15:20Z</time>
      </trkpt>
      <trkpt lat="43.01295" lon="0.57689">
        <ele>641.34</ele>
        <time>2020-05-29T12:15:26Z</time>
      </trkpt>
      <trkpt lat="43.01293" lon="0.57677">
        <ele>639.89</ele>
        <time>2020-05-29T12:15:37Z</time>
      </trkpt>
      <trkpt lat="43.01287" lon="0.57665">
        <ele>637.97</ele>
        <time>2020-05-29T12:15:50Z</time>
      </trkpt>
      <trkpt lat="43.01281" lon="0.5765">
        <ele>636.05</ele>
        <time>2020-05-29T12:16:03Z</time>
      </trkpt>
      <trkpt lat="43.01279" lon="0.57645">
        <ele>635.09</ele>
        <time>2020-05-29T12:16:08Z</time>
      </trkpt>
      <trkpt lat="43.0128" lon="0.57643">
        <ele>634.61</ele>
        <time>2020-05-29T12:16:10Z</time>
      </trkpt>
      <trkpt lat="43.01278" lon="0.57638">
        <ele>634.13</ele>
        <time>2020-05-29T12:16:15Z</time>
      </trkpt>
      <trkpt lat="43.01276" lon="0.57631">
        <ele>633.17</ele>
        <time>2020-05-29T12:16:20Z</time>
      </trkpt>
      <trkpt lat="43.01273" lon="0.57614">
        <ele>631.24</ele>
        <time>2020-05-29T12:16:33Z</time>
      </trkpt>
      <trkpt lat="43.01271" lon="0.576">
        <ele>629.8</ele>
        <time>2020-05-29T12:16:44Z</time>
      </trkpt>
      <trkpt lat="43.0127" lon="0.57588">
        <ele>628.84</ele>
        <time>2020-05-29T12:16:55Z</time>
      </trkpt>
      <trkpt lat="43.01266" lon="0.57574">
        <ele>626.92</ele>
        <time>2020-05-29T12:17:07Z</time>
      </trkpt>
      <trkpt lat="43.01266" lon="0.5756">
        <ele>625.96</ele>
        <time>2020-05-29T12:17:18Z</time>
      </trkpt>
      <trkpt lat="43.01264" lon="0.57544">
        <ele>624.99</ele>
        <time>2020-05-29T12:17:29Z</time>
      </trkpt>
      <trkpt lat="43.01263" lon="0.5754">
        <ele>624.03</ele>
        <time>2020-05-29T12:17:31Z</time>
      </trkpt>
      <trkpt lat="43.01264" lon="0.57524">
        <ele>622.59</ele>
        <time>2020-05-29T12:17:44Z</time>
      </trkpt>
      <trkpt lat="43.01263" lon="0.5751">
        <ele>620.67</ele>
        <time>2020-05-29T12:17:56Z</time>
      </trkpt>
      <trkpt lat="43.01264" lon="0.57505">
        <ele>620.19</ele>
        <time>2020-05-29T12:17:59Z</time>
      </trkpt>
      <trkpt lat="43.01267" lon="0.57492">
        <ele>617.78</ele>
        <time>2020-05-29T12:18:11Z</time>
      </trkpt>
      <trkpt lat="43.01272" lon="0.57482">
        <ele>616.82</ele>
        <time>2020-05-29T12:18:22Z</time>
      </trkpt>
      <trkpt lat="43.01272" lon="0.57481">
        <ele>616.82</ele>
        <time>2020-05-29T12:18:23Z</time>
      </trkpt>
      <trkpt lat="43.01278" lon="0.57465">
        <ele>616.82</ele>
        <time>2020-05-29T12:18:34Z</time>
      </trkpt>
      <trkpt lat="43.01281" lon="0.57461">
        <ele>616.82</ele>
        <time>2020-05-29T12:18:38Z</time>
      </trkpt>
      <trkpt lat="43.01286" lon="0.5745">
        <ele>617.78</ele>
        <time>2020-05-29T12:18:47Z</time>
      </trkpt>
      <trkpt lat="43.01292" lon="0.57441">
        <ele>617.3</ele>
        <time>2020-05-29T12:18:56Z</time>
      </trkpt>
      <trkpt lat="43.01295" lon="0.57436">
        <ele>617.3</ele>
        <time>2020-05-29T12:18:59Z</time>
      </trkpt>
      <trkpt lat="43.01304" lon="0.57419">
        <ele>617.3</ele>
        <time>2020-05-29T12:19:11Z</time>
      </trkpt>
      <trkpt lat="43.01312" lon="0.57406">
        <ele>617.78</ele>
        <time>2020-05-29T12:19:22Z</time>
      </trkpt>
      <trkpt lat="43.01315" lon="0.57401">
        <ele>617.78</ele>
        <time>2020-05-29T12:19:24Z</time>
      </trkpt>
      <trkpt lat="43.01317" lon="0.57391">
        <ele>618.26</ele>
        <time>2020-05-29T12:19:31Z</time>
      </trkpt>
      <trkpt lat="43.01319" lon="0.57386">
        <ele>617.78</ele>
        <time>2020-05-29T12:19:35Z</time>
      </trkpt>
      <trkpt lat="43.0133" lon="0.57375">
        <ele>619.71</ele>
        <time>2020-05-29T12:19:49Z</time>
      </trkpt>
      <trkpt lat="43.01334" lon="0.57367">
        <ele>620.19</ele>
        <time>2020-05-29T12:19:56Z</time>
      </trkpt>
      <trkpt lat="43.0134" lon="0.57343">
        <ele>620.19</ele>
        <time>2020-05-29T12:20:09Z</time>
      </trkpt>
      <trkpt lat="43.01343" lon="0.57335">
        <ele>620.67</ele>
        <time>2020-05-29T12:20:16Z</time>
      </trkpt>
      <trkpt lat="43.01354" lon="0.57316">
        <ele>621.15</ele>
        <time>2020-05-29T12:20:33Z</time>
      </trkpt>
      <trkpt lat="43.01359" lon="0.57304">
        <ele>621.63</ele>
        <time>2020-05-29T12:20:45Z</time>
      </trkpt>
      <trkpt lat="43.01362" lon="0.57298">
        <ele>621.63</ele>
        <time>2020-05-29T12:20:52Z</time>
      </trkpt>
      <trkpt lat="43.01369" lon="0.57281">
        <ele>622.59</ele>
        <time>2020-05-29T12:21:05Z</time>
      </trkpt>
      <trkpt lat="43.01372" lon="0.57278">
        <ele>623.55</ele>
        <time>2020-05-29T12:21:11Z</time>
      </trkpt>
      <trkpt lat="43.01373" lon="0.57281">
        <ele>624.03</ele>
        <time>2020-05-29T12:21:24Z</time>
      </trkpt>
      <trkpt lat="43.01372" lon="0.57281">
        <ele>623.55</ele>
        <time>2020-05-29T12:21:43Z</time>
      </trkpt>
      <trkpt lat="43.01375" lon="0.57278">
        <ele>623.07</ele>
        <time>2020-05-29T12:22:14Z</time>
      </trkpt>
      <trkpt lat="43.01371" lon="0.57274">
        <ele>622.59</ele>
        <time>2020-05-29T12:22:51Z</time>
      </trkpt>
      <trkpt lat="43.0137" lon="0.57274">
        <ele>622.11</ele>
        <time>2020-05-29T12:23:16Z</time>
      </trkpt>
      <trkpt lat="43.01368" lon="0.57271">
        <ele>622.11</ele>
        <time>2020-05-29T12:23:47Z</time>
      </trkpt>
      <trkpt lat="43.01368" lon="0.57271">
        <ele>622.11</ele>
        <time>2020-05-29T12:24:22Z</time>
      </trkpt>
      <trkpt lat="43.01367" lon="0.57266">
        <ele>622.11</ele>
        <time>2020-05-29T12:24:52Z</time>
      </trkpt>
      <trkpt lat="43.01367" lon="0.57265">
        <ele>621.63</ele>
        <time>2020-05-29T12:25:20Z</time>
      </trkpt>
      <trkpt lat="43.01367" lon="0.57264">
        <ele>621.63</ele>
        <time>2020-05-29T12:25:45Z</time>
      </trkpt>
      <trkpt lat="43.01368" lon="0.5727">
        <ele>621.15</ele>
        <time>2020-05-29T12:26:24Z</time>
      </trkpt>
      <trkpt lat="43.01369" lon="0.5727">
        <ele>620.67</ele>
        <time>2020-05-29T12:27:02Z</time>
      </trkpt>
      <trkpt lat="43.0137" lon="0.57272">
        <ele>621.15</ele>
        <time>2020-05-29T12:27:05Z</time>
      </trkpt>
      <trkpt lat="43.0138" lon="0.57276">
        <ele>623.07</ele>
        <time>2020-05-29T12:27:18Z</time>
      </trkpt>
      <trkpt lat="43.01384" lon="0.57268">
        <ele>624.99</ele>
        <time>2020-05-29T12:27:29Z</time>
      </trkpt>
      <trkpt lat="43.01392" lon="0.57261">
        <ele>626.44</ele>
        <time>2020-05-29T12:27:41Z</time>
      </trkpt>
      <trkpt lat="43.01397" lon="0.57261">
        <ele>628.36</ele>
        <time>2020-05-29T12:27:54Z</time>
      </trkpt>
      <trkpt lat="43.01401" lon="0.57277">
        <ele>629.32</ele>
        <time>2020-05-29T12:28:08Z</time>
      </trkpt>
      <trkpt lat="43.01397" lon="0.57297">
        <ele>630.28</ele>
        <time>2020-05-29T12:28:22Z</time>
      </trkpt>
      <trkpt lat="43.01396" lon="0.57318">
        <ele>631.72</ele>
        <time>2020-05-29T12:28:36Z</time>
      </trkpt>
      <trkpt lat="43.01395" lon="0.57334">
        <ele>634.61</ele>
        <time>2020-05-29T12:28:50Z</time>
      </trkpt>
      <trkpt lat="43.01402" lon="0.57335">
        <ele>636.05</ele>
        <time>2020-05-29T12:29:04Z</time>
      </trkpt>
      <trkpt lat="43.0141" lon="0.57326">
        <ele>638.45</ele>
        <time>2020-05-29T12:29:17Z</time>
      </trkpt>
      <trkpt lat="43.01422" lon="0.57314">
        <ele>640.86</ele>
        <time>2020-05-29T12:29:33Z</time>
      </trkpt>
      <trkpt lat="43.01428" lon="0.57307">
        <ele>643.26</ele>
        <time>2020-05-29T12:29:45Z</time>
      </trkpt>
      <trkpt lat="43.01437" lon="0.57296">
        <ele>645.18</ele>
        <time>2020-05-29T12:29:59Z</time>
      </trkpt>
      <trkpt lat="43.01446" lon="0.57285">
        <ele>646.14</ele>
        <time>2020-05-29T12:30:12Z</time>
      </trkpt>
      <trkpt lat="43.01455" lon="0.57271">
        <ele>648.07</ele>
        <time>2020-05-29T12:30:28Z</time>
      </trkpt>
      <trkpt lat="43.0146" lon="0.5726">
        <ele>649.99</ele>
        <time>2020-05-29T12:30:42Z</time>
      </trkpt>
      <trkpt lat="43.01469" lon="0.57252">
        <ele>650.95</ele>
        <time>2020-05-29T12:30:56Z</time>
      </trkpt>
      <trkpt lat="43.01476" lon="0.57232">
        <ele>652.39</ele>
        <time>2020-05-29T12:31:12Z</time>
      </trkpt>
      <trkpt lat="43.01483" lon="0.57222">
        <ele>654.31</ele>
        <time>2020-05-29T12:31:28Z</time>
      </trkpt>
      <trkpt lat="43.01491" lon="0.5722">
        <ele>655.76</ele>
        <time>2020-05-29T12:31:41Z</time>
      </trkpt>
      <trkpt lat="43.01498" lon="0.57205">
        <ele>658.16</ele>
        <time>2020-05-29T12:31:57Z</time>
      </trkpt>
      <trkpt lat="43.01504" lon="0.57188">
        <ele>660.56</ele>
        <time>2020-05-29T12:32:14Z</time>
      </trkpt>
      <trkpt lat="43.01508" lon="0.57167">
        <ele>662.49</ele>
        <time>2020-05-29T12:32:29Z</time>
      </trkpt>
      <trkpt lat="43.01508" lon="0.57143">
        <ele>664.41</ele>
        <time>2020-05-29T12:32:47Z</time>
      </trkpt>
      <trkpt lat="43.01508" lon="0.57138">
        <ele>664.41</ele>
        <time>2020-05-29T12:33:02Z</time>
      </trkpt>
      <trkpt lat="43.01506" lon="0.57125">
        <ele>663.93</ele>
        <time>2020-05-29T12:33:16Z</time>
      </trkpt>
      <trkpt lat="43.01504" lon="0.57115">
        <ele>662.49</ele>
        <time>2020-05-29T12:33:24Z</time>
      </trkpt>
      <trkpt lat="43.01498" lon="0.57098">
        <ele>661.04</ele>
        <time>2020-05-29T12:33:38Z</time>
      </trkpt>
      <trkpt lat="43.01488" lon="0.57076">
        <ele>659.12</ele>
        <time>2020-05-29T12:33:54Z</time>
      </trkpt>
      <trkpt lat="43.01485" lon="0.57071">
        <ele>659.12</ele>
        <time>2020-05-29T12:33:58Z</time>
      </trkpt>
      <trkpt lat="43.0148" lon="0.57061">
        <ele>658.64</ele>
        <time>2020-05-29T12:34:04Z</time>
      </trkpt>
      <trkpt lat="43.01474" lon="0.57048">
        <ele>657.68</ele>
        <time>2020-05-29T12:34:15Z</time>
      </trkpt>
      <trkpt lat="43.01462" lon="0.57038">
        <ele>656.24</ele>
        <time>2020-05-29T12:34:29Z</time>
      </trkpt>
      <trkpt lat="43.01451" lon="0.57028">
        <ele>654.31</ele>
        <time>2020-05-29T12:34:43Z</time>
      </trkpt>
      <trkpt lat="43.01436" lon="0.57019">
        <ele>651.43</ele>
        <time>2020-05-29T12:34:58Z</time>
      </trkpt>
      <trkpt lat="43.01429" lon="0.57011">
        <ele>650.47</ele>
        <time>2020-05-29T12:35:09Z</time>
      </trkpt>
      <trkpt lat="43.01426" lon="0.57009">
        <ele>649.51</ele>
        <time>2020-05-29T12:35:13Z</time>
      </trkpt>
      <trkpt lat="43.01424" lon="0.57008">
        <ele>648.55</ele>
        <time>2020-05-29T12:35:15Z</time>
      </trkpt>
      <trkpt lat="43.01422" lon="0.57005">
        <ele>648.55</ele>
        <time>2020-05-29T12:35:18Z</time>
      </trkpt>
      <trkpt lat="43.01407" lon="0.57003">
        <ele>646.14</ele>
        <time>2020-05-29T12:35:31Z</time>
      </trkpt>
      <trkpt lat="43.01404" lon="0.57001">
        <ele>646.14</ele>
        <time>2020-05-29T12:35:34Z</time>
      </trkpt>
      <trkpt lat="43.01392" lon="0.56994">
        <ele>643.74</ele>
        <time>2020-05-29T12:35:45Z</time>
      </trkpt>
      <trkpt lat="43.01381" lon="0.56984">
        <ele>641.82</ele>
        <time>2020-05-29T12:35:58Z</time>
      </trkpt>
      <trkpt lat="43.01366" lon="0.56982">
        <ele>639.89</ele>
        <time>2020-05-29T12:36:11Z</time>
      </trkpt>
      <trkpt lat="43.01353" lon="0.56977">
        <ele>637.49</ele>
        <time>2020-05-29T12:36:25Z</time>
      </trkpt>
      <trkpt lat="43.01341" lon="0.56972">
        <ele>635.09</ele>
        <time>2020-05-29T12:36:39Z</time>
      </trkpt>
      <trkpt lat="43.01331" lon="0.56971">
        <ele>633.17</ele>
        <time>2020-05-29T12:36:50Z</time>
      </trkpt>
      <trkpt lat="43.01326" lon="0.56973">
        <ele>632.2</ele>
        <time>2020-05-29T12:36:55Z</time>
      </trkpt>
      <trkpt lat="43.01323" lon="0.5697">
        <ele>631.72</ele>
        <time>2020-05-29T12:36:59Z</time>
      </trkpt>
      <trkpt lat="43.01305" lon="0.56963">
        <ele>629.32</ele>
        <time>2020-05-29T12:37:13Z</time>
      </trkpt>
      <trkpt lat="43.01292" lon="0.56962">
        <ele>626.44</ele>
        <time>2020-05-29T12:37:26Z</time>
      </trkpt>
      <trkpt lat="43.01291" lon="0.56962">
        <ele>626.44</ele>
        <time>2020-05-29T12:37:27Z</time>
      </trkpt>
      <trkpt lat="43.0128" lon="0.5696">
        <ele>624.99</ele>
        <time>2020-05-29T12:37:34Z</time>
      </trkpt>
      <trkpt lat="43.01266" lon="0.56957">
        <ele>623.55</ele>
        <time>2020-05-29T12:37:45Z</time>
      </trkpt>
      <trkpt lat="43.01249" lon="0.56957">
        <ele>621.15</ele>
        <time>2020-05-29T12:38:00Z</time>
      </trkpt>
      <trkpt lat="43.01237" lon="0.56952">
        <ele>619.23</ele>
        <time>2020-05-29T12:38:12Z</time>
      </trkpt>
      <trkpt lat="43.01235" lon="0.5695">
        <ele>617.78</ele>
        <time>2020-05-29T12:38:14Z</time>
      </trkpt>
      <trkpt lat="43.01219" lon="0.56946">
        <ele>616.34</ele>
        <time>2020-05-29T12:38:26Z</time>
      </trkpt>
      <trkpt lat="43.01207" lon="0.56942">
        <ele>613.94</ele>
        <time>2020-05-29T12:38:39Z</time>
      </trkpt>
      <trkpt lat="43.01198" lon="0.56941">
        <ele>612.98</ele>
        <time>2020-05-29T12:38:48Z</time>
      </trkpt>
      <trkpt lat="43.01195" lon="0.5694">
        <ele>612.02</ele>
        <time>2020-05-29T12:38:51Z</time>
      </trkpt>
      <trkpt lat="43.01186" lon="0.5695">
        <ele>611.06</ele>
        <time>2020-05-29T12:39:02Z</time>
      </trkpt>
      <trkpt lat="43.01192" lon="0.56952">
        <ele>609.61</ele>
        <time>2020-05-29T12:39:11Z</time>
      </trkpt>
      <trkpt lat="43.01193" lon="0.56956">
        <ele>609.13</ele>
        <time>2020-05-29T12:39:14Z</time>
      </trkpt>
      <trkpt lat="43.01201" lon="0.56965">
        <ele>608.17</ele>
        <time>2020-05-29T12:39:21Z</time>
      </trkpt>
      <trkpt lat="43.01221" lon="0.56974">
        <ele>605.77</ele>
        <time>2020-05-29T12:39:35Z</time>
      </trkpt>
      <trkpt lat="43.01236" lon="0.5698">
        <ele>603.85</ele>
        <time>2020-05-29T12:39:46Z</time>
      </trkpt>
      <trkpt lat="43.01247" lon="0.56992">
        <ele>601.92</ele>
        <time>2020-05-29T12:39:59Z</time>
      </trkpt>
      <trkpt lat="43.01256" lon="0.57011">
        <ele>599.52</ele>
        <time>2020-05-29T12:40:14Z</time>
      </trkpt>
      <trkpt lat="43.01256" lon="0.57013">
        <ele>599.52</ele>
        <time>2020-05-29T12:40:15Z</time>
      </trkpt>
      <trkpt lat="43.01258" lon="0.57017">
        <ele>599.04</ele>
        <time>2020-05-29T12:40:17Z</time>
      </trkpt>
      <trkpt lat="43.0126" lon="0.57024">
        <ele>599.04</ele>
        <time>2020-05-29T12:40:21Z</time>
      </trkpt>
      <trkpt lat="43.01268" lon="0.57042">
        <ele>597.12</ele>
        <time>2020-05-29T12:40:35Z</time>
      </trkpt>
      <trkpt lat="43.01269" lon="0.57047">
        <ele>597.12</ele>
        <time>2020-05-29T12:40:39Z</time>
      </trkpt>
      <trkpt lat="43.01269" lon="0.57059">
        <ele>595.67</ele>
        <time>2020-05-29T12:40:48Z</time>
      </trkpt>
      <trkpt lat="43.01275" lon="0.57077">
        <ele>594.23</ele>
        <time>2020-05-29T12:41:00Z</time>
      </trkpt>
      <trkpt lat="43.01275" lon="0.57092">
        <ele>593.27</ele>
        <time>2020-05-29T12:41:14Z</time>
      </trkpt>
      <trkpt lat="43.01273" lon="0.57093">
        <ele>592.79</ele>
        <time>2020-05-29T12:41:16Z</time>
      </trkpt>
      <trkpt lat="43.01265" lon="0.57074">
        <ele>590.39</ele>
        <time>2020-05-29T12:41:29Z</time>
      </trkpt>
      <trkpt lat="43.01256" lon="0.57059">
        <ele>589.43</ele>
        <time>2020-05-29T12:41:42Z</time>
      </trkpt>
      <trkpt lat="43.01253" lon="0.57051">
        <ele>588.95</ele>
        <time>2020-05-29T12:41:47Z</time>
      </trkpt>
      <trkpt lat="43.01242" lon="0.57038">
        <ele>587.98</ele>
        <time>2020-05-29T12:41:58Z</time>
      </trkpt>
      <trkpt lat="43.01233" lon="0.57019">
        <ele>586.54</ele>
        <time>2020-05-29T12:42:13Z</time>
      </trkpt>
      <trkpt lat="43.01233" lon="0.57018">
        <ele>586.54</ele>
        <time>2020-05-29T12:42:14Z</time>
      </trkpt>
      <trkpt lat="43.01233" lon="0.57013">
        <ele>586.54</ele>
        <time>2020-05-29T12:42:16Z</time>
      </trkpt>
      <trkpt lat="43.01226" lon="0.57001">
        <ele>585.1</ele>
        <time>2020-05-29T12:42:24Z</time>
      </trkpt>
      <trkpt lat="43.01221" lon="0.57002">
        <ele>584.14</ele>
        <time>2020-05-29T12:42:29Z</time>
      </trkpt>
      <trkpt lat="43.01222" lon="0.57015">
        <ele>584.14</ele>
        <time>2020-05-29T12:42:39Z</time>
      </trkpt>
      <trkpt lat="43.01215" lon="0.57049">
        <ele>583.66</ele>
        <time>2020-05-29T12:42:52Z</time>
      </trkpt>
      <trkpt lat="43.01217" lon="0.57063">
        <ele>583.18</ele>
        <time>2020-05-29T12:43:04Z</time>
      </trkpt>
      <trkpt lat="43.01215" lon="0.5708">
        <ele>584.62</ele>
        <time>2020-05-29T12:43:13Z</time>
      </trkpt>
      <trkpt lat="43.01207" lon="0.57098">
        <ele>586.54</ele>
        <time>2020-05-29T12:43:26Z</time>
      </trkpt>
      <trkpt lat="43.01206" lon="0.57099">
        <ele>587.02</ele>
        <time>2020-05-29T12:43:27Z</time>
      </trkpt>
      <trkpt lat="43.01204" lon="0.57102">
        <ele>587.02</ele>
        <time>2020-05-29T12:43:29Z</time>
      </trkpt>
      <trkpt lat="43.01195" lon="0.5712">
        <ele>589.43</ele>
        <time>2020-05-29T12:43:41Z</time>
      </trkpt>
      <trkpt lat="43.0119" lon="0.57124">
        <ele>589.91</ele>
        <time>2020-05-29T12:43:46Z</time>
      </trkpt>
      <trkpt lat="43.01186" lon="0.57131">
        <ele>590.39</ele>
        <time>2020-05-29T12:43:56Z</time>
      </trkpt>
      <trkpt lat="43.01179" lon="0.57138">
        <ele>591.35</ele>
        <time>2020-05-29T12:44:03Z</time>
      </trkpt>
      <trkpt lat="43.01172" lon="0.57141">
        <ele>592.31</ele>
        <time>2020-05-29T12:44:08Z</time>
      </trkpt>
      <trkpt lat="43.01159" lon="0.57148">
        <ele>593.75</ele>
        <time>2020-05-29T12:44:21Z</time>
      </trkpt>
      <trkpt lat="43.01146" lon="0.57154">
        <ele>594.23</ele>
        <time>2020-05-29T12:44:33Z</time>
      </trkpt>
      <trkpt lat="43.01135" lon="0.57156">
        <ele>595.19</ele>
        <time>2020-05-29T12:44:43Z</time>
      </trkpt>
      <trkpt lat="43.01131" lon="0.57159">
        <ele>595.19</ele>
        <time>2020-05-29T12:44:48Z</time>
      </trkpt>
      <trkpt lat="43.0112" lon="0.57157">
        <ele>595.67</ele>
        <time>2020-05-29T12:44:57Z</time>
      </trkpt>
      <trkpt lat="43.01103" lon="0.57163">
        <ele>595.67</ele>
        <time>2020-05-29T12:45:09Z</time>
      </trkpt>
      <trkpt lat="43.01097" lon="0.5716">
        <ele>596.64</ele>
        <time>2020-05-29T12:45:14Z</time>
      </trkpt>
      <trkpt lat="43.01081" lon="0.5716">
        <ele>597.12</ele>
        <time>2020-05-29T12:45:26Z</time>
      </trkpt>
      <trkpt lat="43.01068" lon="0.57163">
        <ele>598.08</ele>
        <time>2020-05-29T12:45:38Z</time>
      </trkpt>
      <trkpt lat="43.01064" lon="0.57165">
        <ele>598.08</ele>
        <time>2020-05-29T12:45:50Z</time>
      </trkpt>
      <trkpt lat="43.01061" lon="0.57164">
        <ele>598.56</ele>
        <time>2020-05-29T12:45:54Z</time>
      </trkpt>
      <trkpt lat="43.01051" lon="0.57166">
        <ele>598.08</ele>
        <time>2020-05-29T12:46:03Z</time>
      </trkpt>
      <trkpt lat="43.01032" lon="0.57164">
        <ele>598.56</ele>
        <time>2020-05-29T12:46:19Z</time>
      </trkpt>
      <trkpt lat="43.01031" lon="0.57164">
        <ele>598.56</ele>
        <time>2020-05-29T12:46:20Z</time>
      </trkpt>
      <trkpt lat="43.01027" lon="0.57164">
        <ele>598.56</ele>
        <time>2020-05-29T12:46:24Z</time>
      </trkpt>
      <trkpt lat="43.01016" lon="0.57165">
        <ele>598.56</ele>
        <time>2020-05-29T12:46:33Z</time>
      </trkpt>
      <trkpt lat="43.01001" lon="0.57157">
        <ele>599.04</ele>
        <time>2020-05-29T12:46:45Z</time>
      </trkpt>
      <trkpt lat="43.00995" lon="0.57143">
        <ele>600</ele>
        <time>2020-05-29T12:46:57Z</time>
      </trkpt>
      <trkpt lat="43.00993" lon="0.57134">
        <ele>601.44</ele>
        <time>2020-05-29T12:47:09Z</time>
      </trkpt>
      <trkpt lat="43.00993" lon="0.57126">
        <ele>601.44</ele>
        <time>2020-05-29T12:47:25Z</time>
      </trkpt>
      <trkpt lat="43.00989" lon="0.5711">
        <ele>603.36</ele>
        <time>2020-05-29T12:47:39Z</time>
      </trkpt>
      <trkpt lat="43.00983" lon="0.57096">
        <ele>604.33</ele>
        <time>2020-05-29T12:47:50Z</time>
      </trkpt>
      <trkpt lat="43.00981" lon="0.57096">
        <ele>604.81</ele>
        <time>2020-05-29T12:47:52Z</time>
      </trkpt>
      <trkpt lat="43.00971" lon="0.57082">
        <ele>606.25</ele>
        <time>2020-05-29T12:48:06Z</time>
      </trkpt>
      <trkpt lat="43.00964" lon="0.57064">
        <ele>607.21</ele>
        <time>2020-05-29T12:48:23Z</time>
      </trkpt>
      <trkpt lat="43.0096" lon="0.57046">
        <ele>609.61</ele>
        <time>2020-05-29T12:48:38Z</time>
      </trkpt>
      <trkpt lat="43.00957" lon="0.5704">
        <ele>610.09</ele>
        <time>2020-05-29T12:48:42Z</time>
      </trkpt>
      <trkpt lat="43.00956" lon="0.57037">
        <ele>610.57</ele>
        <time>2020-05-29T12:48:44Z</time>
      </trkpt>
      <trkpt lat="43.00949" lon="0.57024">
        <ele>612.02</ele>
        <time>2020-05-29T12:48:55Z</time>
      </trkpt>
      <trkpt lat="43.00947" lon="0.5702">
        <ele>612.5</ele>
        <time>2020-05-29T12:49:00Z</time>
      </trkpt>
      <trkpt lat="43.00948" lon="0.57015">
        <ele>612.98</ele>
        <time>2020-05-29T12:49:04Z</time>
      </trkpt>
      <trkpt lat="43.00951" lon="0.57013">
        <ele>612.98</ele>
        <time>2020-05-29T12:49:07Z</time>
      </trkpt>
      <trkpt lat="43.00957" lon="0.57012">
        <ele>613.94</ele>
        <time>2020-05-29T12:49:12Z</time>
      </trkpt>
      <trkpt lat="43.00965" lon="0.57002">
        <ele>615.38</ele>
        <time>2020-05-29T12:49:26Z</time>
      </trkpt>
      <trkpt lat="43.00977" lon="0.57006">
        <ele>615.38</ele>
        <time>2020-05-29T12:49:53Z</time>
      </trkpt>
      <trkpt lat="43.00976" lon="0.57">
        <ele>616.34</ele>
        <time>2020-05-29T12:50:17Z</time>
      </trkpt>
      <trkpt lat="43.00983" lon="0.56992">
        <ele>618.75</ele>
        <time>2020-05-29T12:50:34Z</time>
      </trkpt>
      <trkpt lat="43.0099" lon="0.56989">
        <ele>621.15</ele>
        <time>2020-05-29T12:50:49Z</time>
      </trkpt>
      <trkpt lat="43.01003" lon="0.56981">
        <ele>624.03</ele>
        <time>2020-05-29T12:51:08Z</time>
      </trkpt>
      <trkpt lat="43.01015" lon="0.56969">
        <ele>626.92</ele>
        <time>2020-05-29T12:51:30Z</time>
      </trkpt>
      <trkpt lat="43.01019" lon="0.56955">
        <ele>629.32</ele>
        <time>2020-05-29T12:51:46Z</time>
      </trkpt>
      <trkpt lat="43.01017" lon="0.56936">
        <ele>632.2</ele>
        <time>2020-05-29T12:52:04Z</time>
      </trkpt>
      <trkpt lat="43.01016" lon="0.5692">
        <ele>635.09</ele>
        <time>2020-05-29T12:52:25Z</time>
      </trkpt>
      <trkpt lat="43.01012" lon="0.56905">
        <ele>637.97</ele>
        <time>2020-05-29T12:52:46Z</time>
      </trkpt>
      <trkpt lat="43.01013" lon="0.56893">
        <ele>639.89</ele>
        <time>2020-05-29T12:53:05Z</time>
      </trkpt>
      <trkpt lat="43.01012" lon="0.56879">
        <ele>641.82</ele>
        <time>2020-05-29T12:53:21Z</time>
      </trkpt>
      <trkpt lat="43.0101" lon="0.56865">
        <ele>642.78</ele>
        <time>2020-05-29T12:53:37Z</time>
      </trkpt>
      <trkpt lat="43.01009" lon="0.56854">
        <ele>644.22</ele>
        <time>2020-05-29T12:53:50Z</time>
      </trkpt>
      <trkpt lat="43.01001" lon="0.56831">
        <ele>646.14</ele>
        <time>2020-05-29T12:54:08Z</time>
      </trkpt>
      <trkpt lat="43.00994" lon="0.5682">
        <ele>647.59</ele>
        <time>2020-05-29T12:54:20Z</time>
      </trkpt>
      <trkpt lat="43.00988" lon="0.56804">
        <ele>650.47</ele>
        <time>2020-05-29T12:54:35Z</time>
      </trkpt>
      <trkpt lat="43.00983" lon="0.56779">
        <ele>652.87</ele>
        <time>2020-05-29T12:54:55Z</time>
      </trkpt>
      <trkpt lat="43.00981" lon="0.56772">
        <ele>654.31</ele>
        <time>2020-05-29T12:55:02Z</time>
      </trkpt>
      <trkpt lat="43.00981" lon="0.56772">
        <ele>655.28</ele>
        <time>2020-05-29T12:55:14Z</time>
      </trkpt>
      <trkpt lat="43.00979" lon="0.56756">
        <ele>656.24</ele>
        <time>2020-05-29T12:55:35Z</time>
      </trkpt>
      <trkpt lat="43.00976" lon="0.56744">
        <ele>658.16</ele>
        <time>2020-05-29T12:55:48Z</time>
      </trkpt>
      <trkpt lat="43.00968" lon="0.56733">
        <ele>660.08</ele>
        <time>2020-05-29T12:56:02Z</time>
      </trkpt>
      <trkpt lat="43.00956" lon="0.56717">
        <ele>661.52</ele>
        <time>2020-05-29T12:56:18Z</time>
      </trkpt>
      <trkpt lat="43.00949" lon="0.56703">
        <ele>663.93</ele>
        <time>2020-05-29T12:56:32Z</time>
      </trkpt>
      <trkpt lat="43.00945" lon="0.56689">
        <ele>665.37</ele>
        <time>2020-05-29T12:56:45Z</time>
      </trkpt>
      <trkpt lat="43.00939" lon="0.56675">
        <ele>667.29</ele>
        <time>2020-05-29T12:56:58Z</time>
      </trkpt>
      <trkpt lat="43.00928" lon="0.56662">
        <ele>669.22</ele>
        <time>2020-05-29T12:57:13Z</time>
      </trkpt>
      <trkpt lat="43.00926" lon="0.56646">
        <ele>672.1</ele>
        <time>2020-05-29T12:57:28Z</time>
      </trkpt>
      <trkpt lat="43.00917" lon="0.56628">
        <ele>674.02</ele>
        <time>2020-05-29T12:57:44Z</time>
      </trkpt>
      <trkpt lat="43.00917" lon="0.56627">
        <ele>674.02</ele>
        <time>2020-05-29T12:57:45Z</time>
      </trkpt>
      <trkpt lat="43.00914" lon="0.56623">
        <ele>674.98</ele>
        <time>2020-05-29T12:57:49Z</time>
      </trkpt>
      <trkpt lat="43.00907" lon="0.5661">
        <ele>676.42</ele>
        <time>2020-05-29T12:58:02Z</time>
      </trkpt>
      <trkpt lat="43.00905" lon="0.56604">
        <ele>677.39</ele>
        <time>2020-05-29T12:58:07Z</time>
      </trkpt>
      <trkpt lat="43.00904" lon="0.56588">
        <ele>677.87</ele>
        <time>2020-05-29T12:58:18Z</time>
      </trkpt>
      <trkpt lat="43.00903" lon="0.56565">
        <ele>678.35</ele>
        <time>2020-05-29T12:58:34Z</time>
      </trkpt>
      <trkpt lat="43.00902" lon="0.56552">
        <ele>678.35</ele>
        <time>2020-05-29T12:58:43Z</time>
      </trkpt>
      <trkpt lat="43.009" lon="0.56526">
        <ele>677.87</ele>
        <time>2020-05-29T12:58:57Z</time>
      </trkpt>
      <trkpt lat="43.00901" lon="0.56515">
        <ele>677.87</ele>
        <time>2020-05-29T12:59:14Z</time>
      </trkpt>
      <trkpt lat="43.00901" lon="0.56515">
        <ele>677.87</ele>
        <time>2020-05-29T12:59:37Z</time>
      </trkpt>
      <trkpt lat="43.00901" lon="0.56514">
        <ele>678.35</ele>
        <time>2020-05-29T12:59:55Z</time>
      </trkpt>
      <trkpt lat="43.00898" lon="0.56508">
        <ele>678.83</ele>
        <time>2020-05-29T13:00:13Z</time>
      </trkpt>
      <trkpt lat="43.00892" lon="0.56497">
        <ele>679.31</ele>
        <time>2020-05-29T13:00:22Z</time>
      </trkpt>
      <trkpt lat="43.00885" lon="0.56481">
        <ele>680.75</ele>
        <time>2020-05-29T13:00:37Z</time>
      </trkpt>
      <trkpt lat="43.00875" lon="0.56464">
        <ele>682.19</ele>
        <time>2020-05-29T13:00:52Z</time>
      </trkpt>
      <trkpt lat="43.00864" lon="0.56452">
        <ele>683.15</ele>
        <time>2020-05-29T13:01:06Z</time>
      </trkpt>
      <trkpt lat="43.00853" lon="0.56441">
        <ele>684.12</ele>
        <time>2020-05-29T13:01:19Z</time>
      </trkpt>
      <trkpt lat="43.00846" lon="0.56436">
        <ele>685.08</ele>
        <time>2020-05-29T13:01:28Z</time>
      </trkpt>
      <trkpt lat="43.00835" lon="0.56426">
        <ele>685.56</ele>
        <time>2020-05-29T13:01:41Z</time>
      </trkpt>
      <trkpt lat="43.0083" lon="0.56425">
        <ele>686.04</ele>
        <time>2020-05-29T13:01:47Z</time>
      </trkpt>
      <trkpt lat="43.00825" lon="0.56424">
        <ele>686.04</ele>
        <time>2020-05-29T13:01:52Z</time>
      </trkpt>
      <trkpt lat="43.00822" lon="0.56424">
        <ele>686.04</ele>
        <time>2020-05-29T13:01:54Z</time>
      </trkpt>
      <trkpt lat="43.00817" lon="0.56426">
        <ele>686.52</ele>
        <time>2020-05-29T13:01:59Z</time>
      </trkpt>
      <trkpt lat="43.00815" lon="0.56426">
        <ele>686.52</ele>
        <time>2020-05-29T13:02:01Z</time>
      </trkpt>
      <trkpt lat="43.00807" lon="0.56429">
        <ele>687.96</ele>
        <time>2020-05-29T13:02:10Z</time>
      </trkpt>
      <trkpt lat="43.00794" lon="0.56427">
        <ele>688.44</ele>
        <time>2020-05-29T13:02:23Z</time>
      </trkpt>
      <trkpt lat="43.00789" lon="0.56421">
        <ele>688.92</ele>
        <time>2020-05-29T13:02:31Z</time>
      </trkpt>
      <trkpt lat="43.00784" lon="0.56415">
        <ele>689.4</ele>
        <time>2020-05-29T13:02:39Z</time>
      </trkpt>
      <trkpt lat="43.00779" lon="0.56405">
        <ele>689.88</ele>
        <time>2020-05-29T13:02:47Z</time>
      </trkpt>
      <trkpt lat="43.00769" lon="0.56386">
        <ele>690.84</ele>
        <time>2020-05-29T13:03:03Z</time>
      </trkpt>
      <trkpt lat="43.00761" lon="0.56374">
        <ele>690.84</ele>
        <time>2020-05-29T13:03:14Z</time>
      </trkpt>
      <trkpt lat="43.00757" lon="0.56365">
        <ele>690.84</ele>
        <time>2020-05-29T13:03:21Z</time>
      </trkpt>
      <trkpt lat="43.00752" lon="0.56357">
        <ele>690.84</ele>
        <time>2020-05-29T13:03:27Z</time>
      </trkpt>
      <trkpt lat="43.00745" lon="0.56334">
        <ele>690.84</ele>
        <time>2020-05-29T13:03:44Z</time>
      </trkpt>
      <trkpt lat="43.00744" lon="0.5633">
        <ele>690.84</ele>
        <time>2020-05-29T13:03:47Z</time>
      </trkpt>
      <trkpt lat="43.00744" lon="0.56321">
        <ele>690.84</ele>
        <time>2020-05-29T13:03:52Z</time>
      </trkpt>
      <trkpt lat="43.00737" lon="0.56309">
        <ele>690.84</ele>
        <time>2020-05-29T13:04:01Z</time>
      </trkpt>
      <trkpt lat="43.00729" lon="0.563">
        <ele>690.84</ele>
        <time>2020-05-29T13:04:09Z</time>
      </trkpt>
      <trkpt lat="43.00722" lon="0.56287">
        <ele>690.84</ele>
        <time>2020-05-29T13:04:18Z</time>
      </trkpt>
      <trkpt lat="43.00709" lon="0.5627">
        <ele>690.36</ele>
        <time>2020-05-29T13:04:33Z</time>
      </trkpt>
      <trkpt lat="43.00696" lon="0.56251">
        <ele>690.36</ele>
        <time>2020-05-29T13:04:48Z</time>
      </trkpt>
      <trkpt lat="43.00689" lon="0.56234">
        <ele>690.84</ele>
        <time>2020-05-29T13:05:00Z</time>
      </trkpt>
      <trkpt lat="43.00678" lon="0.56217">
        <ele>690.36</ele>
        <time>2020-05-29T13:05:16Z</time>
      </trkpt>
      <trkpt lat="43.00675" lon="0.56211">
        <ele>689.4</ele>
        <time>2020-05-29T13:05:21Z</time>
      </trkpt>
      <trkpt lat="43.00674" lon="0.5621">
        <ele>689.4</ele>
        <time>2020-05-29T13:05:22Z</time>
      </trkpt>
      <trkpt lat="43.00664" lon="0.56187">
        <ele>689.4</ele>
        <time>2020-05-29T13:05:38Z</time>
      </trkpt>
      <trkpt lat="43.00652" lon="0.56169">
        <ele>689.88</ele>
        <time>2020-05-29T13:05:52Z</time>
      </trkpt>
      <trkpt lat="43.00649" lon="0.56166">
        <ele>688.44</ele>
        <time>2020-05-29T13:05:55Z</time>
      </trkpt>
      <trkpt lat="43.00643" lon="0.56158">
        <ele>688.44</ele>
        <time>2020-05-29T13:06:04Z</time>
      </trkpt>
      <trkpt lat="43.00628" lon="0.56153">
        <ele>688.44</ele>
        <time>2020-05-29T13:06:18Z</time>
      </trkpt>
      <trkpt lat="43.00624" lon="0.56155">
        <ele>689.88</ele>
        <time>2020-05-29T13:06:22Z</time>
      </trkpt>
      <trkpt lat="43.0061" lon="0.56158">
        <ele>689.88</ele>
        <time>2020-05-29T13:06:34Z</time>
      </trkpt>
      <trkpt lat="43.00605" lon="0.56159">
        <ele>690.36</ele>
        <time>2020-05-29T13:06:39Z</time>
      </trkpt>
      <trkpt lat="43.00603" lon="0.56158">
        <ele>690.84</ele>
        <time>2020-05-29T13:06:41Z</time>
      </trkpt>
      <trkpt lat="43.00593" lon="0.56161">
        <ele>691.81</ele>
        <time>2020-05-29T13:06:50Z</time>
      </trkpt>
      <trkpt lat="43.00588" lon="0.56161">
        <ele>692.77</ele>
        <time>2020-05-29T13:06:55Z</time>
      </trkpt>
      <trkpt lat="43.00576" lon="0.56162">
        <ele>694.21</ele>
        <time>2020-05-29T13:07:10Z</time>
      </trkpt>
      <trkpt lat="43.00568" lon="0.56158">
        <ele>695.17</ele>
        <time>2020-05-29T13:07:18Z</time>
      </trkpt>
      <trkpt lat="43.00562" lon="0.56141">
        <ele>696.61</ele>
        <time>2020-05-29T13:07:32Z</time>
      </trkpt>
      <trkpt lat="43.00566" lon="0.56111">
        <ele>699.02</ele>
        <time>2020-05-29T13:07:48Z</time>
      </trkpt>
      <trkpt lat="43.00565" lon="0.56095">
        <ele>700.46</ele>
        <time>2020-05-29T13:08:02Z</time>
      </trkpt>
      <trkpt lat="43.00562" lon="0.56077">
        <ele>702.86</ele>
        <time>2020-05-29T13:08:16Z</time>
      </trkpt>
      <trkpt lat="43.00563" lon="0.56071">
        <ele>703.34</ele>
        <time>2020-05-29T13:08:23Z</time>
      </trkpt>
      <trkpt lat="43.0057" lon="0.56055">
        <ele>705.75</ele>
        <time>2020-05-29T13:08:38Z</time>
      </trkpt>
      <trkpt lat="43.0057" lon="0.56038">
        <ele>707.19</ele>
        <time>2020-05-29T13:08:53Z</time>
      </trkpt>
      <trkpt lat="43.00582" lon="0.56018">
        <ele>709.11</ele>
        <time>2020-05-29T13:09:07Z</time>
      </trkpt>
      <trkpt lat="43.00592" lon="0.56002">
        <ele>710.55</ele>
        <time>2020-05-29T13:09:20Z</time>
      </trkpt>
      <trkpt lat="43.00592" lon="0.55984">
        <ele>711.51</ele>
        <time>2020-05-29T13:09:32Z</time>
      </trkpt>
      <trkpt lat="43.00583" lon="0.55962">
        <ele>712.95</ele>
        <time>2020-05-29T13:09:45Z</time>
      </trkpt>
      <trkpt lat="43.00584" lon="0.55957">
        <ele>713.44</ele>
        <time>2020-05-29T13:09:49Z</time>
      </trkpt>
      <trkpt lat="43.00586" lon="0.55947">
        <ele>714.4</ele>
        <time>2020-05-29T13:09:55Z</time>
      </trkpt>
      <trkpt lat="43.00582" lon="0.55943">
        <ele>715.84</ele>
        <time>2020-05-29T13:10:04Z</time>
      </trkpt>
      <trkpt lat="43.00583" lon="0.55954">
        <ele>716.8</ele>
        <time>2020-05-29T13:10:12Z</time>
      </trkpt>
      <trkpt lat="43.00583" lon="0.55957">
        <ele>717.28</ele>
        <time>2020-05-29T13:10:14Z</time>
      </trkpt>
      <trkpt lat="43.00581" lon="0.55962">
        <ele>717.28</ele>
        <time>2020-05-29T13:10:17Z</time>
      </trkpt>
      <trkpt lat="43.00572" lon="0.55983">
        <ele>717.76</ele>
        <time>2020-05-29T13:10:28Z</time>
      </trkpt>
      <trkpt lat="43.00569" lon="0.55985">
        <ele>718.24</ele>
        <time>2020-05-29T13:10:31Z</time>
      </trkpt>
      <trkpt lat="43.00557" lon="0.55995">
        <ele>720.16</ele>
        <time>2020-05-29T13:10:45Z</time>
      </trkpt>
      <trkpt lat="43.00544" lon="0.56009">
        <ele>721.13</ele>
        <time>2020-05-29T13:10:57Z</time>
      </trkpt>
      <trkpt lat="43.00542" lon="0.56009">
        <ele>721.13</ele>
        <time>2020-05-29T13:10:59Z</time>
      </trkpt>
      <trkpt lat="43.00531" lon="0.56015">
        <ele>723.05</ele>
        <time>2020-05-29T13:11:11Z</time>
      </trkpt>
      <trkpt lat="43.00527" lon="0.56014">
        <ele>723.53</ele>
        <time>2020-05-29T13:11:17Z</time>
      </trkpt>
      <trkpt lat="43.00523" lon="0.56019">
        <ele>724.49</ele>
        <time>2020-05-29T13:11:21Z</time>
      </trkpt>
      <trkpt lat="43.00509" lon="0.56023">
        <ele>725.45</ele>
        <time>2020-05-29T13:11:34Z</time>
      </trkpt>
      <trkpt lat="43.0051" lon="0.56038">
        <ele>726.41</ele>
        <time>2020-05-29T13:11:45Z</time>
      </trkpt>
      <trkpt lat="43.00505" lon="0.5606">
        <ele>727.86</ele>
        <time>2020-05-29T13:11:58Z</time>
      </trkpt>
      <trkpt lat="43.00505" lon="0.56074">
        <ele>728.34</ele>
        <time>2020-05-29T13:12:06Z</time>
      </trkpt>
      <trkpt lat="43.00503" lon="0.56087">
        <ele>728.82</ele>
        <time>2020-05-29T13:12:13Z</time>
      </trkpt>
      <trkpt lat="43.00497" lon="0.56093">
        <ele>730.26</ele>
        <time>2020-05-29T13:12:25Z</time>
      </trkpt>
      <trkpt lat="43.00497" lon="0.56068">
        <ele>732.66</ele>
        <time>2020-05-29T13:12:40Z</time>
      </trkpt>
      <trkpt lat="43.00496" lon="0.56047">
        <ele>734.58</ele>
        <time>2020-05-29T13:12:53Z</time>
      </trkpt>
      <trkpt lat="43.0049" lon="0.56021">
        <ele>736.99</ele>
        <time>2020-05-29T13:13:08Z</time>
      </trkpt>
      <trkpt lat="43.0049" lon="0.56">
        <ele>738.91</ele>
        <time>2020-05-29T13:13:23Z</time>
      </trkpt>
      <trkpt lat="43.00489" lon="0.55998">
        <ele>739.39</ele>
        <time>2020-05-29T13:13:25Z</time>
      </trkpt>
      <trkpt lat="43.00492" lon="0.55991">
        <ele>740.35</ele>
        <time>2020-05-29T13:13:32Z</time>
      </trkpt>
      <trkpt lat="43.00502" lon="0.55979">
        <ele>742.28</ele>
        <time>2020-05-29T13:13:46Z</time>
      </trkpt>
      <trkpt lat="43.00502" lon="0.55975">
        <ele>742.28</ele>
        <time>2020-05-29T13:13:50Z</time>
      </trkpt>
      <trkpt lat="43.00511" lon="0.55955">
        <ele>744.2</ele>
        <time>2020-05-29T13:14:04Z</time>
      </trkpt>
      <trkpt lat="43.00512" lon="0.55944">
        <ele>745.64</ele>
        <time>2020-05-29T13:14:14Z</time>
      </trkpt>
      <trkpt lat="43.00519" lon="0.5592">
        <ele>748.04</ele>
        <time>2020-05-29T13:14:30Z</time>
      </trkpt>
      <trkpt lat="43.00523" lon="0.55913">
        <ele>749</ele>
        <time>2020-05-29T13:14:37Z</time>
      </trkpt>
      <trkpt lat="43.0053" lon="0.55901">
        <ele>750.45</ele>
        <time>2020-05-29T13:14:50Z</time>
      </trkpt>
      <trkpt lat="43.00531" lon="0.559">
        <ele>750.45</ele>
        <time>2020-05-29T13:14:51Z</time>
      </trkpt>
      <trkpt lat="43.00533" lon="0.55896">
        <ele>751.41</ele>
        <time>2020-05-29T13:14:54Z</time>
      </trkpt>
      <trkpt lat="43.00543" lon="0.55883">
        <ele>752.85</ele>
        <time>2020-05-29T13:15:07Z</time>
      </trkpt>
      <trkpt lat="43.00555" lon="0.5587">
        <ele>754.29</ele>
        <time>2020-05-29T13:15:19Z</time>
      </trkpt>
      <trkpt lat="43.00564" lon="0.55853">
        <ele>755.73</ele>
        <time>2020-05-29T13:15:33Z</time>
      </trkpt>
      <trkpt lat="43.00576" lon="0.55848">
        <ele>756.21</ele>
        <time>2020-05-29T13:15:41Z</time>
      </trkpt>
      <trkpt lat="43.00585" lon="0.55835">
        <ele>757.66</ele>
        <time>2020-05-29T13:15:53Z</time>
      </trkpt>
      <trkpt lat="43.00587" lon="0.55815">
        <ele>760.06</ele>
        <time>2020-05-29T13:16:08Z</time>
      </trkpt>
      <trkpt lat="43.0059" lon="0.5581">
        <ele>760.54</ele>
        <time>2020-05-29T13:16:13Z</time>
      </trkpt>
      <trkpt lat="43.00598" lon="0.55792">
        <ele>761.5</ele>
        <time>2020-05-29T13:16:25Z</time>
      </trkpt>
      <trkpt lat="43.00605" lon="0.5577">
        <ele>763.42</ele>
        <time>2020-05-29T13:16:41Z</time>
      </trkpt>
      <trkpt lat="43.00609" lon="0.55756">
        <ele>764.39</ele>
        <time>2020-05-29T13:16:53Z</time>
      </trkpt>
      <trkpt lat="43.00615" lon="0.55738">
        <ele>765.83</ele>
        <time>2020-05-29T13:17:08Z</time>
      </trkpt>
      <trkpt lat="43.0062" lon="0.55723">
        <ele>766.79</ele>
        <time>2020-05-29T13:17:18Z</time>
      </trkpt>
      <trkpt lat="43.00619" lon="0.55712">
        <ele>767.27</ele>
        <time>2020-05-29T13:17:26Z</time>
      </trkpt>
      <trkpt lat="43.0062" lon="0.55702">
        <ele>768.71</ele>
        <time>2020-05-29T13:17:38Z</time>
      </trkpt>
      <trkpt lat="43.00624" lon="0.55688">
        <ele>770.15</ele>
        <time>2020-05-29T13:17:54Z</time>
      </trkpt>
      <trkpt lat="43.0062" lon="0.55667">
        <ele>770.63</ele>
        <time>2020-05-29T13:18:06Z</time>
      </trkpt>
      <trkpt lat="43.00618" lon="0.55646">
        <ele>771.6</ele>
        <time>2020-05-29T13:18:20Z</time>
      </trkpt>
      <trkpt lat="43.00614" lon="0.5563">
        <ele>773.04</ele>
        <time>2020-05-29T13:18:35Z</time>
      </trkpt>
      <trkpt lat="43.00619" lon="0.55639">
        <ele>773.04</ele>
        <time>2020-05-29T13:19:05Z</time>
      </trkpt>
      <trkpt lat="43.00621" lon="0.55629">
        <ele>773.52</ele>
        <time>2020-05-29T13:19:20Z</time>
      </trkpt>
      <trkpt lat="43.00621" lon="0.55621">
        <ele>773.52</ele>
        <time>2020-05-29T13:19:26Z</time>
      </trkpt>
      <trkpt lat="43.00622" lon="0.55607">
        <ele>774.96</ele>
        <time>2020-05-29T13:19:36Z</time>
      </trkpt>
      <trkpt lat="43.00622" lon="0.55588">
        <ele>776.4</ele>
        <time>2020-05-29T13:19:51Z</time>
      </trkpt>
      <trkpt lat="43.00627" lon="0.55573">
        <ele>778.32</ele>
        <time>2020-05-29T13:20:05Z</time>
      </trkpt>
      <trkpt lat="43.00629" lon="0.55559">
        <ele>780.25</ele>
        <time>2020-05-29T13:20:17Z</time>
      </trkpt>
      <trkpt lat="43.00627" lon="0.55544">
        <ele>781.21</ele>
        <time>2020-05-29T13:20:30Z</time>
      </trkpt>
      <trkpt lat="43.00629" lon="0.55523">
        <ele>783.13</ele>
        <time>2020-05-29T13:20:43Z</time>
      </trkpt>
      <trkpt lat="43.00633" lon="0.55504">
        <ele>783.61</ele>
        <time>2020-05-29T13:20:53Z</time>
      </trkpt>
      <trkpt lat="43.00638" lon="0.55486">
        <ele>784.57</ele>
        <time>2020-05-29T13:21:06Z</time>
      </trkpt>
      <trkpt lat="43.00636" lon="0.55465">
        <ele>785.53</ele>
        <time>2020-05-29T13:21:19Z</time>
      </trkpt>
      <trkpt lat="43.00639" lon="0.55447">
        <ele>787.46</ele>
        <time>2020-05-29T13:21:31Z</time>
      </trkpt>
      <trkpt lat="43.00634" lon="0.5543">
        <ele>788.42</ele>
        <time>2020-05-29T13:21:43Z</time>
      </trkpt>
      <trkpt lat="43.00633" lon="0.55427">
        <ele>788.9</ele>
        <time>2020-05-29T13:21:46Z</time>
      </trkpt>
      <trkpt lat="43.00633" lon="0.5541">
        <ele>789.86</ele>
        <time>2020-05-29T13:22:00Z</time>
      </trkpt>
      <trkpt lat="43.00632" lon="0.55391">
        <ele>790.82</ele>
        <time>2020-05-29T13:22:13Z</time>
      </trkpt>
      <trkpt lat="43.0063" lon="0.55381">
        <ele>791.78</ele>
        <time>2020-05-29T13:22:22Z</time>
      </trkpt>
      <trkpt lat="43.00631" lon="0.55375">
        <ele>791.78</ele>
        <time>2020-05-29T13:22:25Z</time>
      </trkpt>
      <trkpt lat="43.0063" lon="0.55365">
        <ele>791.78</ele>
        <time>2020-05-29T13:22:30Z</time>
      </trkpt>
      <trkpt lat="43.00629" lon="0.5535">
        <ele>792.26</ele>
        <time>2020-05-29T13:22:42Z</time>
      </trkpt>
      <trkpt lat="43.00627" lon="0.5533">
        <ele>792.26</ele>
        <time>2020-05-29T13:23:00Z</time>
      </trkpt>
      <trkpt lat="43.00631" lon="0.5533">
        <ele>792.26</ele>
        <time>2020-05-29T13:23:17Z</time>
      </trkpt>
      <trkpt lat="43.00629" lon="0.55332">
        <ele>792.26</ele>
        <time>2020-05-29T13:23:40Z</time>
      </trkpt>
      <trkpt lat="43.00629" lon="0.55329">
        <ele>791.78</ele>
        <time>2020-05-29T13:23:57Z</time>
      </trkpt>
      <trkpt lat="43.0063" lon="0.55328">
        <ele>791.78</ele>
        <time>2020-05-29T13:24:15Z</time>
      </trkpt>
      <trkpt lat="43.00628" lon="0.55337">
        <ele>792.26</ele>
        <time>2020-05-29T13:24:36Z</time>
      </trkpt>
      <trkpt lat="43.00626" lon="0.55337">
        <ele>792.74</ele>
        <time>2020-05-29T13:24:57Z</time>
      </trkpt>
      <trkpt lat="43.00627" lon="0.55328">
        <ele>792.74</ele>
        <time>2020-05-29T13:25:16Z</time>
      </trkpt>
      <trkpt lat="43.00625" lon="0.5532">
        <ele>792.74</ele>
        <time>2020-05-29T13:25:22Z</time>
      </trkpt>
      <trkpt lat="43.00621" lon="0.55306">
        <ele>793.71</ele>
        <time>2020-05-29T13:25:35Z</time>
      </trkpt>
      <trkpt lat="43.00617" lon="0.55293">
        <ele>794.67</ele>
        <time>2020-05-29T13:25:47Z</time>
      </trkpt>
      <trkpt lat="43.00612" lon="0.55281">
        <ele>796.11</ele>
        <time>2020-05-29T13:25:59Z</time>
      </trkpt>
      <trkpt lat="43.00605" lon="0.55267">
        <ele>798.03</ele>
        <time>2020-05-29T13:26:10Z</time>
      </trkpt>
      <trkpt lat="43.006" lon="0.55253">
        <ele>799.95</ele>
        <time>2020-05-29T13:26:23Z</time>
      </trkpt>
      <trkpt lat="43.00593" lon="0.55239">
        <ele>800.92</ele>
        <time>2020-05-29T13:26:34Z</time>
      </trkpt>
      <trkpt lat="43.00586" lon="0.55226">
        <ele>802.84</ele>
        <time>2020-05-29T13:26:46Z</time>
      </trkpt>
      <trkpt lat="43.0058" lon="0.55208">
        <ele>804.28</ele>
        <time>2020-05-29T13:26:59Z</time>
      </trkpt>
      <trkpt lat="43.00572" lon="0.55194">
        <ele>804.76</ele>
        <time>2020-05-29T13:27:12Z</time>
      </trkpt>
      <trkpt lat="43.00569" lon="0.55191">
        <ele>804.76</ele>
        <time>2020-05-29T13:27:26Z</time>
      </trkpt>
      <trkpt lat="43.00564" lon="0.55178">
        <ele>806.2</ele>
        <time>2020-05-29T13:27:42Z</time>
      </trkpt>
      <trkpt lat="43.00561" lon="0.55166">
        <ele>808.13</ele>
        <time>2020-05-29T13:27:55Z</time>
      </trkpt>
      <trkpt lat="43.00556" lon="0.55149">
        <ele>809.09</ele>
        <time>2020-05-29T13:28:09Z</time>
      </trkpt>
      <trkpt lat="43.00552" lon="0.55138">
        <ele>810.05</ele>
        <time>2020-05-29T13:28:20Z</time>
      </trkpt>
      <trkpt lat="43.00544" lon="0.55119">
        <ele>812.45</ele>
        <time>2020-05-29T13:28:35Z</time>
      </trkpt>
      <trkpt lat="43.0054" lon="0.55094">
        <ele>814.37</ele>
        <time>2020-05-29T13:28:50Z</time>
      </trkpt>
      <trkpt lat="43.00535" lon="0.5507">
        <ele>815.82</ele>
        <time>2020-05-29T13:29:05Z</time>
      </trkpt>
      <trkpt lat="43.0053" lon="0.55052">
        <ele>816.78</ele>
        <time>2020-05-29T13:29:18Z</time>
      </trkpt>
      <trkpt lat="43.00529" lon="0.55037">
        <ele>818.22</ele>
        <time>2020-05-29T13:29:30Z</time>
      </trkpt>
      <trkpt lat="43.00521" lon="0.5502">
        <ele>819.66</ele>
        <time>2020-05-29T13:29:45Z</time>
      </trkpt>
      <trkpt lat="43.00515" lon="0.55002">
        <ele>822.06</ele>
        <time>2020-05-29T13:30:00Z</time>
      </trkpt>
      <trkpt lat="43.0051" lon="0.54995">
        <ele>823.03</ele>
        <time>2020-05-29T13:30:16Z</time>
      </trkpt>
      <trkpt lat="43.0052" lon="0.55007">
        <ele>821.58</ele>
        <time>2020-05-29T13:30:28Z</time>
      </trkpt>
      <trkpt lat="43.00518" lon="0.55013">
        <ele>821.1</ele>
        <time>2020-05-29T13:30:39Z</time>
      </trkpt>
      <trkpt lat="43.00513" lon="0.55015">
        <ele>822.06</ele>
        <time>2020-05-29T13:30:50Z</time>
      </trkpt>
      <trkpt lat="43.00506" lon="0.55016">
        <ele>824.47</ele>
        <time>2020-05-29T13:31:02Z</time>
      </trkpt>
      <trkpt lat="43.00505" lon="0.55016">
        <ele>824.95</ele>
        <time>2020-05-29T13:31:05Z</time>
      </trkpt>
      <trkpt lat="43.00499" lon="0.55006">
        <ele>825.91</ele>
        <time>2020-05-29T13:31:16Z</time>
      </trkpt>
      <trkpt lat="43.0049" lon="0.54992">
        <ele>826.87</ele>
        <time>2020-05-29T13:31:31Z</time>
      </trkpt>
      <trkpt lat="43.00487" lon="0.54987">
        <ele>828.31</ele>
        <time>2020-05-29T13:31:46Z</time>
      </trkpt>
      <trkpt lat="43.00484" lon="0.54977">
        <ele>829.76</ele>
        <time>2020-05-29T13:32:02Z</time>
      </trkpt>
      <trkpt lat="43.00478" lon="0.54968">
        <ele>831.2</ele>
        <time>2020-05-29T13:32:14Z</time>
      </trkpt>
      <trkpt lat="43.00472" lon="0.54958">
        <ele>833.12</ele>
        <time>2020-05-29T13:32:26Z</time>
      </trkpt>
      <trkpt lat="43.00468" lon="0.54952">
        <ele>835.52</ele>
        <time>2020-05-29T13:32:40Z</time>
      </trkpt>
      <trkpt lat="43.00465" lon="0.54948">
        <ele>836</ele>
        <time>2020-05-29T13:32:55Z</time>
      </trkpt>
      <trkpt lat="43.00466" lon="0.5495">
        <ele>836</ele>
        <time>2020-05-29T13:33:01Z</time>
      </trkpt>
      <trkpt lat="43.00464" lon="0.5496">
        <ele>837.93</ele>
        <time>2020-05-29T13:33:15Z</time>
      </trkpt>
      <trkpt lat="43.00457" lon="0.5496">
        <ele>839.85</ele>
        <time>2020-05-29T13:33:35Z</time>
      </trkpt>
      <trkpt lat="43.0045" lon="0.54954">
        <ele>841.29</ele>
        <time>2020-05-29T13:33:47Z</time>
      </trkpt>
      <trkpt lat="43.00447" lon="0.54957">
        <ele>842.73</ele>
        <time>2020-05-29T13:33:59Z</time>
      </trkpt>
      <trkpt lat="43.00438" lon="0.54959">
        <ele>845.14</ele>
        <time>2020-05-29T13:34:16Z</time>
      </trkpt>
      <trkpt lat="43.0043" lon="0.54961">
        <ele>847.54</ele>
        <time>2020-05-29T13:34:32Z</time>
      </trkpt>
      <trkpt lat="43.00425" lon="0.54961">
        <ele>849.46</ele>
        <time>2020-05-29T13:34:51Z</time>
      </trkpt>
      <trkpt lat="43.00423" lon="0.54971">
        <ele>851.87</ele>
        <time>2020-05-29T13:35:10Z</time>
      </trkpt>
      <trkpt lat="43.0042" lon="0.54974">
        <ele>854.27</ele>
        <time>2020-05-29T13:35:32Z</time>
      </trkpt>
      <trkpt lat="43.00412" lon="0.54978">
        <ele>856.19</ele>
        <time>2020-05-29T13:35:47Z</time>
      </trkpt>
      <trkpt lat="43.004" lon="0.54969">
        <ele>858.11</ele>
        <time>2020-05-29T13:36:06Z</time>
      </trkpt>
      <trkpt lat="43.00395" lon="0.54962">
        <ele>860.52</ele>
        <time>2020-05-29T13:36:20Z</time>
      </trkpt>
      <trkpt lat="43.00396" lon="0.54968">
        <ele>863.4</ele>
        <time>2020-05-29T13:36:35Z</time>
      </trkpt>
      <trkpt lat="43.0039" lon="0.54963">
        <ele>865.32</ele>
        <time>2020-05-29T13:36:51Z</time>
      </trkpt>
      <trkpt lat="43.00384" lon="0.54962">
        <ele>867.25</ele>
        <time>2020-05-29T13:37:07Z</time>
      </trkpt>
      <trkpt lat="43.00378" lon="0.5496">
        <ele>869.65</ele>
        <time>2020-05-29T13:37:20Z</time>
      </trkpt>
      <trkpt lat="43.0038" lon="0.54977">
        <ele>871.09</ele>
        <time>2020-05-29T13:37:43Z</time>
      </trkpt>
      <trkpt lat="43.00379" lon="0.54983">
        <ele>873.5</ele>
        <time>2020-05-29T13:37:59Z</time>
      </trkpt>
      <trkpt lat="43.0038" lon="0.55002">
        <ele>874.46</ele>
        <time>2020-05-29T13:38:11Z</time>
      </trkpt>
      <trkpt lat="43.00384" lon="0.5501">
        <ele>875.9</ele>
        <time>2020-05-29T13:38:27Z</time>
      </trkpt>
      <trkpt lat="43.00377" lon="0.55012">
        <ele>877.82</ele>
        <time>2020-05-29T13:38:41Z</time>
      </trkpt>
      <trkpt lat="43.00375" lon="0.55015">
        <ele>880.71</ele>
        <time>2020-05-29T13:38:56Z</time>
      </trkpt>
      <trkpt lat="43.00375" lon="0.55029">
        <ele>882.63</ele>
        <time>2020-05-29T13:39:13Z</time>
      </trkpt>
      <trkpt lat="43.00374" lon="0.55037">
        <ele>884.07</ele>
        <time>2020-05-29T13:39:26Z</time>
      </trkpt>
      <trkpt lat="43.00375" lon="0.55042">
        <ele>885.03</ele>
        <time>2020-05-29T13:39:39Z</time>
      </trkpt>
      <trkpt lat="43.00377" lon="0.55051">
        <ele>886.47</ele>
        <time>2020-05-29T13:39:55Z</time>
      </trkpt>
      <trkpt lat="43.00375" lon="0.55061">
        <ele>888.88</ele>
        <time>2020-05-29T13:40:09Z</time>
      </trkpt>
      <trkpt lat="43.00376" lon="0.55069">
        <ele>889.84</ele>
        <time>2020-05-29T13:40:21Z</time>
      </trkpt>
      <trkpt lat="43.0037" lon="0.55071">
        <ele>890.8</ele>
        <time>2020-05-29T13:40:33Z</time>
      </trkpt>
      <trkpt lat="43.0037" lon="0.55078">
        <ele>892.24</ele>
        <time>2020-05-29T13:40:50Z</time>
      </trkpt>
      <trkpt lat="43.00365" lon="0.55072">
        <ele>894.64</ele>
        <time>2020-05-29T13:41:10Z</time>
      </trkpt>
      <trkpt lat="43.00362" lon="0.55056">
        <ele>894.64</ele>
        <time>2020-05-29T13:41:21Z</time>
      </trkpt>
      <trkpt lat="43.00362" lon="0.5504">
        <ele>893.68</ele>
        <time>2020-05-29T13:41:34Z</time>
      </trkpt>
      <trkpt lat="43.0036" lon="0.55029">
        <ele>893.68</ele>
        <time>2020-05-29T13:41:43Z</time>
      </trkpt>
      <trkpt lat="43.00362" lon="0.55014">
        <ele>892.72</ele>
        <time>2020-05-29T13:41:54Z</time>
      </trkpt>
      <trkpt lat="43.00365" lon="0.55004">
        <ele>892.72</ele>
        <time>2020-05-29T13:42:16Z</time>
      </trkpt>
      <trkpt lat="43.00363" lon="0.54998">
        <ele>892.72</ele>
        <time>2020-05-29T13:42:34Z</time>
      </trkpt>
      <trkpt lat="43.00364" lon="0.54998">
        <ele>893.2</ele>
        <time>2020-05-29T13:42:52Z</time>
      </trkpt>
      <trkpt lat="43.00367" lon="0.54999">
        <ele>893.2</ele>
        <time>2020-05-29T13:43:05Z</time>
      </trkpt>
      <trkpt lat="43.00363" lon="0.55001">
        <ele>893.2</ele>
        <time>2020-05-29T13:43:33Z</time>
      </trkpt>
      <trkpt lat="43.0036" lon="0.55019">
        <ele>893.2</ele>
        <time>2020-05-29T13:43:51Z</time>
      </trkpt>
      <trkpt lat="43.00361" lon="0.55024">
        <ele>894.64</ele>
        <time>2020-05-29T13:44:04Z</time>
      </trkpt>
      <trkpt lat="43.00364" lon="0.55038">
        <ele>895.61</ele>
        <time>2020-05-29T13:44:21Z</time>
      </trkpt>
      <trkpt lat="43.00371" lon="0.5506">
        <ele>896.57</ele>
        <time>2020-05-29T13:44:41Z</time>
      </trkpt>
      <trkpt lat="43.00374" lon="0.55075">
        <ele>897.53</ele>
        <time>2020-05-29T13:44:54Z</time>
      </trkpt>
      <trkpt lat="43.00379" lon="0.55092">
        <ele>898.97</ele>
        <time>2020-05-29T13:45:07Z</time>
      </trkpt>
      <trkpt lat="43.00383" lon="0.55109">
        <ele>899.93</ele>
        <time>2020-05-29T13:45:23Z</time>
      </trkpt>
      <trkpt lat="43.00383" lon="0.55113">
        <ele>899.93</ele>
        <time>2020-05-29T13:45:27Z</time>
      </trkpt>
      <trkpt lat="43.00385" lon="0.55124">
        <ele>901.37</ele>
        <time>2020-05-29T13:45:43Z</time>
      </trkpt>
      <trkpt lat="43.00381" lon="0.55131">
        <ele>901.37</ele>
        <time>2020-05-29T13:46:03Z</time>
      </trkpt>
      <trkpt lat="43.00379" lon="0.55141">
        <ele>902.33</ele>
        <time>2020-05-29T13:46:16Z</time>
      </trkpt>
      <trkpt lat="43.0038" lon="0.55156">
        <ele>904.26</ele>
        <time>2020-05-29T13:46:32Z</time>
      </trkpt>
      <trkpt lat="43.00378" lon="0.55174">
        <ele>906.18</ele>
        <time>2020-05-29T13:46:45Z</time>
      </trkpt>
      <trkpt lat="43.00378" lon="0.55186">
        <ele>907.62</ele>
        <time>2020-05-29T13:46:58Z</time>
      </trkpt>
      <trkpt lat="43.00376" lon="0.55198">
        <ele>908.58</ele>
        <time>2020-05-29T13:47:20Z</time>
      </trkpt>
      <trkpt lat="43.00381" lon="0.55196">
        <ele>908.58</ele>
        <time>2020-05-29T13:47:44Z</time>
      </trkpt>
      <trkpt lat="43.00386" lon="0.55199">
        <ele>909.06</ele>
        <time>2020-05-29T13:48:17Z</time>
      </trkpt>
      <trkpt lat="43.0038" lon="0.55198">
        <ele>909.06</ele>
        <time>2020-05-29T13:48:54Z</time>
      </trkpt>
      <trkpt lat="43.00382" lon="0.55197">
        <ele>909.06</ele>
        <time>2020-05-29T13:49:28Z</time>
      </trkpt>
      <trkpt lat="43.00378" lon="0.5521">
        <ele>910.03</ele>
        <time>2020-05-29T13:49:55Z</time>
      </trkpt>
      <trkpt lat="43.00377" lon="0.55227">
        <ele>911.47</ele>
        <time>2020-05-29T13:50:09Z</time>
      </trkpt>
      <trkpt lat="43.00374" lon="0.5524">
        <ele>913.39</ele>
        <time>2020-05-29T13:50:25Z</time>
      </trkpt>
      <trkpt lat="43.00373" lon="0.5525">
        <ele>914.83</ele>
        <time>2020-05-29T13:50:37Z</time>
      </trkpt>
      <trkpt lat="43.0037" lon="0.55253">
        <ele>915.31</ele>
        <time>2020-05-29T13:50:49Z</time>
      </trkpt>
      <trkpt lat="43.0037" lon="0.55242">
        <ele>915.79</ele>
        <time>2020-05-29T13:51:11Z</time>
      </trkpt>
      <trkpt lat="43.00366" lon="0.5524">
        <ele>916.27</ele>
        <time>2020-05-29T13:51:27Z</time>
      </trkpt>
      <trkpt lat="43.00365" lon="0.55229">
        <ele>917.24</ele>
        <time>2020-05-29T13:51:39Z</time>
      </trkpt>
      <trkpt lat="43.00364" lon="0.55219">
        <ele>917.72</ele>
        <time>2020-05-29T13:51:50Z</time>
      </trkpt>
      <trkpt lat="43.0036" lon="0.55208">
        <ele>919.16</ele>
        <time>2020-05-29T13:52:03Z</time>
      </trkpt>
      <trkpt lat="43.00358" lon="0.55197">
        <ele>921.08</ele>
        <time>2020-05-29T13:52:17Z</time>
      </trkpt>
      <trkpt lat="43.00355" lon="0.55183">
        <ele>923</ele>
        <time>2020-05-29T13:52:34Z</time>
      </trkpt>
      <trkpt lat="43.00349" lon="0.55171">
        <ele>923.96</ele>
        <time>2020-05-29T13:52:50Z</time>
      </trkpt>
      <trkpt lat="43.00346" lon="0.55162">
        <ele>925.41</ele>
        <time>2020-05-29T13:53:04Z</time>
      </trkpt>
      <trkpt lat="43.00341" lon="0.55151">
        <ele>926.85</ele>
        <time>2020-05-29T13:53:19Z</time>
      </trkpt>
      <trkpt lat="43.00336" lon="0.55134">
        <ele>928.29</ele>
        <time>2020-05-29T13:53:34Z</time>
      </trkpt>
      <trkpt lat="43.00329" lon="0.55125">
        <ele>930.21</ele>
        <time>2020-05-29T13:53:48Z</time>
      </trkpt>
      <trkpt lat="43.00324" lon="0.55114">
        <ele>932.62</ele>
        <time>2020-05-29T13:54:05Z</time>
      </trkpt>
      <trkpt lat="43.00321" lon="0.55105">
        <ele>934.54</ele>
        <time>2020-05-29T13:54:19Z</time>
      </trkpt>
      <trkpt lat="43.00309" lon="0.55095">
        <ele>935.98</ele>
        <time>2020-05-29T13:54:36Z</time>
      </trkpt>
      <trkpt lat="43.00302" lon="0.55082">
        <ele>937.9</ele>
        <time>2020-05-29T13:54:50Z</time>
      </trkpt>
      <trkpt lat="43.00295" lon="0.55078">
        <ele>939.35</ele>
        <time>2020-05-29T13:55:01Z</time>
      </trkpt>
      <trkpt lat="43.00288" lon="0.55071">
        <ele>941.27</ele>
        <time>2020-05-29T13:55:16Z</time>
      </trkpt>
      <trkpt lat="43.00276" lon="0.5506">
        <ele>942.71</ele>
        <time>2020-05-29T13:55:32Z</time>
      </trkpt>
      <trkpt lat="43.0027" lon="0.55056">
        <ele>945.11</ele>
        <time>2020-05-29T13:55:46Z</time>
      </trkpt>
      <trkpt lat="43.0026" lon="0.55049">
        <ele>947.04</ele>
        <time>2020-05-29T13:56:02Z</time>
      </trkpt>
      <trkpt lat="43.00249" lon="0.55042">
        <ele>948.96</ele>
        <time>2020-05-29T13:56:16Z</time>
      </trkpt>
      <trkpt lat="43.00234" lon="0.55037">
        <ele>950.88</ele>
        <time>2020-05-29T13:56:33Z</time>
      </trkpt>
      <trkpt lat="43.00226" lon="0.55031">
        <ele>952.32</ele>
        <time>2020-05-29T13:56:48Z</time>
      </trkpt>
      <trkpt lat="43.00214" lon="0.55028">
        <ele>953.77</ele>
        <time>2020-05-29T13:57:05Z</time>
      </trkpt>
      <trkpt lat="43.00217" lon="0.55042">
        <ele>954.73</ele>
        <time>2020-05-29T13:57:26Z</time>
      </trkpt>
      <trkpt lat="43.00227" lon="0.55047">
        <ele>956.17</ele>
        <time>2020-05-29T13:57:40Z</time>
      </trkpt>
      <trkpt lat="43.00235" lon="0.55054">
        <ele>957.61</ele>
        <time>2020-05-29T13:57:54Z</time>
      </trkpt>
      <trkpt lat="43.0024" lon="0.55071">
        <ele>958.57</ele>
        <time>2020-05-29T13:58:08Z</time>
      </trkpt>
      <trkpt lat="43.00248" lon="0.55087">
        <ele>960.49</ele>
        <time>2020-05-29T13:58:25Z</time>
      </trkpt>
      <trkpt lat="43.00254" lon="0.55107">
        <ele>961.94</ele>
        <time>2020-05-29T13:58:44Z</time>
      </trkpt>
      <trkpt lat="43.00257" lon="0.55124">
        <ele>963.86</ele>
        <time>2020-05-29T13:59:03Z</time>
      </trkpt>
      <trkpt lat="43.0026" lon="0.55134">
        <ele>965.3</ele>
        <time>2020-05-29T13:59:16Z</time>
      </trkpt>
      <trkpt lat="43.00264" lon="0.55148">
        <ele>967.7</ele>
        <time>2020-05-29T13:59:31Z</time>
      </trkpt>
      <trkpt lat="43.00266" lon="0.55166">
        <ele>969.63</ele>
        <time>2020-05-29T13:59:51Z</time>
      </trkpt>
      <trkpt lat="43.00267" lon="0.55177">
        <ele>971.55</ele>
        <time>2020-05-29T14:00:06Z</time>
      </trkpt>
      <trkpt lat="43.00266" lon="0.55192">
        <ele>973.47</ele>
        <time>2020-05-29T14:00:25Z</time>
      </trkpt>
      <trkpt lat="43.00266" lon="0.55203">
        <ele>974.91</ele>
        <time>2020-05-29T14:00:38Z</time>
      </trkpt>
      <trkpt lat="43.0027" lon="0.55211">
        <ele>975.88</ele>
        <time>2020-05-29T14:00:49Z</time>
      </trkpt>
      <trkpt lat="43.00271" lon="0.55222">
        <ele>977.8</ele>
        <time>2020-05-29T14:01:02Z</time>
      </trkpt>
      <trkpt lat="43.0027" lon="0.55237">
        <ele>978.76</ele>
        <time>2020-05-29T14:01:15Z</time>
      </trkpt>
      <trkpt lat="43.00272" lon="0.55255">
        <ele>980.2</ele>
        <time>2020-05-29T14:01:32Z</time>
      </trkpt>
      <trkpt lat="43.00274" lon="0.55268">
        <ele>981.16</ele>
        <time>2020-05-29T14:01:48Z</time>
      </trkpt>
      <trkpt lat="43.00274" lon="0.55278">
        <ele>982.12</ele>
        <time>2020-05-29T14:02:04Z</time>
      </trkpt>
      <trkpt lat="43.00276" lon="0.55294">
        <ele>982.12</ele>
        <time>2020-05-29T14:02:19Z</time>
      </trkpt>
      <trkpt lat="43.00277" lon="0.55304">
        <ele>982.12</ele>
        <time>2020-05-29T14:02:30Z</time>
      </trkpt>
      <trkpt lat="43.00274" lon="0.55319">
        <ele>984.05</ele>
        <time>2020-05-29T14:02:44Z</time>
      </trkpt>
      <trkpt lat="43.00272" lon="0.55329">
        <ele>984.53</ele>
        <time>2020-05-29T14:02:55Z</time>
      </trkpt>
      <trkpt lat="43.00269" lon="0.55347">
        <ele>985.01</ele>
        <time>2020-05-29T14:03:09Z</time>
      </trkpt>
      <trkpt lat="43.00277" lon="0.55346">
        <ele>985.49</ele>
        <time>2020-05-29T14:03:27Z</time>
      </trkpt>
      <trkpt lat="43.00282" lon="0.55349">
        <ele>985.49</ele>
        <time>2020-05-29T14:03:48Z</time>
      </trkpt>
      <trkpt lat="43.00273" lon="0.55357">
        <ele>986.45</ele>
        <time>2020-05-29T14:04:01Z</time>
      </trkpt>
      <trkpt lat="43.00268" lon="0.55363">
        <ele>986.45</ele>
        <time>2020-05-29T14:04:27Z</time>
      </trkpt>
      <trkpt lat="43.00267" lon="0.55375">
        <ele>986.93</ele>
        <time>2020-05-29T14:04:39Z</time>
      </trkpt>
      <trkpt lat="43.00263" lon="0.5539">
        <ele>988.85</ele>
        <time>2020-05-29T14:04:53Z</time>
      </trkpt>
      <trkpt lat="43.00258" lon="0.55409">
        <ele>989.33</ele>
        <time>2020-05-29T14:05:07Z</time>
      </trkpt>
      <trkpt lat="43.00257" lon="0.55421">
        <ele>989.81</ele>
        <time>2020-05-29T14:05:18Z</time>
      </trkpt>
      <trkpt lat="43.00255" lon="0.55432">
        <ele>990.78</ele>
        <time>2020-05-29T14:05:30Z</time>
      </trkpt>
      <trkpt lat="43.00253" lon="0.55444">
        <ele>991.26</ele>
        <time>2020-05-29T14:05:42Z</time>
      </trkpt>
      <trkpt lat="43.0025" lon="0.55458">
        <ele>991.74</ele>
        <time>2020-05-29T14:05:53Z</time>
      </trkpt>
      <trkpt lat="43.0025" lon="0.55466">
        <ele>992.7</ele>
        <time>2020-05-29T14:06:07Z</time>
      </trkpt>
      <trkpt lat="43.00248" lon="0.55468">
        <ele>992.7</ele>
        <time>2020-05-29T14:06:25Z</time>
      </trkpt>
      <trkpt lat="43.00243" lon="0.5548">
        <ele>994.14</ele>
        <time>2020-05-29T14:06:40Z</time>
      </trkpt>
      <trkpt lat="43.0024" lon="0.55486">
        <ele>995.1</ele>
        <time>2020-05-29T14:06:52Z</time>
      </trkpt>
      <trkpt lat="43.00236" lon="0.55494">
        <ele>995.1</ele>
        <time>2020-05-29T14:07:06Z</time>
      </trkpt>
      <trkpt lat="43.00233" lon="0.55505">
        <ele>995.58</ele>
        <time>2020-05-29T14:07:17Z</time>
      </trkpt>
      <trkpt lat="43.00231" lon="0.55515">
        <ele>996.54</ele>
        <time>2020-05-29T14:07:28Z</time>
      </trkpt>
      <trkpt lat="43.00228" lon="0.55524">
        <ele>997.51</ele>
        <time>2020-05-29T14:07:41Z</time>
      </trkpt>
      <trkpt lat="43.00221" lon="0.55533">
        <ele>998.95</ele>
        <time>2020-05-29T14:07:56Z</time>
      </trkpt>
      <trkpt lat="43.00217" lon="0.55529">
        <ele>1000.87</ele>
        <time>2020-05-29T14:08:11Z</time>
      </trkpt>
      <trkpt lat="43.00211" lon="0.55528">
        <ele>1002.31</ele>
        <time>2020-05-29T14:08:28Z</time>
      </trkpt>
      <trkpt lat="43.00206" lon="0.55529">
        <ele>1004.72</ele>
        <time>2020-05-29T14:08:42Z</time>
      </trkpt>
      <trkpt lat="43.00206" lon="0.55516">
        <ele>1006.64</ele>
        <time>2020-05-29T14:09:01Z</time>
      </trkpt>
      <trkpt lat="43.00203" lon="0.55506">
        <ele>1009.04</ele>
        <time>2020-05-29T14:09:21Z</time>
      </trkpt>
      <trkpt lat="43.00198" lon="0.55495">
        <ele>1010</ele>
        <time>2020-05-29T14:09:39Z</time>
      </trkpt>
      <trkpt lat="43.00198" lon="0.55498">
        <ele>1010.48</ele>
        <time>2020-05-29T14:10:02Z</time>
      </trkpt>
      <trkpt lat="43.00194" lon="0.55499">
        <ele>1012.89</ele>
        <time>2020-05-29T14:10:16Z</time>
      </trkpt>
      <trkpt lat="43.00192" lon="0.55498">
        <ele>1014.81</ele>
        <time>2020-05-29T14:10:31Z</time>
      </trkpt>
      <trkpt lat="43.00186" lon="0.55495">
        <ele>1017.21</ele>
        <time>2020-05-29T14:10:52Z</time>
      </trkpt>
      <trkpt lat="43.00183" lon="0.55495">
        <ele>1019.62</ele>
        <time>2020-05-29T14:11:07Z</time>
      </trkpt>
      <trkpt lat="43.00179" lon="0.5549">
        <ele>1021.54</ele>
        <time>2020-05-29T14:11:27Z</time>
      </trkpt>
      <trkpt lat="43.00171" lon="0.55487">
        <ele>1023.46</ele>
        <time>2020-05-29T14:11:48Z</time>
      </trkpt>
      <trkpt lat="43.00169" lon="0.55485">
        <ele>1025.38</ele>
        <time>2020-05-29T14:12:03Z</time>
      </trkpt>
      <trkpt lat="43.00162" lon="0.55487">
        <ele>1028.27</ele>
        <time>2020-05-29T14:12:22Z</time>
      </trkpt>
      <trkpt lat="43.00158" lon="0.55481">
        <ele>1031.15</ele>
        <time>2020-05-29T14:12:41Z</time>
      </trkpt>
      <trkpt lat="43.00153" lon="0.55474">
        <ele>1033.55</ele>
        <time>2020-05-29T14:13:00Z</time>
      </trkpt>
      <trkpt lat="43.00149" lon="0.55465">
        <ele>1035.96</ele>
        <time>2020-05-29T14:13:23Z</time>
      </trkpt>
      <trkpt lat="43.00143" lon="0.55457">
        <ele>1037.88</ele>
        <time>2020-05-29T14:13:41Z</time>
      </trkpt>
      <trkpt lat="43.00145" lon="0.55452">
        <ele>1039.32</ele>
        <time>2020-05-29T14:13:56Z</time>
      </trkpt>
      <trkpt lat="43.00141" lon="0.55433">
        <ele>1040.28</ele>
        <time>2020-05-29T14:14:16Z</time>
      </trkpt>
      <trkpt lat="43.00139" lon="0.55428">
        <ele>1042.21</ele>
        <time>2020-05-29T14:14:29Z</time>
      </trkpt>
      <trkpt lat="43.00134" lon="0.55424">
        <ele>1044.61</ele>
        <time>2020-05-29T14:14:47Z</time>
      </trkpt>
      <trkpt lat="43.00133" lon="0.55421">
        <ele>1045.09</ele>
        <time>2020-05-29T14:15:02Z</time>
      </trkpt>
      <trkpt lat="43.00133" lon="0.55419">
        <ele>1045.57</ele>
        <time>2020-05-29T14:15:23Z</time>
      </trkpt>
      <trkpt lat="43.00133" lon="0.55415">
        <ele>1045.57</ele>
        <time>2020-05-29T14:16:02Z</time>
      </trkpt>
      <trkpt lat="43.00131" lon="0.55417">
        <ele>1046.05</ele>
        <time>2020-05-29T14:16:32Z</time>
      </trkpt>
      <trkpt lat="43.00132" lon="0.55416">
        <ele>1046.53</ele>
        <time>2020-05-29T14:17:00Z</time>
      </trkpt>
      <trkpt lat="43.0013" lon="0.55417">
        <ele>1046.53</ele>
        <time>2020-05-29T14:17:33Z</time>
      </trkpt>
      <trkpt lat="43.0013" lon="0.55416">
        <ele>1046.53</ele>
        <time>2020-05-29T14:18:12Z</time>
      </trkpt>
      <trkpt lat="43.00128" lon="0.55418">
        <ele>1047.49</ele>
        <time>2020-05-29T14:18:36Z</time>
      </trkpt>
      <trkpt lat="43.00124" lon="0.55418">
        <ele>1048.94</ele>
        <time>2020-05-29T14:18:45Z</time>
      </trkpt>
      <trkpt lat="43.00122" lon="0.55416">
        <ele>1050.38</ele>
        <time>2020-05-29T14:18:55Z</time>
      </trkpt>
      <trkpt lat="43.00119" lon="0.55413">
        <ele>1050.86</ele>
        <time>2020-05-29T14:19:07Z</time>
      </trkpt>
      <trkpt lat="43.00112" lon="0.55414">
        <ele>1052.78</ele>
        <time>2020-05-29T14:19:18Z</time>
      </trkpt>
      <trkpt lat="43.00107" lon="0.5541">
        <ele>1053.74</ele>
        <time>2020-05-29T14:19:28Z</time>
      </trkpt>
      <trkpt lat="43.00104" lon="0.55407">
        <ele>1054.7</ele>
        <time>2020-05-29T14:19:40Z</time>
      </trkpt>
      <trkpt lat="43.00098" lon="0.55404">
        <ele>1056.15</ele>
        <time>2020-05-29T14:19:52Z</time>
      </trkpt>
      <trkpt lat="43.00098" lon="0.55403">
        <ele>1056.63</ele>
        <time>2020-05-29T14:19:54Z</time>
      </trkpt>
      <trkpt lat="43.00091" lon="0.55397">
        <ele>1057.59</ele>
        <time>2020-05-29T14:20:06Z</time>
      </trkpt>
      <trkpt lat="43.00086" lon="0.55393">
        <ele>1058.55</ele>
        <time>2020-05-29T14:20:21Z</time>
      </trkpt>
      <trkpt lat="43.00084" lon="0.55386">
        <ele>1060.47</ele>
        <time>2020-05-29T14:20:35Z</time>
      </trkpt>
      <trkpt lat="43.00081" lon="0.55382">
        <ele>1061.43</ele>
        <time>2020-05-29T14:20:47Z</time>
      </trkpt>
      <trkpt lat="43.00073" lon="0.55379">
        <ele>1061.91</ele>
        <time>2020-05-29T14:21:01Z</time>
      </trkpt>
      <trkpt lat="43.00069" lon="0.55376">
        <ele>1062.87</ele>
        <time>2020-05-29T14:21:12Z</time>
      </trkpt>
      <trkpt lat="43.00068" lon="0.55374">
        <ele>1062.87</ele>
        <time>2020-05-29T14:21:32Z</time>
      </trkpt>
      <trkpt lat="43.00064" lon="0.55371">
        <ele>1063.84</ele>
        <time>2020-05-29T14:21:43Z</time>
      </trkpt>
      <trkpt lat="43.00058" lon="0.55366">
        <ele>1064.32</ele>
        <time>2020-05-29T14:21:54Z</time>
      </trkpt>
      <trkpt lat="43.00057" lon="0.55364">
        <ele>1064.8</ele>
        <time>2020-05-29T14:22:06Z</time>
      </trkpt>
      <trkpt lat="43.00054" lon="0.55363">
        <ele>1064.8</ele>
        <time>2020-05-29T14:22:19Z</time>
      </trkpt>
      <trkpt lat="43.00052" lon="0.55363">
        <ele>1064.8</ele>
        <time>2020-05-29T14:22:31Z</time>
      </trkpt>
      <trkpt lat="43.00051" lon="0.55361">
        <ele>1064.8</ele>
        <time>2020-05-29T14:22:37Z</time>
      </trkpt>
      <trkpt lat="43.00046" lon="0.55357">
        <ele>1064.8</ele>
        <time>2020-05-29T14:22:48Z</time>
      </trkpt>
      <trkpt lat="43.00047" lon="0.55359">
        <ele>1064.8</ele>
        <time>2020-05-29T14:22:59Z</time>
      </trkpt>
      <trkpt lat="43.00046" lon="0.55356">
        <ele>1064.8</ele>
        <time>2020-05-29T14:23:15Z</time>
      </trkpt>
      <trkpt lat="43.00046" lon="0.55358">
        <ele>1065.28</ele>
        <time>2020-05-29T14:23:36Z</time>
      </trkpt>
      <trkpt lat="43.00046" lon="0.55358">
        <ele>1065.28</ele>
        <time>2020-05-29T14:23:54Z</time>
      </trkpt>
      <trkpt lat="43.00046" lon="0.55358">
        <ele>1065.28</ele>
        <time>2020-05-29T14:24:14Z</time>
      </trkpt>
      <trkpt lat="43.00047" lon="0.55356">
        <ele>1065.28</ele>
        <time>2020-05-29T14:24:41Z</time>
      </trkpt>
      <trkpt lat="43.00047" lon="0.55356">
        <ele>1065.28</ele>
        <time>2020-05-29T14:25:10Z</time>
      </trkpt>
      <trkpt lat="43.00046" lon="0.55356">
        <ele>1065.28</ele>
        <time>2020-05-29T14:25:38Z</time>
      </trkpt>
      <trkpt lat="43.00047" lon="0.55356">
        <ele>1065.28</ele>
        <time>2020-05-29T14:26:06Z</time>
      </trkpt>
      <trkpt lat="43.00046" lon="0.55356">
        <ele>1065.76</ele>
        <time>2020-05-29T14:26:32Z</time>
      </trkpt>
      <trkpt lat="43.00045" lon="0.55359">
        <ele>1066.24</ele>
        <time>2020-05-29T14:26:52Z</time>
      </trkpt>
      <trkpt lat="43.00045" lon="0.55366">
        <ele>1065.28</ele>
        <time>2020-05-29T14:27:00Z</time>
      </trkpt>
      <trkpt lat="43.00045" lon="0.55369">
        <ele>1064.8</ele>
        <time>2020-05-29T14:27:13Z</time>
      </trkpt>
      <trkpt lat="43.00046" lon="0.55365">
        <ele>1064.8</ele>
        <time>2020-05-29T14:27:28Z</time>
      </trkpt>
      <trkpt lat="43.00046" lon="0.55364">
        <ele>1064.8</ele>
        <time>2020-05-29T14:27:44Z</time>
      </trkpt>
      <trkpt lat="43.00047" lon="0.55367">
        <ele>1064.8</ele>
        <time>2020-05-29T14:28:01Z</time>
      </trkpt>
      <trkpt lat="43.00046" lon="0.55368">
        <ele>1063.84</ele>
        <time>2020-05-29T14:28:13Z</time>
      </trkpt>
      <trkpt lat="43.00045" lon="0.55367">
        <ele>1064.32</ele>
        <time>2020-05-29T14:28:32Z</time>
      </trkpt>
      <trkpt lat="43.00046" lon="0.55367">
        <ele>1064.32</ele>
        <time>2020-05-29T14:28:56Z</time>
      </trkpt>
      <trkpt lat="43.00046" lon="0.55367">
        <ele>1064.32</ele>
        <time>2020-05-29T14:29:08Z</time>
      </trkpt>
      <trkpt lat="43.00046" lon="0.55368">
        <ele>1064.32</ele>
        <time>2020-05-29T14:29:25Z</time>
      </trkpt>
      <trkpt lat="43.00045" lon="0.55368">
        <ele>1065.28</ele>
        <time>2020-05-29T14:29:29Z</time>
      </trkpt>
      <trkpt lat="43.00046" lon="0.55367">
        <ele>1065.28</ele>
        <time>2020-05-29T14:29:49Z</time>
      </trkpt>
      <trkpt lat="43.00042" lon="0.55369">
        <ele>1063.84</ele>
        <time>2020-05-29T14:30:02Z</time>
      </trkpt>
      <trkpt lat="43.00044" lon="0.55369">
        <ele>1063.84</ele>
        <time>2020-05-29T14:30:20Z</time>
      </trkpt>
      <trkpt lat="43.00048" lon="0.55365">
        <ele>1065.76</ele>
        <time>2020-05-29T14:30:36Z</time>
      </trkpt>
      <trkpt lat="43.00051" lon="0.55362">
        <ele>1065.76</ele>
        <time>2020-05-29T14:30:41Z</time>
      </trkpt>
      <trkpt lat="43.00058" lon="0.5536">
        <ele>1065.76</ele>
        <time>2020-05-29T14:30:51Z</time>
      </trkpt>
      <trkpt lat="43.00059" lon="0.55359">
        <ele>1065.76</ele>
        <time>2020-05-29T14:30:52Z</time>
      </trkpt>
      <trkpt lat="43.00063" lon="0.55354">
        <ele>1065.76</ele>
        <time>2020-05-29T14:30:58Z</time>
      </trkpt>
      <trkpt lat="43.00071" lon="0.55348">
        <ele>1064.32</ele>
        <time>2020-05-29T14:31:13Z</time>
      </trkpt>
      <trkpt lat="43.00078" lon="0.55335">
        <ele>1062.87</ele>
        <time>2020-05-29T14:31:27Z</time>
      </trkpt>
      <trkpt lat="43.00083" lon="0.55331">
        <ele>1061.91</ele>
        <time>2020-05-29T14:31:32Z</time>
      </trkpt>
      <trkpt lat="43.00088" lon="0.55327">
        <ele>1060.95</ele>
        <time>2020-05-29T14:31:39Z</time>
      </trkpt>
      <trkpt lat="43.00093" lon="0.55313">
        <ele>1058.07</ele>
        <time>2020-05-29T14:31:53Z</time>
      </trkpt>
      <trkpt lat="43.00097" lon="0.5531">
        <ele>1057.59</ele>
        <time>2020-05-29T14:31:59Z</time>
      </trkpt>
      <trkpt lat="43.00101" lon="0.55305">
        <ele>1056.15</ele>
        <time>2020-05-29T14:32:05Z</time>
      </trkpt>
      <trkpt lat="43.00107" lon="0.55294">
        <ele>1053.74</ele>
        <time>2020-05-29T14:32:15Z</time>
      </trkpt>
      <trkpt lat="43.0011" lon="0.55279">
        <ele>1051.82</ele>
        <time>2020-05-29T14:32:25Z</time>
      </trkpt>
      <trkpt lat="43.00114" lon="0.55277">
        <ele>1050.38</ele>
        <time>2020-05-29T14:32:29Z</time>
      </trkpt>
      <trkpt lat="43.00121" lon="0.55272">
        <ele>1048.94</ele>
        <time>2020-05-29T14:32:35Z</time>
      </trkpt>
      <trkpt lat="43.00125" lon="0.55257">
        <ele>1045.09</ele>
        <time>2020-05-29T14:32:48Z</time>
      </trkpt>
      <trkpt lat="43.00125" lon="0.55256">
        <ele>1045.09</ele>
        <time>2020-05-29T14:32:49Z</time>
      </trkpt>
      <trkpt lat="43.00133" lon="0.55244">
        <ele>1041.25</ele>
        <time>2020-05-29T14:33:03Z</time>
      </trkpt>
      <trkpt lat="43.00141" lon="0.55239">
        <ele>1038.36</ele>
        <time>2020-05-29T14:33:16Z</time>
      </trkpt>
      <trkpt lat="43.00146" lon="0.55229">
        <ele>1034.52</ele>
        <time>2020-05-29T14:33:28Z</time>
      </trkpt>
      <trkpt lat="43.00147" lon="0.55215">
        <ele>1032.11</ele>
        <time>2020-05-29T14:33:42Z</time>
      </trkpt>
      <trkpt lat="43.00151" lon="0.55206">
        <ele>1028.75</ele>
        <time>2020-05-29T14:33:53Z</time>
      </trkpt>
      <trkpt lat="43.00152" lon="0.55199">
        <ele>1025.86</ele>
        <time>2020-05-29T14:34:04Z</time>
      </trkpt>
      <trkpt lat="43.0016" lon="0.55196">
        <ele>1023.46</ele>
        <time>2020-05-29T14:34:16Z</time>
      </trkpt>
      <trkpt lat="43.00162" lon="0.55191">
        <ele>1020.1</ele>
        <time>2020-05-29T14:34:31Z</time>
      </trkpt>
      <trkpt lat="43.00166" lon="0.55183">
        <ele>1017.69</ele>
        <time>2020-05-29T14:34:45Z</time>
      </trkpt>
      <trkpt lat="43.00163" lon="0.55174">
        <ele>1015.29</ele>
        <time>2020-05-29T14:34:57Z</time>
      </trkpt>
      <trkpt lat="43.0016" lon="0.55165">
        <ele>1011.93</ele>
        <time>2020-05-29T14:35:08Z</time>
      </trkpt>
      <trkpt lat="43.00157" lon="0.5516">
        <ele>1010.96</ele>
        <time>2020-05-29T14:35:13Z</time>
      </trkpt>
      <trkpt lat="43.00152" lon="0.55152">
        <ele>1009.52</ele>
        <time>2020-05-29T14:35:23Z</time>
      </trkpt>
      <trkpt lat="43.00143" lon="0.55144">
        <ele>1007.6</ele>
        <time>2020-05-29T14:35:35Z</time>
      </trkpt>
      <trkpt lat="43.0014" lon="0.55138">
        <ele>1006.64</ele>
        <time>2020-05-29T14:35:42Z</time>
      </trkpt>
      <trkpt lat="43.00133" lon="0.55135">
        <ele>1005.2</ele>
        <time>2020-05-29T14:35:48Z</time>
      </trkpt>
      <trkpt lat="43.00131" lon="0.55135">
        <ele>1005.68</ele>
        <time>2020-05-29T14:35:50Z</time>
      </trkpt>
      <trkpt lat="43.00128" lon="0.55131">
        <ele>1004.72</ele>
        <time>2020-05-29T14:36:02Z</time>
      </trkpt>
      <trkpt lat="43.00117" lon="0.55122">
        <ele>1002.79</ele>
        <time>2020-05-29T14:36:14Z</time>
      </trkpt>
      <trkpt lat="43.00116" lon="0.55122">
        <ele>1002.79</ele>
        <time>2020-05-29T14:36:15Z</time>
      </trkpt>
      <trkpt lat="43.00108" lon="0.55117">
        <ele>1000.87</ele>
        <time>2020-05-29T14:36:27Z</time>
      </trkpt>
      <trkpt lat="43.001" lon="0.5511">
        <ele>999.43</ele>
        <time>2020-05-29T14:36:39Z</time>
      </trkpt>
      <trkpt lat="43.00104" lon="0.55103">
        <ele>997.51</ele>
        <time>2020-05-29T14:36:50Z</time>
      </trkpt>
      <trkpt lat="43.00106" lon="0.55094">
        <ele>994.62</ele>
        <time>2020-05-29T14:37:03Z</time>
      </trkpt>
      <trkpt lat="43.00103" lon="0.55089">
        <ele>992.22</ele>
        <time>2020-05-29T14:37:13Z</time>
      </trkpt>
      <trkpt lat="43.00104" lon="0.55081">
        <ele>989.81</ele>
        <time>2020-05-29T14:37:24Z</time>
      </trkpt>
      <trkpt lat="43.00101" lon="0.55075">
        <ele>987.89</ele>
        <time>2020-05-29T14:37:35Z</time>
      </trkpt>
      <trkpt lat="43.00098" lon="0.55069">
        <ele>986.45</ele>
        <time>2020-05-29T14:37:48Z</time>
      </trkpt>
      <trkpt lat="43.00098" lon="0.55061">
        <ele>984.05</ele>
        <time>2020-05-29T14:38:03Z</time>
      </trkpt>
      <trkpt lat="43.00098" lon="0.55061">
        <ele>983.57</ele>
        <time>2020-05-29T14:38:19Z</time>
      </trkpt>
      <trkpt lat="43.00098" lon="0.5505">
        <ele>981.16</ele>
        <time>2020-05-29T14:38:36Z</time>
      </trkpt>
      <trkpt lat="43.00096" lon="0.55046">
        <ele>980.68</ele>
        <time>2020-05-29T14:38:47Z</time>
      </trkpt>
      <trkpt lat="43.00096" lon="0.55043">
        <ele>979.72</ele>
        <time>2020-05-29T14:38:54Z</time>
      </trkpt>
      <trkpt lat="43.00096" lon="0.55039">
        <ele>978.76</ele>
        <time>2020-05-29T14:39:05Z</time>
      </trkpt>
      <trkpt lat="43.00101" lon="0.55034">
        <ele>975.39</ele>
        <time>2020-05-29T14:39:16Z</time>
      </trkpt>
      <trkpt lat="43.0011" lon="0.55022">
        <ele>972.99</ele>
        <time>2020-05-29T14:39:31Z</time>
      </trkpt>
      <trkpt lat="43.00119" lon="0.55014">
        <ele>970.59</ele>
        <time>2020-05-29T14:39:47Z</time>
      </trkpt>
      <trkpt lat="43.00126" lon="0.55006">
        <ele>967.22</ele>
        <time>2020-05-29T14:40:00Z</time>
      </trkpt>
      <trkpt lat="43.00125" lon="0.55001">
        <ele>966.26</ele>
        <time>2020-05-29T14:40:05Z</time>
      </trkpt>
      <trkpt lat="43.00121" lon="0.54989">
        <ele>963.86</ele>
        <time>2020-05-29T14:40:16Z</time>
      </trkpt>
      <trkpt lat="43.00119" lon="0.54988">
        <ele>963.86</ele>
        <time>2020-05-29T14:40:18Z</time>
      </trkpt>
      <trkpt lat="43.00113" lon="0.54977">
        <ele>961.94</ele>
        <time>2020-05-29T14:40:31Z</time>
      </trkpt>
      <trkpt lat="43.0011" lon="0.5497">
        <ele>960.49</ele>
        <time>2020-05-29T14:40:39Z</time>
      </trkpt>
      <trkpt lat="43.00109" lon="0.54958">
        <ele>958.09</ele>
        <time>2020-05-29T14:40:52Z</time>
      </trkpt>
      <trkpt lat="43.00112" lon="0.54945">
        <ele>954.73</ele>
        <time>2020-05-29T14:41:07Z</time>
      </trkpt>
      <trkpt lat="43.00109" lon="0.54933">
        <ele>953.28</ele>
        <time>2020-05-29T14:41:20Z</time>
      </trkpt>
      <trkpt lat="43.00108" lon="0.54927">
        <ele>952.32</ele>
        <time>2020-05-29T14:41:28Z</time>
      </trkpt>
      <trkpt lat="43.00106" lon="0.54917">
        <ele>949.92</ele>
        <time>2020-05-29T14:41:37Z</time>
      </trkpt>
      <trkpt lat="43.00101" lon="0.54904">
        <ele>948.48</ele>
        <time>2020-05-29T14:41:49Z</time>
      </trkpt>
      <trkpt lat="43.00098" lon="0.54896">
        <ele>947.52</ele>
        <time>2020-05-29T14:41:56Z</time>
      </trkpt>
      <trkpt lat="43.00103" lon="0.54878">
        <ele>944.63</ele>
        <time>2020-05-29T14:42:11Z</time>
      </trkpt>
      <trkpt lat="43.00106" lon="0.54874">
        <ele>943.19</ele>
        <time>2020-05-29T14:42:16Z</time>
      </trkpt>
      <trkpt lat="43.00109" lon="0.5486">
        <ele>940.79</ele>
        <time>2020-05-29T14:42:28Z</time>
      </trkpt>
      <trkpt lat="43.00111" lon="0.54857">
        <ele>940.31</ele>
        <time>2020-05-29T14:42:30Z</time>
      </trkpt>
      <trkpt lat="43.00113" lon="0.54855">
        <ele>939.83</ele>
        <time>2020-05-29T14:42:33Z</time>
      </trkpt>
      <trkpt lat="43.00115" lon="0.5485">
        <ele>938.38</ele>
        <time>2020-05-29T14:42:38Z</time>
      </trkpt>
      <trkpt lat="43.00117" lon="0.54849">
        <ele>937.42</ele>
        <time>2020-05-29T14:42:40Z</time>
      </trkpt>
      <trkpt lat="43.00125" lon="0.54849">
        <ele>936.94</ele>
        <time>2020-05-29T14:42:45Z</time>
      </trkpt>
      <trkpt lat="43.00138" lon="0.5484">
        <ele>934.06</ele>
        <time>2020-05-29T14:42:59Z</time>
      </trkpt>
      <trkpt lat="43.00141" lon="0.54835">
        <ele>933.1</ele>
        <time>2020-05-29T14:43:04Z</time>
      </trkpt>
      <trkpt lat="43.00146" lon="0.54832">
        <ele>932.14</ele>
        <time>2020-05-29T14:43:09Z</time>
      </trkpt>
      <trkpt lat="43.0015" lon="0.54825">
        <ele>930.69</ele>
        <time>2020-05-29T14:43:16Z</time>
      </trkpt>
      <trkpt lat="43.00153" lon="0.54821">
        <ele>929.25</ele>
        <time>2020-05-29T14:43:20Z</time>
      </trkpt>
      <trkpt lat="43.00159" lon="0.54812">
        <ele>927.81</ele>
        <time>2020-05-29T14:43:30Z</time>
      </trkpt>
      <trkpt lat="43.00167" lon="0.54808">
        <ele>925.89</ele>
        <time>2020-05-29T14:43:40Z</time>
      </trkpt>
      <trkpt lat="43.00174" lon="0.54792">
        <ele>923.48</ele>
        <time>2020-05-29T14:43:52Z</time>
      </trkpt>
      <trkpt lat="43.00182" lon="0.54779">
        <ele>921.56</ele>
        <time>2020-05-29T14:44:06Z</time>
      </trkpt>
      <trkpt lat="43.00192" lon="0.54779">
        <ele>920.12</ele>
        <time>2020-05-29T14:44:19Z</time>
      </trkpt>
      <trkpt lat="43.00195" lon="0.54781">
        <ele>919.64</ele>
        <time>2020-05-29T14:44:25Z</time>
      </trkpt>
      <trkpt lat="43.002" lon="0.54779">
        <ele>919.16</ele>
        <time>2020-05-29T14:44:29Z</time>
      </trkpt>
      <trkpt lat="43.00203" lon="0.54777">
        <ele>918.68</ele>
        <time>2020-05-29T14:44:31Z</time>
      </trkpt>
      <trkpt lat="43.00207" lon="0.5478">
        <ele>918.2</ele>
        <time>2020-05-29T14:44:36Z</time>
      </trkpt>
      <trkpt lat="43.0022" lon="0.54784">
        <ele>916.75</ele>
        <time>2020-05-29T14:44:52Z</time>
      </trkpt>
      <trkpt lat="43.00226" lon="0.54781">
        <ele>915.79</ele>
        <time>2020-05-29T14:44:57Z</time>
      </trkpt>
      <trkpt lat="43.00241" lon="0.54782">
        <ele>914.83</ele>
        <time>2020-05-29T14:45:10Z</time>
      </trkpt>
      <trkpt lat="43.00256" lon="0.54783">
        <ele>912.43</ele>
        <time>2020-05-29T14:45:23Z</time>
      </trkpt>
      <trkpt lat="43.00268" lon="0.5479">
        <ele>910.99</ele>
        <time>2020-05-29T14:45:38Z</time>
      </trkpt>
      <trkpt lat="43.00279" lon="0.54794">
        <ele>909.54</ele>
        <time>2020-05-29T14:45:52Z</time>
      </trkpt>
      <trkpt lat="43.00287" lon="0.54801">
        <ele>908.1</ele>
        <time>2020-05-29T14:46:03Z</time>
      </trkpt>
      <trkpt lat="43.00292" lon="0.54809">
        <ele>906.66</ele>
        <time>2020-05-29T14:46:15Z</time>
      </trkpt>
      <trkpt lat="43.00299" lon="0.54815">
        <ele>905.22</ele>
        <time>2020-05-29T14:46:28Z</time>
      </trkpt>
      <trkpt lat="43.00304" lon="0.54818">
        <ele>903.78</ele>
        <time>2020-05-29T14:46:38Z</time>
      </trkpt>
      <trkpt lat="43.00309" lon="0.54825">
        <ele>900.89</ele>
        <time>2020-05-29T14:46:52Z</time>
      </trkpt>
      <trkpt lat="43.00312" lon="0.54831">
        <ele>898.97</ele>
        <time>2020-05-29T14:47:08Z</time>
      </trkpt>
      <trkpt lat="43.00313" lon="0.54847">
        <ele>897.53</ele>
        <time>2020-05-29T14:47:24Z</time>
      </trkpt>
      <trkpt lat="43.00313" lon="0.54843">
        <ele>896.09</ele>
        <time>2020-05-29T14:47:41Z</time>
      </trkpt>
      <trkpt lat="43.0032" lon="0.54839">
        <ele>895.12</ele>
        <time>2020-05-29T14:48:00Z</time>
      </trkpt>
      <trkpt lat="43.0032" lon="0.54838">
        <ele>895.61</ele>
        <time>2020-05-29T14:48:19Z</time>
      </trkpt>
      <trkpt lat="43.0032" lon="0.54836">
        <ele>895.61</ele>
        <time>2020-05-29T14:48:35Z</time>
      </trkpt>
      <trkpt lat="43.00323" lon="0.54834">
        <ele>895.61</ele>
        <time>2020-05-29T14:48:47Z</time>
      </trkpt>
      <trkpt lat="43.00324" lon="0.54826">
        <ele>895.61</ele>
        <time>2020-05-29T14:48:56Z</time>
      </trkpt>
      <trkpt lat="43.00327" lon="0.54824">
        <ele>895.61</ele>
        <time>2020-05-29T14:49:01Z</time>
      </trkpt>
      <trkpt lat="43.00337" lon="0.54824">
        <ele>895.12</ele>
        <time>2020-05-29T14:49:08Z</time>
      </trkpt>
      <trkpt lat="43.00354" lon="0.54824">
        <ele>893.2</ele>
        <time>2020-05-29T14:49:22Z</time>
      </trkpt>
      <trkpt lat="43.00359" lon="0.5482">
        <ele>892.72</ele>
        <time>2020-05-29T14:49:33Z</time>
      </trkpt>
      <trkpt lat="43.0038" lon="0.54823">
        <ele>890.32</ele>
        <time>2020-05-29T14:49:46Z</time>
      </trkpt>
      <trkpt lat="43.00385" lon="0.54824">
        <ele>889.36</ele>
        <time>2020-05-29T14:49:54Z</time>
      </trkpt>
      <trkpt lat="43.00397" lon="0.54823">
        <ele>888.4</ele>
        <time>2020-05-29T14:50:06Z</time>
      </trkpt>
      <trkpt lat="43.00409" lon="0.54825">
        <ele>886.47</ele>
        <time>2020-05-29T14:50:20Z</time>
      </trkpt>
      <trkpt lat="43.00415" lon="0.54824">
        <ele>885.51</ele>
        <time>2020-05-29T14:50:25Z</time>
      </trkpt>
      <trkpt lat="43.00426" lon="0.54825">
        <ele>883.59</ele>
        <time>2020-05-29T14:50:38Z</time>
      </trkpt>
      <trkpt lat="43.00438" lon="0.54835">
        <ele>882.15</ele>
        <time>2020-05-29T14:50:51Z</time>
      </trkpt>
      <trkpt lat="43.0045" lon="0.54838">
        <ele>879.74</ele>
        <time>2020-05-29T14:51:03Z</time>
      </trkpt>
      <trkpt lat="43.00451" lon="0.54838">
        <ele>879.74</ele>
        <time>2020-05-29T14:51:04Z</time>
      </trkpt>
      <trkpt lat="43.00454" lon="0.54836">
        <ele>879.26</ele>
        <time>2020-05-29T14:51:07Z</time>
      </trkpt>
      <trkpt lat="43.00458" lon="0.54836">
        <ele>878.78</ele>
        <time>2020-05-29T14:51:11Z</time>
      </trkpt>
      <trkpt lat="43.00467" lon="0.54833">
        <ele>876.86</ele>
        <time>2020-05-29T14:51:22Z</time>
      </trkpt>
      <trkpt lat="43.00486" lon="0.54826">
        <ele>874.94</ele>
        <time>2020-05-29T14:51:35Z</time>
      </trkpt>
      <trkpt lat="43.00497" lon="0.54823">
        <ele>873.5</ele>
        <time>2020-05-29T14:51:42Z</time>
      </trkpt>
      <trkpt lat="43.00501" lon="0.54823">
        <ele>873.01</ele>
        <time>2020-05-29T14:51:44Z</time>
      </trkpt>
      <trkpt lat="43.00517" lon="0.54822">
        <ele>871.09</ele>
        <time>2020-05-29T14:51:57Z</time>
      </trkpt>
      <trkpt lat="43.00528" lon="0.54828">
        <ele>869.17</ele>
        <time>2020-05-29T14:52:07Z</time>
      </trkpt>
      <trkpt lat="43.00537" lon="0.54827">
        <ele>868.69</ele>
        <time>2020-05-29T14:52:14Z</time>
      </trkpt>
      <trkpt lat="43.00546" lon="0.54826">
        <ele>867.25</ele>
        <time>2020-05-29T14:52:20Z</time>
      </trkpt>
      <trkpt lat="43.0055" lon="0.54828">
        <ele>866.29</ele>
        <time>2020-05-29T14:52:24Z</time>
      </trkpt>
      <trkpt lat="43.00564" lon="0.54841">
        <ele>863.4</ele>
        <time>2020-05-29T14:52:40Z</time>
      </trkpt>
      <trkpt lat="43.00573" lon="0.54834">
        <ele>861</ele>
        <time>2020-05-29T14:52:56Z</time>
      </trkpt>
      <trkpt lat="43.00586" lon="0.54824">
        <ele>857.63</ele>
        <time>2020-05-29T14:53:12Z</time>
      </trkpt>
      <trkpt lat="43.00605" lon="0.54816">
        <ele>855.23</ele>
        <time>2020-05-29T14:53:28Z</time>
      </trkpt>
      <trkpt lat="43.00631" lon="0.54821">
        <ele>852.83</ele>
        <time>2020-05-29T14:53:44Z</time>
      </trkpt>
      <trkpt lat="43.00644" lon="0.5483">
        <ele>850.9</ele>
        <time>2020-05-29T14:53:58Z</time>
      </trkpt>
      <trkpt lat="43.00654" lon="0.54828">
        <ele>850.9</ele>
        <time>2020-05-29T14:54:11Z</time>
      </trkpt>
      <trkpt lat="43.00634" lon="0.5482">
        <ele>852.83</ele>
        <time>2020-05-29T14:54:27Z</time>
      </trkpt>
      <trkpt lat="43.00627" lon="0.54816">
        <ele>853.79</ele>
        <time>2020-05-29T14:54:50Z</time>
      </trkpt>
      <trkpt lat="43.00625" lon="0.54811">
        <ele>854.27</ele>
        <time>2020-05-29T14:55:10Z</time>
      </trkpt>
      <trkpt lat="43.00637" lon="0.54817">
        <ele>852.35</ele>
        <time>2020-05-29T14:55:28Z</time>
      </trkpt>
      <trkpt lat="43.00652" lon="0.54828">
        <ele>850.9</ele>
        <time>2020-05-29T14:55:45Z</time>
      </trkpt>
      <trkpt lat="43.00671" lon="0.54842">
        <ele>849.46</ele>
        <time>2020-05-29T14:55:59Z</time>
      </trkpt>
      <trkpt lat="43.00683" lon="0.54857">
        <ele>849.46</ele>
        <time>2020-05-29T14:56:13Z</time>
      </trkpt>
      <trkpt lat="43.00694" lon="0.54873">
        <ele>848.98</ele>
        <time>2020-05-29T14:56:29Z</time>
      </trkpt>
      <trkpt lat="43.00704" lon="0.5489">
        <ele>848.98</ele>
        <time>2020-05-29T14:56:46Z</time>
      </trkpt>
      <trkpt lat="43.00712" lon="0.54908">
        <ele>848.98</ele>
        <time>2020-05-29T14:57:03Z</time>
      </trkpt>
      <trkpt lat="43.00717" lon="0.54933">
        <ele>848.02</ele>
        <time>2020-05-29T14:57:21Z</time>
      </trkpt>
      <trkpt lat="43.00722" lon="0.54957">
        <ele>848.02</ele>
        <time>2020-05-29T14:57:37Z</time>
      </trkpt>
      <trkpt lat="43.0073" lon="0.5498">
        <ele>847.06</ele>
        <time>2020-05-29T14:57:52Z</time>
      </trkpt>
      <trkpt lat="43.00732" lon="0.54988">
        <ele>847.06</ele>
        <time>2020-05-29T14:57:57Z</time>
      </trkpt>
      <trkpt lat="43.00736" lon="0.54999">
        <ele>846.58</ele>
        <time>2020-05-29T14:58:03Z</time>
      </trkpt>
      <trkpt lat="43.0075" lon="0.55027">
        <ele>845.62</ele>
        <time>2020-05-29T14:58:19Z</time>
      </trkpt>
      <trkpt lat="43.00755" lon="0.5503">
        <ele>845.14</ele>
        <time>2020-05-29T14:58:22Z</time>
      </trkpt>
      <trkpt lat="43.00761" lon="0.55048">
        <ele>844.18</ele>
        <time>2020-05-29T14:58:29Z</time>
      </trkpt>
      <trkpt lat="43.00765" lon="0.55065">
        <ele>843.21</ele>
        <time>2020-05-29T14:58:35Z</time>
      </trkpt>
      <trkpt lat="43.00768" lon="0.55078">
        <ele>843.21</ele>
        <time>2020-05-29T14:58:41Z</time>
      </trkpt>
      <trkpt lat="43.00778" lon="0.55096">
        <ele>841.29</ele>
        <time>2020-05-29T14:58:55Z</time>
      </trkpt>
      <trkpt lat="43.00792" lon="0.55113">
        <ele>839.37</ele>
        <time>2020-05-29T14:59:10Z</time>
      </trkpt>
      <trkpt lat="43.00803" lon="0.55129">
        <ele>838.41</ele>
        <time>2020-05-29T14:59:27Z</time>
      </trkpt>
      <trkpt lat="43.00832" lon="0.55138">
        <ele>838.41</ele>
        <time>2020-05-29T14:59:44Z</time>
      </trkpt>
      <trkpt lat="43.00838" lon="0.5514">
        <ele>837.45</ele>
        <time>2020-05-29T14:59:59Z</time>
      </trkpt>
      <trkpt lat="43.00845" lon="0.55142">
        <ele>836.48</ele>
        <time>2020-05-29T15:00:16Z</time>
      </trkpt>
      <trkpt lat="43.00847" lon="0.55143">
        <ele>836</ele>
        <time>2020-05-29T15:00:17Z</time>
      </trkpt>
      <trkpt lat="43.00853" lon="0.55144">
        <ele>836</ele>
        <time>2020-05-29T15:00:20Z</time>
      </trkpt>
      <trkpt lat="43.0088" lon="0.55151">
        <ele>834.08</ele>
        <time>2020-05-29T15:00:34Z</time>
      </trkpt>
      <trkpt lat="43.00898" lon="0.55158">
        <ele>833.6</ele>
        <time>2020-05-29T15:00:48Z</time>
      </trkpt>
      <trkpt lat="43.00914" lon="0.5517">
        <ele>832.64</ele>
        <time>2020-05-29T15:01:06Z</time>
      </trkpt>
      <trkpt lat="43.00934" lon="0.55187">
        <ele>829.76</ele>
        <time>2020-05-29T15:01:25Z</time>
      </trkpt>
      <trkpt lat="43.00954" lon="0.55204">
        <ele>827.35</ele>
        <time>2020-05-29T15:01:38Z</time>
      </trkpt>
      <trkpt lat="43.00972" lon="0.55223">
        <ele>824.95</ele>
        <time>2020-05-29T15:01:53Z</time>
      </trkpt>
      <trkpt lat="43.00984" lon="0.55248">
        <ele>821.58</ele>
        <time>2020-05-29T15:02:10Z</time>
      </trkpt>
      <trkpt lat="43.01001" lon="0.55265">
        <ele>819.18</ele>
        <time>2020-05-29T15:02:25Z</time>
      </trkpt>
      <trkpt lat="43.01015" lon="0.55277">
        <ele>816.78</ele>
        <time>2020-05-29T15:02:38Z</time>
      </trkpt>
      <trkpt lat="43.01023" lon="0.55294">
        <ele>816.3</ele>
        <time>2020-05-29T15:02:52Z</time>
      </trkpt>
      <trkpt lat="43.01023" lon="0.55316">
        <ele>814.85</ele>
        <time>2020-05-29T15:03:06Z</time>
      </trkpt>
      <trkpt lat="43.01021" lon="0.55333">
        <ele>813.41</ele>
        <time>2020-05-29T15:03:19Z</time>
      </trkpt>
      <trkpt lat="43.01018" lon="0.55348">
        <ele>812.45</ele>
        <time>2020-05-29T15:03:32Z</time>
      </trkpt>
      <trkpt lat="43.01018" lon="0.55365">
        <ele>810.53</ele>
        <time>2020-05-29T15:03:46Z</time>
      </trkpt>
      <trkpt lat="43.01018" lon="0.55384">
        <ele>809.57</ele>
        <time>2020-05-29T15:03:59Z</time>
      </trkpt>
      <trkpt lat="43.01015" lon="0.55409">
        <ele>807.16</ele>
        <time>2020-05-29T15:04:14Z</time>
      </trkpt>
      <trkpt lat="43.01009" lon="0.55428">
        <ele>807.16</ele>
        <time>2020-05-29T15:04:26Z</time>
      </trkpt>
      <trkpt lat="43.01007" lon="0.55442">
        <ele>806.68</ele>
        <time>2020-05-29T15:04:41Z</time>
      </trkpt>
      <trkpt lat="43.01005" lon="0.55446">
        <ele>805.72</ele>
        <time>2020-05-29T15:05:00Z</time>
      </trkpt>
      <trkpt lat="43.01013" lon="0.55447">
        <ele>805.24</ele>
        <time>2020-05-29T15:05:17Z</time>
      </trkpt>
      <trkpt lat="43.01014" lon="0.55456">
        <ele>804.76</ele>
        <time>2020-05-29T15:05:40Z</time>
      </trkpt>
      <trkpt lat="43.01023" lon="0.5546">
        <ele>804.28</ele>
        <time>2020-05-29T15:06:08Z</time>
      </trkpt>
      <trkpt lat="43.01014" lon="0.5547">
        <ele>804.76</ele>
        <time>2020-05-29T15:06:25Z</time>
      </trkpt>
      <trkpt lat="43.01004" lon="0.55485">
        <ele>805.72</ele>
        <time>2020-05-29T15:06:41Z</time>
      </trkpt>
      <trkpt lat="43.00994" lon="0.55501">
        <ele>806.68</ele>
        <time>2020-05-29T15:06:58Z</time>
      </trkpt>
      <trkpt lat="43.00982" lon="0.55522">
        <ele>808.13</ele>
        <time>2020-05-29T15:07:17Z</time>
      </trkpt>
      <trkpt lat="43.00968" lon="0.55539">
        <ele>809.09</ele>
        <time>2020-05-29T15:07:34Z</time>
      </trkpt>
      <trkpt lat="43.00951" lon="0.55554">
        <ele>809.09</ele>
        <time>2020-05-29T15:07:51Z</time>
      </trkpt>
      <trkpt lat="43.00936" lon="0.55568">
        <ele>810.53</ele>
        <time>2020-05-29T15:08:07Z</time>
      </trkpt>
      <trkpt lat="43.00917" lon="0.55569">
        <ele>811.49</ele>
        <time>2020-05-29T15:08:23Z</time>
      </trkpt>
      <trkpt lat="43.00901" lon="0.55564">
        <ele>813.41</ele>
        <time>2020-05-29T15:08:42Z</time>
      </trkpt>
      <trkpt lat="43.00883" lon="0.55554">
        <ele>814.37</ele>
        <time>2020-05-29T15:09:00Z</time>
      </trkpt>
      <trkpt lat="43.00868" lon="0.55542">
        <ele>815.34</ele>
        <time>2020-05-29T15:09:17Z</time>
      </trkpt>
      <trkpt lat="43.00848" lon="0.55529">
        <ele>816.3</ele>
        <time>2020-05-29T15:09:34Z</time>
      </trkpt>
      <trkpt lat="43.00825" lon="0.55536">
        <ele>817.26</ele>
        <time>2020-05-29T15:09:54Z</time>
      </trkpt>
      <trkpt lat="43.00807" lon="0.55534">
        <ele>818.22</ele>
        <time>2020-05-29T15:10:09Z</time>
      </trkpt>
      <trkpt lat="43.00798" lon="0.55517">
        <ele>818.22</ele>
        <time>2020-05-29T15:10:23Z</time>
      </trkpt>
      <trkpt lat="43.0079" lon="0.55496">
        <ele>818.22</ele>
        <time>2020-05-29T15:10:39Z</time>
      </trkpt>
      <trkpt lat="43.00777" lon="0.55467">
        <ele>818.7</ele>
        <time>2020-05-29T15:10:58Z</time>
      </trkpt>
      <trkpt lat="43.00761" lon="0.55442">
        <ele>818.7</ele>
        <time>2020-05-29T15:11:18Z</time>
      </trkpt>
      <trkpt lat="43.0076" lon="0.55441">
        <ele>817.26</ele>
        <time>2020-05-29T15:11:20Z</time>
      </trkpt>
      <trkpt lat="43.00749" lon="0.55419">
        <ele>815.82</ele>
        <time>2020-05-29T15:11:37Z</time>
      </trkpt>
      <trkpt lat="43.0074" lon="0.55404">
        <ele>813.89</ele>
        <time>2020-05-29T15:11:52Z</time>
      </trkpt>
      <trkpt lat="43.00726" lon="0.55384">
        <ele>812.45</ele>
        <time>2020-05-29T15:12:10Z</time>
      </trkpt>
      <trkpt lat="43.00712" lon="0.55356">
        <ele>811.01</ele>
        <time>2020-05-29T15:12:29Z</time>
      </trkpt>
      <trkpt lat="43.00705" lon="0.5534">
        <ele>809.09</ele>
        <time>2020-05-29T15:12:49Z</time>
      </trkpt>
      <trkpt lat="43.00689" lon="0.55316">
        <ele>806.68</ele>
        <time>2020-05-29T15:13:07Z</time>
      </trkpt>
      <trkpt lat="43.00675" lon="0.55299">
        <ele>805.24</ele>
        <time>2020-05-29T15:13:24Z</time>
      </trkpt>
      <trkpt lat="43.00664" lon="0.55289">
        <ele>804.76</ele>
        <time>2020-05-29T15:13:39Z</time>
      </trkpt>
      <trkpt lat="43.00653" lon="0.55273">
        <ele>804.28</ele>
        <time>2020-05-29T15:13:53Z</time>
      </trkpt>
      <trkpt lat="43.00637" lon="0.55256">
        <ele>804.28</ele>
        <time>2020-05-29T15:14:07Z</time>
      </trkpt>
      <trkpt lat="43.00619" lon="0.55249">
        <ele>805.24</ele>
        <time>2020-05-29T15:14:22Z</time>
      </trkpt>
      <trkpt lat="43.00605" lon="0.55235">
        <ele>805.72</ele>
        <time>2020-05-29T15:14:39Z</time>
      </trkpt>
      <trkpt lat="43.00587" lon="0.55222">
        <ele>806.68</ele>
        <time>2020-05-29T15:14:58Z</time>
      </trkpt>
      <trkpt lat="43.00581" lon="0.55213">
        <ele>807.16</ele>
        <time>2020-05-29T15:15:04Z</time>
      </trkpt>
      <trkpt lat="43.00568" lon="0.55211">
        <ele>806.68</ele>
        <time>2020-05-29T15:15:19Z</time>
      </trkpt>
      <trkpt lat="43.00571" lon="0.55223">
        <ele>805.24</ele>
        <time>2020-05-29T15:15:31Z</time>
      </trkpt>
      <trkpt lat="43.00579" lon="0.55241">
        <ele>803.8</ele>
        <time>2020-05-29T15:15:45Z</time>
      </trkpt>
      <trkpt lat="43.00588" lon="0.55258">
        <ele>802.36</ele>
        <time>2020-05-29T15:15:59Z</time>
      </trkpt>
      <trkpt lat="43.006" lon="0.55271">
        <ele>800.44</ele>
        <time>2020-05-29T15:16:11Z</time>
      </trkpt>
      <trkpt lat="43.00602" lon="0.55274">
        <ele>799.95</ele>
        <time>2020-05-29T15:16:14Z</time>
      </trkpt>
      <trkpt lat="43.0061" lon="0.55292">
        <ele>798.51</ele>
        <time>2020-05-29T15:16:27Z</time>
      </trkpt>
      <trkpt lat="43.00617" lon="0.55308">
        <ele>796.59</ele>
        <time>2020-05-29T15:16:41Z</time>
      </trkpt>
      <trkpt lat="43.00622" lon="0.55328">
        <ele>796.11</ele>
        <time>2020-05-29T15:16:56Z</time>
      </trkpt>
      <trkpt lat="43.00626" lon="0.55334">
        <ele>795.63</ele>
        <time>2020-05-29T15:17:12Z</time>
      </trkpt>
      <trkpt lat="43.00627" lon="0.55351">
        <ele>795.15</ele>
        <time>2020-05-29T15:17:29Z</time>
      </trkpt>
      <trkpt lat="43.00626" lon="0.55371">
        <ele>794.19</ele>
        <time>2020-05-29T15:17:44Z</time>
      </trkpt>
      <trkpt lat="43.00625" lon="0.55391">
        <ele>792.74</ele>
        <time>2020-05-29T15:17:59Z</time>
      </trkpt>
      <trkpt lat="43.00623" lon="0.55406">
        <ele>791.3</ele>
        <time>2020-05-29T15:18:12Z</time>
      </trkpt>
      <trkpt lat="43.00624" lon="0.55415">
        <ele>790.34</ele>
        <time>2020-05-29T15:18:17Z</time>
      </trkpt>
      <trkpt lat="43.00628" lon="0.55431">
        <ele>789.38</ele>
        <time>2020-05-29T15:18:29Z</time>
      </trkpt>
      <trkpt lat="43.00626" lon="0.5545">
        <ele>787.94</ele>
        <time>2020-05-29T15:18:39Z</time>
      </trkpt>
      <trkpt lat="43.00624" lon="0.55453">
        <ele>787.94</ele>
        <time>2020-05-29T15:18:41Z</time>
      </trkpt>
      <trkpt lat="43.0062" lon="0.55479">
        <ele>786.02</ele>
        <time>2020-05-29T15:18:54Z</time>
      </trkpt>
      <trkpt lat="43.0062" lon="0.5551">
        <ele>784.09</ele>
        <time>2020-05-29T15:19:07Z</time>
      </trkpt>
      <trkpt lat="43.00624" lon="0.55528">
        <ele>782.65</ele>
        <time>2020-05-29T15:19:20Z</time>
      </trkpt>
      <trkpt lat="43.00625" lon="0.55549">
        <ele>780.73</ele>
        <time>2020-05-29T15:19:37Z</time>
      </trkpt>
      <trkpt lat="43.00624" lon="0.55559">
        <ele>779.29</ele>
        <time>2020-05-29T15:19:44Z</time>
      </trkpt>
      <trkpt lat="43.00618" lon="0.55583">
        <ele>777.36</ele>
        <time>2020-05-29T15:19:57Z</time>
      </trkpt>
      <trkpt lat="43.00613" lon="0.55604">
        <ele>775.92</ele>
        <time>2020-05-29T15:20:10Z</time>
      </trkpt>
      <trkpt lat="43.00612" lon="0.55626">
        <ele>773.52</ele>
        <time>2020-05-29T15:20:25Z</time>
      </trkpt>
      <trkpt lat="43.00608" lon="0.55644">
        <ele>772.08</ele>
        <time>2020-05-29T15:20:38Z</time>
      </trkpt>
      <trkpt lat="43.00608" lon="0.55645">
        <ele>772.08</ele>
        <time>2020-05-29T15:20:39Z</time>
      </trkpt>
      <trkpt lat="43.00604" lon="0.55671">
        <ele>770.63</ele>
        <time>2020-05-29T15:20:51Z</time>
      </trkpt>
      <trkpt lat="43.00603" lon="0.55695">
        <ele>768.71</ele>
        <time>2020-05-29T15:21:06Z</time>
      </trkpt>
      <trkpt lat="43.00605" lon="0.55719">
        <ele>766.31</ele>
        <time>2020-05-29T15:21:21Z</time>
      </trkpt>
      <trkpt lat="43.00598" lon="0.55738">
        <ele>765.35</ele>
        <time>2020-05-29T15:21:33Z</time>
      </trkpt>
      <trkpt lat="43.00595" lon="0.5575">
        <ele>763.9</ele>
        <time>2020-05-29T15:21:40Z</time>
      </trkpt>
      <trkpt lat="43.0059" lon="0.5577">
        <ele>761.98</ele>
        <time>2020-05-29T15:21:56Z</time>
      </trkpt>
      <trkpt lat="43.0059" lon="0.5579">
        <ele>760.54</ele>
        <time>2020-05-29T15:22:10Z</time>
      </trkpt>
      <trkpt lat="43.00589" lon="0.55797">
        <ele>758.14</ele>
        <time>2020-05-29T15:22:23Z</time>
      </trkpt>
      <trkpt lat="43.00583" lon="0.55815">
        <ele>755.73</ele>
        <time>2020-05-29T15:22:38Z</time>
      </trkpt>
      <trkpt lat="43.00571" lon="0.55835">
        <ele>754.29</ele>
        <time>2020-05-29T15:22:53Z</time>
      </trkpt>
      <trkpt lat="43.0056" lon="0.55858">
        <ele>752.85</ele>
        <time>2020-05-29T15:23:07Z</time>
      </trkpt>
      <trkpt lat="43.00546" lon="0.55876">
        <ele>749.97</ele>
        <time>2020-05-29T15:23:22Z</time>
      </trkpt>
      <trkpt lat="43.00534" lon="0.55899">
        <ele>748.52</ele>
        <time>2020-05-29T15:23:36Z</time>
      </trkpt>
      <trkpt lat="43.00523" lon="0.55917">
        <ele>746.6</ele>
        <time>2020-05-29T15:23:49Z</time>
      </trkpt>
      <trkpt lat="43.00518" lon="0.55922">
        <ele>745.16</ele>
        <time>2020-05-29T15:23:58Z</time>
      </trkpt>
      <trkpt lat="43.00511" lon="0.55948">
        <ele>743.24</ele>
        <time>2020-05-29T15:24:12Z</time>
      </trkpt>
      <trkpt lat="43.00506" lon="0.55973">
        <ele>741.31</ele>
        <time>2020-05-29T15:24:27Z</time>
      </trkpt>
      <trkpt lat="43.00505" lon="0.55975">
        <ele>740.35</ele>
        <time>2020-05-29T15:24:30Z</time>
      </trkpt>
      <trkpt lat="43.00497" lon="0.55986">
        <ele>738.43</ele>
        <time>2020-05-29T15:24:47Z</time>
      </trkpt>
      <trkpt lat="43.00491" lon="0.56019">
        <ele>735.07</ele>
        <time>2020-05-29T15:25:03Z</time>
      </trkpt>
      <trkpt lat="43.00486" lon="0.56047">
        <ele>733.62</ele>
        <time>2020-05-29T15:25:14Z</time>
      </trkpt>
      <trkpt lat="43.0049" lon="0.56074">
        <ele>731.7</ele>
        <time>2020-05-29T15:25:28Z</time>
      </trkpt>
      <trkpt lat="43.00488" lon="0.56082">
        <ele>730.26</ele>
        <time>2020-05-29T15:25:37Z</time>
      </trkpt>
      <trkpt lat="43.00486" lon="0.56083">
        <ele>730.26</ele>
        <time>2020-05-29T15:25:39Z</time>
      </trkpt>
      <trkpt lat="43.0049" lon="0.56097">
        <ele>727.86</ele>
        <time>2020-05-29T15:25:50Z</time>
      </trkpt>
      <trkpt lat="43.00502" lon="0.56081">
        <ele>727.37</ele>
        <time>2020-05-29T15:26:04Z</time>
      </trkpt>
      <trkpt lat="43.00514" lon="0.56057">
        <ele>724.97</ele>
        <time>2020-05-29T15:26:21Z</time>
      </trkpt>
      <trkpt lat="43.00518" lon="0.56031">
        <ele>723.53</ele>
        <time>2020-05-29T15:26:40Z</time>
      </trkpt>
      <trkpt lat="43.00523" lon="0.5601">
        <ele>721.61</ele>
        <time>2020-05-29T15:26:57Z</time>
      </trkpt>
      <trkpt lat="43.00547" lon="0.55997">
        <ele>719.2</ele>
        <time>2020-05-29T15:27:15Z</time>
      </trkpt>
      <trkpt lat="43.00557" lon="0.55996">
        <ele>718.24</ele>
        <time>2020-05-29T15:27:33Z</time>
      </trkpt>
      <trkpt lat="43.00574" lon="0.55972">
        <ele>716.32</ele>
        <time>2020-05-29T15:27:54Z</time>
      </trkpt>
      <trkpt lat="43.00586" lon="0.5595">
        <ele>714.88</ele>
        <time>2020-05-29T15:28:13Z</time>
      </trkpt>
      <trkpt lat="43.00597" lon="0.55962">
        <ele>712.95</ele>
        <time>2020-05-29T15:28:24Z</time>
      </trkpt>
      <trkpt lat="43.00589" lon="0.56001">
        <ele>710.55</ele>
        <time>2020-05-29T15:28:41Z</time>
      </trkpt>
      <trkpt lat="43.00579" lon="0.56019">
        <ele>709.11</ele>
        <time>2020-05-29T15:28:53Z</time>
      </trkpt>
      <trkpt lat="43.00572" lon="0.56037">
        <ele>707.67</ele>
        <time>2020-05-29T15:29:04Z</time>
      </trkpt>
      <trkpt lat="43.00565" lon="0.56047">
        <ele>706.23</ele>
        <time>2020-05-29T15:29:12Z</time>
      </trkpt>
      <trkpt lat="43.00559" lon="0.56059">
        <ele>703.82</ele>
        <time>2020-05-29T15:29:23Z</time>
      </trkpt>
      <trkpt lat="43.0055" lon="0.56077">
        <ele>702.38</ele>
        <time>2020-05-29T15:29:36Z</time>
      </trkpt>
      <trkpt lat="43.00555" lon="0.56111">
        <ele>699.5</ele>
        <time>2020-05-29T15:29:53Z</time>
      </trkpt>
      <trkpt lat="43.00556" lon="0.5612">
        <ele>697.57</ele>
        <time>2020-05-29T15:30:01Z</time>
      </trkpt>
      <trkpt lat="43.00554" lon="0.56143">
        <ele>695.17</ele>
        <time>2020-05-29T15:30:16Z</time>
      </trkpt>
      <trkpt lat="43.0056" lon="0.56162">
        <ele>692.77</ele>
        <time>2020-05-29T15:30:30Z</time>
      </trkpt>
      <trkpt lat="43.00571" lon="0.56163">
        <ele>691.81</ele>
        <time>2020-05-29T15:30:37Z</time>
      </trkpt>
      <trkpt lat="43.00593" lon="0.56161">
        <ele>689.4</ele>
        <time>2020-05-29T15:30:53Z</time>
      </trkpt>
      <trkpt lat="43.00622" lon="0.56156">
        <ele>687.48</ele>
        <time>2020-05-29T15:31:12Z</time>
      </trkpt>
      <trkpt lat="43.00638" lon="0.56152">
        <ele>686.52</ele>
        <time>2020-05-29T15:31:29Z</time>
      </trkpt>
      <trkpt lat="43.00644" lon="0.56154">
        <ele>686.52</ele>
        <time>2020-05-29T15:31:46Z</time>
      </trkpt>
      <trkpt lat="43.00649" lon="0.56167">
        <ele>686.52</ele>
        <time>2020-05-29T15:31:57Z</time>
      </trkpt>
      <trkpt lat="43.00661" lon="0.56184">
        <ele>686.52</ele>
        <time>2020-05-29T15:32:11Z</time>
      </trkpt>
      <trkpt lat="43.0067" lon="0.56203">
        <ele>686.52</ele>
        <time>2020-05-29T15:32:27Z</time>
      </trkpt>
      <trkpt lat="43.00677" lon="0.56213">
        <ele>686.52</ele>
        <time>2020-05-29T15:32:37Z</time>
      </trkpt>
      <trkpt lat="43.00691" lon="0.56235">
        <ele>686.52</ele>
        <time>2020-05-29T15:32:53Z</time>
      </trkpt>
      <trkpt lat="43.00692" lon="0.56236">
        <ele>686.52</ele>
        <time>2020-05-29T15:32:54Z</time>
      </trkpt>
      <trkpt lat="43.007" lon="0.56259">
        <ele>687.96</ele>
        <time>2020-05-29T15:33:07Z</time>
      </trkpt>
      <trkpt lat="43.00711" lon="0.56278">
        <ele>687.96</ele>
        <time>2020-05-29T15:33:21Z</time>
      </trkpt>
      <trkpt lat="43.00723" lon="0.56297">
        <ele>687.96</ele>
        <time>2020-05-29T15:33:36Z</time>
      </trkpt>
      <trkpt lat="43.00733" lon="0.56314">
        <ele>687.96</ele>
        <time>2020-05-29T15:33:49Z</time>
      </trkpt>
      <trkpt lat="43.00737" lon="0.56337">
        <ele>687.96</ele>
        <time>2020-05-29T15:34:05Z</time>
      </trkpt>
      <trkpt lat="43.00743" lon="0.56358">
        <ele>687.96</ele>
        <time>2020-05-29T15:34:18Z</time>
      </trkpt>
      <trkpt lat="43.00759" lon="0.56378">
        <ele>687.96</ele>
        <time>2020-05-29T15:34:33Z</time>
      </trkpt>
      <trkpt lat="43.00775" lon="0.56398">
        <ele>687.48</ele>
        <time>2020-05-29T15:34:47Z</time>
      </trkpt>
      <trkpt lat="43.0079" lon="0.56428">
        <ele>686.52</ele>
        <time>2020-05-29T15:35:06Z</time>
      </trkpt>
      <trkpt lat="43.00814" lon="0.56432">
        <ele>684.12</ele>
        <time>2020-05-29T15:35:25Z</time>
      </trkpt>
      <trkpt lat="43.0084" lon="0.56428">
        <ele>682.19</ele>
        <time>2020-05-29T15:35:42Z</time>
      </trkpt>
      <trkpt lat="43.00851" lon="0.56437">
        <ele>680.75</ele>
        <time>2020-05-29T15:35:54Z</time>
      </trkpt>
      <trkpt lat="43.00866" lon="0.5646">
        <ele>679.31</ele>
        <time>2020-05-29T15:36:12Z</time>
      </trkpt>
      <trkpt lat="43.00875" lon="0.56477">
        <ele>677.39</ele>
        <time>2020-05-29T15:36:26Z</time>
      </trkpt>
      <trkpt lat="43.00885" lon="0.56494">
        <ele>676.42</ele>
        <time>2020-05-29T15:36:39Z</time>
      </trkpt>
      <trkpt lat="43.00895" lon="0.56499">
        <ele>675.46</ele>
        <time>2020-05-29T15:36:55Z</time>
      </trkpt>
      <trkpt lat="43.00894" lon="0.56504">
        <ele>675.46</ele>
        <time>2020-05-29T15:37:10Z</time>
      </trkpt>
      <trkpt lat="43.00896" lon="0.56521">
        <ele>674.98</ele>
        <time>2020-05-29T15:37:20Z</time>
      </trkpt>
      <trkpt lat="43.00899" lon="0.56534">
        <ele>674.02</ele>
        <time>2020-05-29T15:37:28Z</time>
      </trkpt>
      <trkpt lat="43.00905" lon="0.56559">
        <ele>673.54</ele>
        <time>2020-05-29T15:37:45Z</time>
      </trkpt>
      <trkpt lat="43.00906" lon="0.56564">
        <ele>673.54</ele>
        <time>2020-05-29T15:37:48Z</time>
      </trkpt>
      <trkpt lat="43.00906" lon="0.5659">
        <ele>673.54</ele>
        <time>2020-05-29T15:38:03Z</time>
      </trkpt>
      <trkpt lat="43.00908" lon="0.56616">
        <ele>672.58</ele>
        <time>2020-05-29T15:38:18Z</time>
      </trkpt>
      <trkpt lat="43.00918" lon="0.56639">
        <ele>669.22</ele>
        <time>2020-05-29T15:38:33Z</time>
      </trkpt>
      <trkpt lat="43.00929" lon="0.56659">
        <ele>666.81</ele>
        <time>2020-05-29T15:38:50Z</time>
      </trkpt>
      <trkpt lat="43.00935" lon="0.56679">
        <ele>663.45</ele>
        <time>2020-05-29T15:39:03Z</time>
      </trkpt>
      <trkpt lat="43.00939" lon="0.56696">
        <ele>661.04</ele>
        <time>2020-05-29T15:39:16Z</time>
      </trkpt>
      <trkpt lat="43.0095" lon="0.56713">
        <ele>658.64</ele>
        <time>2020-05-29T15:39:30Z</time>
      </trkpt>
      <trkpt lat="43.00961" lon="0.56735">
        <ele>655.76</ele>
        <time>2020-05-29T15:39:43Z</time>
      </trkpt>
      <trkpt lat="43.00962" lon="0.56736">
        <ele>655.76</ele>
        <time>2020-05-29T15:39:44Z</time>
      </trkpt>
      <trkpt lat="43.00978" lon="0.56753">
        <ele>652.39</ele>
        <time>2020-05-29T15:40:02Z</time>
      </trkpt>
      <trkpt lat="43.00981" lon="0.56771">
        <ele>650.95</ele>
        <time>2020-05-29T15:40:15Z</time>
      </trkpt>
      <trkpt lat="43.00983" lon="0.56788">
        <ele>648.07</ele>
        <time>2020-05-29T15:40:29Z</time>
      </trkpt>
      <trkpt lat="43.00991" lon="0.56806">
        <ele>644.7</ele>
        <time>2020-05-29T15:40:45Z</time>
      </trkpt>
      <trkpt lat="43.01" lon="0.56829">
        <ele>642.3</ele>
        <time>2020-05-29T15:41:00Z</time>
      </trkpt>
      <trkpt lat="43.01006" lon="0.56855">
        <ele>639.41</ele>
        <time>2020-05-29T15:41:16Z</time>
      </trkpt>
      <trkpt lat="43.01008" lon="0.56874">
        <ele>637.01</ele>
        <time>2020-05-29T15:41:29Z</time>
      </trkpt>
      <trkpt lat="43.0101" lon="0.56893">
        <ele>634.61</ele>
        <time>2020-05-29T15:41:43Z</time>
      </trkpt>
      <trkpt lat="43.01013" lon="0.56907">
        <ele>631.72</ele>
        <time>2020-05-29T15:41:57Z</time>
      </trkpt>
      <trkpt lat="43.01018" lon="0.56927">
        <ele>629.32</ele>
        <time>2020-05-29T15:42:11Z</time>
      </trkpt>
      <trkpt lat="43.01017" lon="0.5695">
        <ele>625.96</ele>
        <time>2020-05-29T15:42:30Z</time>
      </trkpt>
      <trkpt lat="43.01013" lon="0.5697">
        <ele>623.07</ele>
        <time>2020-05-29T15:42:45Z</time>
      </trkpt>
      <trkpt lat="43.01004" lon="0.56984">
        <ele>619.71</ele>
        <time>2020-05-29T15:43:02Z</time>
      </trkpt>
      <trkpt lat="43.0099" lon="0.56993">
        <ele>616.82</ele>
        <time>2020-05-29T15:43:18Z</time>
      </trkpt>
      <trkpt lat="43.00981" lon="0.56993">
        <ele>613.46</ele>
        <time>2020-05-29T15:43:30Z</time>
      </trkpt>
      <trkpt lat="43.00969" lon="0.56997">
        <ele>610.57</ele>
        <time>2020-05-29T15:43:45Z</time>
      </trkpt>
      <trkpt lat="43.00958" lon="0.57005">
        <ele>607.21</ele>
        <time>2020-05-29T15:44:02Z</time>
      </trkpt>
      <trkpt lat="43.00946" lon="0.57015">
        <ele>605.77</ele>
        <time>2020-05-29T15:44:18Z</time>
      </trkpt>
      <trkpt lat="43.00956" lon="0.57037">
        <ele>602.88</ele>
        <time>2020-05-29T15:44:36Z</time>
      </trkpt>
      <trkpt lat="43.0096" lon="0.57058">
        <ele>600.48</ele>
        <time>2020-05-29T15:44:52Z</time>
      </trkpt>
      <trkpt lat="43.00962" lon="0.57068">
        <ele>599.52</ele>
        <time>2020-05-29T15:44:58Z</time>
      </trkpt>
      <trkpt lat="43.00972" lon="0.57085">
        <ele>598.08</ele>
        <time>2020-05-29T15:45:13Z</time>
      </trkpt>
      <trkpt lat="43.00985" lon="0.57103">
        <ele>595.67</ele>
        <time>2020-05-29T15:45:29Z</time>
      </trkpt>
      <trkpt lat="43.00991" lon="0.57116">
        <ele>593.27</ele>
        <time>2020-05-29T15:45:44Z</time>
      </trkpt>
      <trkpt lat="43.00996" lon="0.57142">
        <ele>591.83</ele>
        <time>2020-05-29T15:45:55Z</time>
      </trkpt>
      <trkpt lat="43.00999" lon="0.57156">
        <ele>589.91</ele>
        <time>2020-05-29T15:46:03Z</time>
      </trkpt>
      <trkpt lat="43.01005" lon="0.57162">
        <ele>589.43</ele>
        <time>2020-05-29T15:46:09Z</time>
      </trkpt>
      <trkpt lat="43.01023" lon="0.57165">
        <ele>589.43</ele>
        <time>2020-05-29T15:46:25Z</time>
      </trkpt>
      <trkpt lat="43.01026" lon="0.57163">
        <ele>589.43</ele>
        <time>2020-05-29T15:46:33Z</time>
      </trkpt>
      <trkpt lat="43.01046" lon="0.57165">
        <ele>589.43</ele>
        <time>2020-05-29T15:46:50Z</time>
      </trkpt>
      <trkpt lat="43.01067" lon="0.57168">
        <ele>588.46</ele>
        <time>2020-05-29T15:47:08Z</time>
      </trkpt>
      <trkpt lat="43.01079" lon="0.57167">
        <ele>587.5</ele>
        <time>2020-05-29T15:47:24Z</time>
      </trkpt>
      <trkpt lat="43.01114" lon="0.5716">
        <ele>586.54</ele>
        <time>2020-05-29T15:47:41Z</time>
      </trkpt>
      <trkpt lat="43.01133" lon="0.57161">
        <ele>585.1</ele>
        <time>2020-05-29T15:47:57Z</time>
      </trkpt>
      <trkpt lat="43.0115" lon="0.5715">
        <ele>583.66</ele>
        <time>2020-05-29T15:48:14Z</time>
      </trkpt>
      <trkpt lat="43.01169" lon="0.57136">
        <ele>581.73</ele>
        <time>2020-05-29T15:48:31Z</time>
      </trkpt>
      <trkpt lat="43.01187" lon="0.57125">
        <ele>579.81</ele>
        <time>2020-05-29T15:48:45Z</time>
      </trkpt>
      <trkpt lat="43.01191" lon="0.57124">
        <ele>579.33</ele>
        <time>2020-05-29T15:49:08Z</time>
      </trkpt>
      <trkpt lat="43.01191" lon="0.57134">
        <ele>578.37</ele>
        <time>2020-05-29T15:49:32Z</time>
      </trkpt>
      <trkpt lat="43.01191" lon="0.57139">
        <ele>578.37</ele>
        <time>2020-05-29T15:49:51Z</time>
      </trkpt>
      <trkpt lat="43.01183" lon="0.57136">
        <ele>578.37</ele>
        <time>2020-05-29T15:50:13Z</time>
      </trkpt>
      <trkpt lat="43.01183" lon="0.57127">
        <ele>578.37</ele>
        <time>2020-05-29T15:50:34Z</time>
      </trkpt>
      <trkpt lat="43.01181" lon="0.5713">
        <ele>578.37</ele>
        <time>2020-05-29T15:51:05Z</time>
      </trkpt>
      <trkpt lat="43.01182" lon="0.57129">
        <ele>578.37</ele>
        <time>2020-05-29T15:51:41Z</time>
      </trkpt>
      <trkpt lat="43.01185" lon="0.57128">
        <ele>578.37</ele>
        <time>2020-05-29T15:52:07Z</time>
      </trkpt>
      <trkpt lat="43.01192" lon="0.57115">
        <ele>575.97</ele>
        <time>2020-05-29T15:52:26Z</time>
      </trkpt>
      <trkpt lat="43.01204" lon="0.57093">
        <ele>573.08</ele>
        <time>2020-05-29T15:52:44Z</time>
      </trkpt>
      <trkpt lat="43.01213" lon="0.57065">
        <ele>571.16</ele>
        <time>2020-05-29T15:53:02Z</time>
      </trkpt>
      <trkpt lat="43.0122" lon="0.57039">
        <ele>570.68</ele>
        <time>2020-05-29T15:53:19Z</time>
      </trkpt>
      <trkpt lat="43.01221" lon="0.57018">
        <ele>570.68</ele>
        <time>2020-05-29T15:53:37Z</time>
      </trkpt>
      <trkpt lat="43.01221" lon="0.57018">
        <ele>571.64</ele>
        <time>2020-05-29T15:53:39Z</time>
      </trkpt>
      <trkpt lat="43.01237" lon="0.57022">
        <ele>573.56</ele>
        <time>2020-05-29T15:53:53Z</time>
      </trkpt>
      <trkpt lat="43.01254" lon="0.57039">
        <ele>574.53</ele>
        <time>2020-05-29T15:54:07Z</time>
      </trkpt>
      <trkpt lat="43.01264" lon="0.57066">
        <ele>575.49</ele>
        <time>2020-05-29T15:54:25Z</time>
      </trkpt>
      <trkpt lat="43.0127" lon="0.57088">
        <ele>577.41</ele>
        <time>2020-05-29T15:54:39Z</time>
      </trkpt>
      <trkpt lat="43.0128" lon="0.57104">
        <ele>579.33</ele>
        <time>2020-05-29T15:54:55Z</time>
      </trkpt>
      <trkpt lat="43.01276" lon="0.57081">
        <ele>580.29</ele>
        <time>2020-05-29T15:55:12Z</time>
      </trkpt>
      <trkpt lat="43.01269" lon="0.57045">
        <ele>582.7</ele>
        <time>2020-05-29T15:55:31Z</time>
      </trkpt>
      <trkpt lat="43.01261" lon="0.57027">
        <ele>584.14</ele>
        <time>2020-05-29T15:55:48Z</time>
      </trkpt>
      <trkpt lat="43.01252" lon="0.57013">
        <ele>587.02</ele>
        <time>2020-05-29T15:56:05Z</time>
      </trkpt>
      <trkpt lat="43.01243" lon="0.56996">
        <ele>588.46</ele>
        <time>2020-05-29T15:56:23Z</time>
      </trkpt>
      <trkpt lat="43.01224" lon="0.56978">
        <ele>590.87</ele>
        <time>2020-05-29T15:56:40Z</time>
      </trkpt>
      <trkpt lat="43.0121" lon="0.5697">
        <ele>592.79</ele>
        <time>2020-05-29T15:56:55Z</time>
      </trkpt>
      <trkpt lat="43.01188" lon="0.56958">
        <ele>594.71</ele>
        <time>2020-05-29T15:57:12Z</time>
      </trkpt>
      <trkpt lat="43.01191" lon="0.56947">
        <ele>597.6</ele>
        <time>2020-05-29T15:57:31Z</time>
      </trkpt>
      <trkpt lat="43.01203" lon="0.56952">
        <ele>598.08</ele>
        <time>2020-05-29T15:57:44Z</time>
      </trkpt>
      <trkpt lat="43.01212" lon="0.56954">
        <ele>599.52</ele>
        <time>2020-05-29T15:57:59Z</time>
      </trkpt>
      <trkpt lat="43.01233" lon="0.56952">
        <ele>601.92</ele>
        <time>2020-05-29T15:58:20Z</time>
      </trkpt>
      <trkpt lat="43.0124" lon="0.56957">
        <ele>603.36</ele>
        <time>2020-05-29T15:58:36Z</time>
      </trkpt>
      <trkpt lat="43.01254" lon="0.56959">
        <ele>606.25</ele>
        <time>2020-05-29T15:58:55Z</time>
      </trkpt>
      <trkpt lat="43.01264" lon="0.56962">
        <ele>608.17</ele>
        <time>2020-05-29T15:59:08Z</time>
      </trkpt>
      <trkpt lat="43.01274" lon="0.56964">
        <ele>609.61</ele>
        <time>2020-05-29T15:59:20Z</time>
      </trkpt>
      <trkpt lat="43.01294" lon="0.56971">
        <ele>612.02</ele>
        <time>2020-05-29T15:59:35Z</time>
      </trkpt>
      <trkpt lat="43.01306" lon="0.56973">
        <ele>613.94</ele>
        <time>2020-05-29T15:59:48Z</time>
      </trkpt>
      <trkpt lat="43.01326" lon="0.56977">
        <ele>616.34</ele>
        <time>2020-05-29T16:00:05Z</time>
      </trkpt>
      <trkpt lat="43.01339" lon="0.56983">
        <ele>618.26</ele>
        <time>2020-05-29T16:00:20Z</time>
      </trkpt>
      <trkpt lat="43.0135" lon="0.56989">
        <ele>620.19</ele>
        <time>2020-05-29T16:00:36Z</time>
      </trkpt>
      <trkpt lat="43.01361" lon="0.56992">
        <ele>622.59</ele>
        <time>2020-05-29T16:00:52Z</time>
      </trkpt>
      <trkpt lat="43.01379" lon="0.56994">
        <ele>624.51</ele>
        <time>2020-05-29T16:01:11Z</time>
      </trkpt>
      <trkpt lat="43.01396" lon="0.57001">
        <ele>626.44</ele>
        <time>2020-05-29T16:01:31Z</time>
      </trkpt>
      <trkpt lat="43.01409" lon="0.57007">
        <ele>628.36</ele>
        <time>2020-05-29T16:01:51Z</time>
      </trkpt>
      <trkpt lat="43.01423" lon="0.57014">
        <ele>630.28</ele>
        <time>2020-05-29T16:02:07Z</time>
      </trkpt>
      <trkpt lat="43.01433" lon="0.5702">
        <ele>632.68</ele>
        <time>2020-05-29T16:02:23Z</time>
      </trkpt>
      <trkpt lat="43.01445" lon="0.57028">
        <ele>634.61</ele>
        <time>2020-05-29T16:02:39Z</time>
      </trkpt>
      <trkpt lat="43.01457" lon="0.57033">
        <ele>636.05</ele>
        <time>2020-05-29T16:02:54Z</time>
      </trkpt>
      <trkpt lat="43.01465" lon="0.57041">
        <ele>637.97</ele>
        <time>2020-05-29T16:03:11Z</time>
      </trkpt>
      <trkpt lat="43.01481" lon="0.57046">
        <ele>639.41</ele>
        <time>2020-05-29T16:03:25Z</time>
      </trkpt>
      <trkpt lat="43.0148" lon="0.57057">
        <ele>639.41</ele>
        <time>2020-05-29T16:03:56Z</time>
      </trkpt>
      <trkpt lat="43.0148" lon="0.57055">
        <ele>640.38</ele>
        <time>2020-05-29T16:04:27Z</time>
      </trkpt>
      <trkpt lat="43.01477" lon="0.57053">
        <ele>640.38</ele>
        <time>2020-05-29T16:04:56Z</time>
      </trkpt>
      <trkpt lat="43.01482" lon="0.57062">
        <ele>640.86</ele>
        <time>2020-05-29T16:05:13Z</time>
      </trkpt>
      <trkpt lat="43.0149" lon="0.57083">
        <ele>642.3</ele>
        <time>2020-05-29T16:05:27Z</time>
      </trkpt>
      <trkpt lat="43.01499" lon="0.57094">
        <ele>643.74</ele>
        <time>2020-05-29T16:05:44Z</time>
      </trkpt>
      <trkpt lat="43.01507" lon="0.57115">
        <ele>645.66</ele>
        <time>2020-05-29T16:06:01Z</time>
      </trkpt>
      <trkpt lat="43.01511" lon="0.57138">
        <ele>646.62</ele>
        <time>2020-05-29T16:06:19Z</time>
      </trkpt>
      <trkpt lat="43.0151" lon="0.57151">
        <ele>647.1</ele>
        <time>2020-05-29T16:06:35Z</time>
      </trkpt>
      <trkpt lat="43.01501" lon="0.57161">
        <ele>643.74</ele>
        <time>2020-05-29T16:06:50Z</time>
      </trkpt>
      <trkpt lat="43.01496" lon="0.57174">
        <ele>640.86</ele>
        <time>2020-05-29T16:07:04Z</time>
      </trkpt>
      <trkpt lat="43.01488" lon="0.57191">
        <ele>637.49</ele>
        <time>2020-05-29T16:07:20Z</time>
      </trkpt>
      <trkpt lat="43.01482" lon="0.57208">
        <ele>634.61</ele>
        <time>2020-05-29T16:07:36Z</time>
      </trkpt>
      <trkpt lat="43.01476" lon="0.57226">
        <ele>632.68</ele>
        <time>2020-05-29T16:07:48Z</time>
      </trkpt>
      <trkpt lat="43.01465" lon="0.5725">
        <ele>630.76</ele>
        <time>2020-05-29T16:08:06Z</time>
      </trkpt>
      <trkpt lat="43.01452" lon="0.5727">
        <ele>627.4</ele>
        <time>2020-05-29T16:08:23Z</time>
      </trkpt>
      <trkpt lat="43.01442" lon="0.57285">
        <ele>624.99</ele>
        <time>2020-05-29T16:08:39Z</time>
      </trkpt>
      <trkpt lat="43.0143" lon="0.57302">
        <ele>622.59</ele>
        <time>2020-05-29T16:08:57Z</time>
      </trkpt>
      <trkpt lat="43.01419" lon="0.57315">
        <ele>619.23</ele>
        <time>2020-05-29T16:09:12Z</time>
      </trkpt>
      <trkpt lat="43.01407" lon="0.57329">
        <ele>615.86</ele>
        <time>2020-05-29T16:09:26Z</time>
      </trkpt>
      <trkpt lat="43.01393" lon="0.57336">
        <ele>612.98</ele>
        <time>2020-05-29T16:09:42Z</time>
      </trkpt>
      <trkpt lat="43.01392" lon="0.57319">
        <ele>610.09</ele>
        <time>2020-05-29T16:09:57Z</time>
      </trkpt>
      <trkpt lat="43.01395" lon="0.57297">
        <ele>607.21</ele>
        <time>2020-05-29T16:10:12Z</time>
      </trkpt>
      <trkpt lat="43.01402" lon="0.57266">
        <ele>606.25</ele>
        <time>2020-05-29T16:10:29Z</time>
      </trkpt>
      <trkpt lat="43.01394" lon="0.57265">
        <ele>602.88</ele>
        <time>2020-05-29T16:10:43Z</time>
      </trkpt>
      <trkpt lat="43.01383" lon="0.5728">
        <ele>599.52</ele>
        <time>2020-05-29T16:11:01Z</time>
      </trkpt>
      <trkpt lat="43.0138" lon="0.57283">
        <ele>599.04</ele>
        <time>2020-05-29T16:11:05Z</time>
      </trkpt>
      <trkpt lat="43.01372" lon="0.57287">
        <ele>597.6</ele>
        <time>2020-05-29T16:11:13Z</time>
      </trkpt>
      <trkpt lat="43.01372" lon="0.57284">
        <ele>597.12</ele>
        <time>2020-05-29T16:11:15Z</time>
      </trkpt>
      <trkpt lat="43.01366" lon="0.57282">
        <ele>595.19</ele>
        <time>2020-05-29T16:11:27Z</time>
      </trkpt>
      <trkpt lat="43.01359" lon="0.57303">
        <ele>593.75</ele>
        <time>2020-05-29T16:11:43Z</time>
      </trkpt>
      <trkpt lat="43.01347" lon="0.57331">
        <ele>592.79</ele>
        <time>2020-05-29T16:12:01Z</time>
      </trkpt>
      <trkpt lat="43.01338" lon="0.5735">
        <ele>591.83</ele>
        <time>2020-05-29T16:12:17Z</time>
      </trkpt>
      <trkpt lat="43.01327" lon="0.57368">
        <ele>590.87</ele>
        <time>2020-05-29T16:12:31Z</time>
      </trkpt>
      <trkpt lat="43.01315" lon="0.57389">
        <ele>588.95</ele>
        <time>2020-05-29T16:12:50Z</time>
      </trkpt>
      <trkpt lat="43.01305" lon="0.57407">
        <ele>587.98</ele>
        <time>2020-05-29T16:13:07Z</time>
      </trkpt>
      <trkpt lat="43.01294" lon="0.57428">
        <ele>587.5</ele>
        <time>2020-05-29T16:13:24Z</time>
      </trkpt>
      <trkpt lat="43.01285" lon="0.57445">
        <ele>587.5</ele>
        <time>2020-05-29T16:13:38Z</time>
      </trkpt>
      <trkpt lat="43.01275" lon="0.57469">
        <ele>587.02</ele>
        <time>2020-05-29T16:13:54Z</time>
      </trkpt>
      <trkpt lat="43.01269" lon="0.57487">
        <ele>586.54</ele>
        <time>2020-05-29T16:14:10Z</time>
      </trkpt>
      <trkpt lat="43.01269" lon="0.57489">
        <ele>587.5</ele>
        <time>2020-05-29T16:14:21Z</time>
      </trkpt>
      <trkpt lat="43.0127" lon="0.57486">
        <ele>587.5</ele>
        <time>2020-05-29T16:14:44Z</time>
      </trkpt>
      <trkpt lat="43.01267" lon="0.57496">
        <ele>587.5</ele>
        <time>2020-05-29T16:15:04Z</time>
      </trkpt>
      <trkpt lat="43.01268" lon="0.57517">
        <ele>590.39</ele>
        <time>2020-05-29T16:15:19Z</time>
      </trkpt>
      <trkpt lat="43.01267" lon="0.57536">
        <ele>591.83</ele>
        <time>2020-05-29T16:15:33Z</time>
      </trkpt>
      <trkpt lat="43.0127" lon="0.57554">
        <ele>593.75</ele>
        <time>2020-05-29T16:15:48Z</time>
      </trkpt>
      <trkpt lat="43.01274" lon="0.57578">
        <ele>594.71</ele>
        <time>2020-05-29T16:16:05Z</time>
      </trkpt>
      <trkpt lat="43.01276" lon="0.57593">
        <ele>597.12</ele>
        <time>2020-05-29T16:16:18Z</time>
      </trkpt>
      <trkpt lat="43.01277" lon="0.57608">
        <ele>598.08</ele>
        <time>2020-05-29T16:16:30Z</time>
      </trkpt>
      <trkpt lat="43.01279" lon="0.57623">
        <ele>599.04</ele>
        <time>2020-05-29T16:16:43Z</time>
      </trkpt>
      <trkpt lat="43.01284" lon="0.57641">
        <ele>600.96</ele>
        <time>2020-05-29T16:16:58Z</time>
      </trkpt>
      <trkpt lat="43.01287" lon="0.57655">
        <ele>602.4</ele>
        <time>2020-05-29T16:17:10Z</time>
      </trkpt>
      <trkpt lat="43.01293" lon="0.57668">
        <ele>604.81</ele>
        <time>2020-05-29T16:17:25Z</time>
      </trkpt>
      <trkpt lat="43.01299" lon="0.57682">
        <ele>607.21</ele>
        <time>2020-05-29T16:17:40Z</time>
      </trkpt>
      <trkpt lat="43.01305" lon="0.57699">
        <ele>609.13</ele>
        <time>2020-05-29T16:17:56Z</time>
      </trkpt>
      <trkpt lat="43.01312" lon="0.57713">
        <ele>611.06</ele>
        <time>2020-05-29T16:18:11Z</time>
      </trkpt>
      <trkpt lat="43.01317" lon="0.57724">
        <ele>612.5</ele>
        <time>2020-05-29T16:18:24Z</time>
      </trkpt>
      <trkpt lat="43.01316" lon="0.57729">
        <ele>612.98</ele>
        <time>2020-05-29T16:18:37Z</time>
      </trkpt>
      <trkpt lat="43.01319" lon="0.57739">
        <ele>612.02</ele>
        <time>2020-05-29T16:18:53Z</time>
      </trkpt>
      <trkpt lat="43.01322" lon="0.5776">
        <ele>610.09</ele>
        <time>2020-05-29T16:19:09Z</time>
      </trkpt>
      <trkpt lat="43.01322" lon="0.57777">
        <ele>608.17</ele>
        <time>2020-05-29T16:19:26Z</time>
      </trkpt>
      <trkpt lat="43.01322" lon="0.57793">
        <ele>606.25</ele>
        <time>2020-05-29T16:19:42Z</time>
      </trkpt>
      <trkpt lat="43.01323" lon="0.57798">
        <ele>606.25</ele>
        <time>2020-05-29T16:19:46Z</time>
      </trkpt>
      <trkpt lat="43.01325" lon="0.57819">
        <ele>605.77</ele>
        <time>2020-05-29T16:20:00Z</time>
      </trkpt>
      <trkpt lat="43.01327" lon="0.57832">
        <ele>604.81</ele>
        <time>2020-05-29T16:20:16Z</time>
      </trkpt>
      <trkpt lat="43.0133" lon="0.57832">
        <ele>604.81</ele>
        <time>2020-05-29T16:20:42Z</time>
      </trkpt>
      <trkpt lat="43.01331" lon="0.57842">
        <ele>604.81</ele>
        <time>2020-05-29T16:20:57Z</time>
      </trkpt>
      <trkpt lat="43.01331" lon="0.57847">
        <ele>604.81</ele>
        <time>2020-05-29T16:21:00Z</time>
      </trkpt>
      <trkpt lat="43.01335" lon="0.57867">
        <ele>603.36</ele>
        <time>2020-05-29T16:21:16Z</time>
      </trkpt>
      <trkpt lat="43.01334" lon="0.57885">
        <ele>600.96</ele>
        <time>2020-05-29T16:21:33Z</time>
      </trkpt>
      <trkpt lat="43.01331" lon="0.57895">
        <ele>598.08</ele>
        <time>2020-05-29T16:21:47Z</time>
      </trkpt>
      <trkpt lat="43.01331" lon="0.57908">
        <ele>595.67</ele>
        <time>2020-05-29T16:22:03Z</time>
      </trkpt>
      <trkpt lat="43.01329" lon="0.57916">
        <ele>593.75</ele>
        <time>2020-05-29T16:22:16Z</time>
      </trkpt>
      <trkpt lat="43.01332" lon="0.57929">
        <ele>592.31</ele>
        <time>2020-05-29T16:22:29Z</time>
      </trkpt>
      <trkpt lat="43.01343" lon="0.57947">
        <ele>592.31</ele>
        <time>2020-05-29T16:22:47Z</time>
      </trkpt>
      <trkpt lat="43.01348" lon="0.57973">
        <ele>591.83</ele>
        <time>2020-05-29T16:23:02Z</time>
      </trkpt>
      <trkpt lat="43.01351" lon="0.57985">
        <ele>589.91</ele>
        <time>2020-05-29T16:23:19Z</time>
      </trkpt>
      <trkpt lat="43.01357" lon="0.57994">
        <ele>589.43</ele>
        <time>2020-05-29T16:23:31Z</time>
      </trkpt>
      <trkpt lat="43.01362" lon="0.58004">
        <ele>588.46</ele>
        <time>2020-05-29T16:23:46Z</time>
      </trkpt>
      <trkpt lat="43.01367" lon="0.58022">
        <ele>585.58</ele>
        <time>2020-05-29T16:24:02Z</time>
      </trkpt>
      <trkpt lat="43.01374" lon="0.58036">
        <ele>583.18</ele>
        <time>2020-05-29T16:24:18Z</time>
      </trkpt>
      <trkpt lat="43.0138" lon="0.58046">
        <ele>580.77</ele>
        <time>2020-05-29T16:24:32Z</time>
      </trkpt>
      <trkpt lat="43.01386" lon="0.58065">
        <ele>577.41</ele>
        <time>2020-05-29T16:24:47Z</time>
      </trkpt>
      <trkpt lat="43.01389" lon="0.58078">
        <ele>575.49</ele>
        <time>2020-05-29T16:25:02Z</time>
      </trkpt>
      <trkpt lat="43.01378" lon="0.58074">
        <ele>573.56</ele>
        <time>2020-05-29T16:25:20Z</time>
      </trkpt>
      <trkpt lat="43.01365" lon="0.58075">
        <ele>570.68</ele>
        <time>2020-05-29T16:25:33Z</time>
      </trkpt>
      <trkpt lat="43.0136" lon="0.5808">
        <ele>569.24</ele>
        <time>2020-05-29T16:25:47Z</time>
      </trkpt>
      <trkpt lat="43.01354" lon="0.58093">
        <ele>567.32</ele>
        <time>2020-05-29T16:26:03Z</time>
      </trkpt>
      <trkpt lat="43.01356" lon="0.58103">
        <ele>566.35</ele>
        <time>2020-05-29T16:26:22Z</time>
      </trkpt>
      <trkpt lat="43.01354" lon="0.5811">
        <ele>565.87</ele>
        <time>2020-05-29T16:26:44Z</time>
      </trkpt>
      <trkpt lat="43.01356" lon="0.58115">
        <ele>564.91</ele>
        <time>2020-05-29T16:27:05Z</time>
      </trkpt>
      <trkpt lat="43.01355" lon="0.58123">
        <ele>562.99</ele>
        <time>2020-05-29T16:27:20Z</time>
      </trkpt>
      <trkpt lat="43.01344" lon="0.58119">
        <ele>560.59</ele>
        <time>2020-05-29T16:27:34Z</time>
      </trkpt>
      <trkpt lat="43.01335" lon="0.58107">
        <ele>558.18</ele>
        <time>2020-05-29T16:27:49Z</time>
      </trkpt>
      <trkpt lat="43.01329" lon="0.58107">
        <ele>556.74</ele>
        <time>2020-05-29T16:28:01Z</time>
      </trkpt>
      <trkpt lat="43.01339" lon="0.5812">
        <ele>555.3</ele>
        <time>2020-05-29T16:28:13Z</time>
      </trkpt>
      <trkpt lat="43.01346" lon="0.58136">
        <ele>552.9</ele>
        <time>2020-05-29T16:28:27Z</time>
      </trkpt>
      <trkpt lat="43.01352" lon="0.58149">
        <ele>550.49</ele>
        <time>2020-05-29T16:28:41Z</time>
      </trkpt>
      <trkpt lat="43.01356" lon="0.58161">
        <ele>548.09</ele>
        <time>2020-05-29T16:28:53Z</time>
      </trkpt>
      <trkpt lat="43.01361" lon="0.58172">
        <ele>545.69</ele>
        <time>2020-05-29T16:29:06Z</time>
      </trkpt>
      <trkpt lat="43.01363" lon="0.58186">
        <ele>542.8</ele>
        <time>2020-05-29T16:29:20Z</time>
      </trkpt>
      <trkpt lat="43.01367" lon="0.58198">
        <ele>539.92</ele>
        <time>2020-05-29T16:29:35Z</time>
      </trkpt>
      <trkpt lat="43.01372" lon="0.58213">
        <ele>537.99</ele>
        <time>2020-05-29T16:29:47Z</time>
      </trkpt>
      <trkpt lat="43.01377" lon="0.58226">
        <ele>535.59</ele>
        <time>2020-05-29T16:29:58Z</time>
      </trkpt>
      <trkpt lat="43.01383" lon="0.58246">
        <ele>534.15</ele>
        <time>2020-05-29T16:30:14Z</time>
      </trkpt>
      <trkpt lat="43.01386" lon="0.58263">
        <ele>531.75</ele>
        <time>2020-05-29T16:30:30Z</time>
      </trkpt>
      <trkpt lat="43.01388" lon="0.58279">
        <ele>529.34</ele>
        <time>2020-05-29T16:30:46Z</time>
      </trkpt>
      <trkpt lat="43.01389" lon="0.58299">
        <ele>526.46</ele>
        <time>2020-05-29T16:31:02Z</time>
      </trkpt>
      <trkpt lat="43.01391" lon="0.58317">
        <ele>524.54</ele>
        <time>2020-05-29T16:31:17Z</time>
      </trkpt>
      <trkpt lat="43.01391" lon="0.5832">
        <ele>524.06</ele>
        <time>2020-05-29T16:31:19Z</time>
      </trkpt>
      <trkpt lat="43.01392" lon="0.58334">
        <ele>522.61</ele>
        <time>2020-05-29T16:31:30Z</time>
      </trkpt>
      <trkpt lat="43.01389" lon="0.58351">
        <ele>520.69</ele>
        <time>2020-05-29T16:31:44Z</time>
      </trkpt>
      <trkpt lat="43.01388" lon="0.58357">
        <ele>519.73</ele>
        <time>2020-05-29T16:32:00Z</time>
      </trkpt>
      <trkpt lat="43.01381" lon="0.58377">
        <ele>517.33</ele>
        <time>2020-05-29T16:32:16Z</time>
      </trkpt>
      <trkpt lat="43.01377" lon="0.58388">
        <ele>515.88</ele>
        <time>2020-05-29T16:32:24Z</time>
      </trkpt>
      <trkpt lat="43.0137" lon="0.58419">
        <ele>514.92</ele>
        <time>2020-05-29T16:32:44Z</time>
      </trkpt>
      <trkpt lat="43.01369" lon="0.58421">
        <ele>514.92</ele>
        <time>2020-05-29T16:33:00Z</time>
      </trkpt>
      <trkpt lat="43.01368" lon="0.58426">
        <ele>514.92</ele>
        <time>2020-05-29T16:33:28Z</time>
      </trkpt>
      <trkpt lat="43.01368" lon="0.58434">
        <ele>514.92</ele>
        <time>2020-05-29T16:33:51Z</time>
      </trkpt>
      <trkpt lat="43.01364" lon="0.58457">
        <ele>513.96</ele>
        <time>2020-05-29T16:34:09Z</time>
      </trkpt>
      <trkpt lat="43.0135" lon="0.58478">
        <ele>513</ele>
        <time>2020-05-29T16:34:27Z</time>
      </trkpt>
      <trkpt lat="43.01348" lon="0.58483">
        <ele>512.52</ele>
        <time>2020-05-29T16:34:31Z</time>
      </trkpt>
      <trkpt lat="43.01347" lon="0.585">
        <ele>512.04</ele>
        <time>2020-05-29T16:34:44Z</time>
      </trkpt>
      <trkpt lat="43.01353" lon="0.58523">
        <ele>508.67</ele>
        <time>2020-05-29T16:34:58Z</time>
      </trkpt>
      <trkpt lat="43.01358" lon="0.58545">
        <ele>506.27</ele>
        <time>2020-05-29T16:35:13Z</time>
      </trkpt>
      <trkpt lat="43.01363" lon="0.58558">
        <ele>503.39</ele>
        <time>2020-05-29T16:35:24Z</time>
      </trkpt>
      <trkpt lat="43.01367" lon="0.58577">
        <ele>501.46</ele>
        <time>2020-05-29T16:35:39Z</time>
      </trkpt>
      <trkpt lat="43.01373" lon="0.58599">
        <ele>500.02</ele>
        <time>2020-05-29T16:35:54Z</time>
      </trkpt>
      <trkpt lat="43.0138" lon="0.58629">
        <ele>498.58</ele>
        <time>2020-05-29T16:36:09Z</time>
      </trkpt>
      <trkpt lat="43.0138" lon="0.5865">
        <ele>497.14</ele>
        <time>2020-05-29T16:36:23Z</time>
      </trkpt>
      <trkpt lat="43.0138" lon="0.58668">
        <ele>495.7</ele>
        <time>2020-05-29T16:36:36Z</time>
      </trkpt>
      <trkpt lat="43.01384" lon="0.58682">
        <ele>494.26</ele>
        <time>2020-05-29T16:36:51Z</time>
      </trkpt>
      <trkpt lat="43.01392" lon="0.58684">
        <ele>491.85</ele>
        <time>2020-05-29T16:37:06Z</time>
      </trkpt>
      <trkpt lat="43.01409" lon="0.58671">
        <ele>489.45</ele>
        <time>2020-05-29T16:37:24Z</time>
      </trkpt>
      <trkpt lat="43.01431" lon="0.5867">
        <ele>491.85</ele>
        <time>2020-05-29T16:37:43Z</time>
      </trkpt>
      <trkpt lat="43.01448" lon="0.58676">
        <ele>494.74</ele>
        <time>2020-05-29T16:38:04Z</time>
      </trkpt>
      <trkpt lat="43.01459" lon="0.58689">
        <ele>495.7</ele>
        <time>2020-05-29T16:38:20Z</time>
      </trkpt>
      <trkpt lat="43.01465" lon="0.58694">
        <ele>498.58</ele>
        <time>2020-05-29T16:38:32Z</time>
      </trkpt>
      <trkpt lat="43.01476" lon="0.58699">
        <ele>500.98</ele>
        <time>2020-05-29T16:38:48Z</time>
      </trkpt>
      <trkpt lat="43.01487" lon="0.58699">
        <ele>501.95</ele>
        <time>2020-05-29T16:39:05Z</time>
      </trkpt>
      <trkpt lat="43.01496" lon="0.58704">
        <ele>501.95</ele>
        <time>2020-05-29T16:39:22Z</time>
      </trkpt>
      <trkpt lat="43.01502" lon="0.58702">
        <ele>502.91</ele>
        <time>2020-05-29T16:39:40Z</time>
      </trkpt>
      <trkpt lat="43.01513" lon="0.58699">
        <ele>500.02</ele>
        <time>2020-05-29T16:39:57Z</time>
      </trkpt>
      <trkpt lat="43.01525" lon="0.58703">
        <ele>498.1</ele>
        <time>2020-05-29T16:40:14Z</time>
      </trkpt>
      <trkpt lat="43.01529" lon="0.58712">
        <ele>494.74</ele>
        <time>2020-05-29T16:40:29Z</time>
      </trkpt>
      <trkpt lat="43.01522" lon="0.58718">
        <ele>492.81</ele>
        <time>2020-05-29T16:40:42Z</time>
      </trkpt>
      <trkpt lat="43.01523" lon="0.58721">
        <ele>490.89</ele>
        <time>2020-05-29T16:41:00Z</time>
      </trkpt>
      <trkpt lat="43.01533" lon="0.58715">
        <ele>488.49</ele>
        <time>2020-05-29T16:41:21Z</time>
      </trkpt>
      <trkpt lat="43.01539" lon="0.58719">
        <ele>485.6</ele>
        <time>2020-05-29T16:41:35Z</time>
      </trkpt>
      <trkpt lat="43.01549" lon="0.58723">
        <ele>482.24</ele>
        <time>2020-05-29T16:41:52Z</time>
      </trkpt>
      <trkpt lat="43.01554" lon="0.58729">
        <ele>479.35</ele>
        <time>2020-05-29T16:42:06Z</time>
      </trkpt>
      <trkpt lat="43.01574" lon="0.58737">
        <ele>476.95</ele>
        <time>2020-05-29T16:42:22Z</time>
      </trkpt>
      <trkpt lat="43.0158" lon="0.58744">
        <ele>475.51</ele>
        <time>2020-05-29T16:42:38Z</time>
      </trkpt>
      <trkpt lat="43.01594" lon="0.58749">
        <ele>475.03</ele>
        <time>2020-05-29T16:42:54Z</time>
      </trkpt>
      <trkpt lat="43.01616" lon="0.58756">
        <ele>474.07</ele>
        <time>2020-05-29T16:43:10Z</time>
      </trkpt>
      <trkpt lat="43.01625" lon="0.58757">
        <ele>473.59</ele>
        <time>2020-05-29T16:43:24Z</time>
      </trkpt>
      <trkpt lat="43.01635" lon="0.58766">
        <ele>473.59</ele>
        <time>2020-05-29T16:43:40Z</time>
      </trkpt>
      <trkpt lat="43.01647" lon="0.58779">
        <ele>472.63</ele>
        <time>2020-05-29T16:43:54Z</time>
      </trkpt>
      <trkpt lat="43.01651" lon="0.58784">
        <ele>472.14</ele>
        <time>2020-05-29T16:44:05Z</time>
      </trkpt>
      <trkpt lat="43.01636" lon="0.58775">
        <ele>472.14</ele>
        <time>2020-05-29T16:44:19Z</time>
      </trkpt>
      <trkpt lat="43.01619" lon="0.5876">
        <ele>471.66</ele>
        <time>2020-05-29T16:44:37Z</time>
      </trkpt>
      <trkpt lat="43.01616" lon="0.58771">
        <ele>471.18</ele>
        <time>2020-05-29T16:44:50Z</time>
      </trkpt>
      <trkpt lat="43.01618" lon="0.58774">
        <ele>471.18</ele>
        <time>2020-05-29T16:44:52Z</time>
      </trkpt>
      <trkpt lat="43.01631" lon="0.58787">
        <ele>470.7</ele>
        <time>2020-05-29T16:45:07Z</time>
      </trkpt>
      <trkpt lat="43.01635" lon="0.58807">
        <ele>469.74</ele>
        <time>2020-05-29T16:45:22Z</time>
      </trkpt>
      <trkpt lat="43.01632" lon="0.58817">
        <ele>469.74</ele>
        <time>2020-05-29T16:45:29Z</time>
      </trkpt>
      <trkpt lat="43.01627" lon="0.58818">
        <ele>468.78</ele>
        <time>2020-05-29T16:45:34Z</time>
      </trkpt>
      <trkpt lat="43.01622" lon="0.58817">
        <ele>468.78</ele>
        <time>2020-05-29T16:45:48Z</time>
      </trkpt>
      <trkpt lat="43.01607" lon="0.5882">
        <ele>468.78</ele>
        <time>2020-05-29T16:46:04Z</time>
      </trkpt>
      <trkpt lat="43.01596" lon="0.58821">
        <ele>469.74</ele>
        <time>2020-05-29T16:46:19Z</time>
      </trkpt>
      <trkpt lat="43.01584" lon="0.58821">
        <ele>469.74</ele>
        <time>2020-05-29T16:46:34Z</time>
      </trkpt>
      <trkpt lat="43.01576" lon="0.58827">
        <ele>470.22</ele>
        <time>2020-05-29T16:46:48Z</time>
      </trkpt>
      <trkpt lat="43.01577" lon="0.58829">
        <ele>470.22</ele>
        <time>2020-05-29T16:47:03Z</time>
      </trkpt>
      <trkpt lat="43.01574" lon="0.58837">
        <ele>470.22</ele>
        <time>2020-05-29T16:47:23Z</time>
      </trkpt>
      <trkpt lat="43.01573" lon="0.58846">
        <ele>470.22</ele>
        <time>2020-05-29T16:47:38Z</time>
      </trkpt>
      <trkpt lat="43.01575" lon="0.58845">
        <ele>470.22</ele>
        <time>2020-05-29T16:48:00Z</time>
      </trkpt>
    </trkseg>
  </trk>
</gpx>